<?xml version="1.0" encoding="utf-8"?>
<gpx xmlns:xsi="http://www.w3.org/2001/XMLSchema-instance" xmlns:xsd="http://www.w3.org/2001/XMLSchema" version="1.1" creator="Shapelink.com" xmlns="http://www.topografix.com/GPX/1/1" xmlns:gpxtpx="http://www.garmin.com/xmlschemas/TrackPointExtension/v1">
  <metadata>
    <name>Cykling 49.67 km, 2012-04-29</name>
    <desc></desc>
    <author><name>Alexander Engvall</name></author> 
    <time>2012-04-29T10:48:41Z</time>
  </metadata>
  <trk>
    <name>Cykling 49.67 km, 2012-04-29</name>
    <trkseg>
      <trkpt lat="59.4589324" lon="17.8064734">
        <ele>39.6</ele>
        <time>2012-04-29T10:48:41Z</time>
      </trkpt>
      <trkpt lat="59.4590305" lon="17.8064785">
        <ele>40.6</ele>
        <time>2012-04-29T10:48:43Z</time>
      </trkpt>
      <trkpt lat="59.4594076" lon="17.8065427">
        <ele>41.6</ele>
        <time>2012-04-29T10:48:50Z</time>
      </trkpt>
      <trkpt lat="59.4598015" lon="17.8065847">
        <ele>40</ele>
        <time>2012-04-29T10:48:56Z</time>
      </trkpt>
      <trkpt lat="59.4602295" lon="17.806639">
        <ele>37.8</ele>
        <time>2012-04-29T10:49:02Z</time>
      </trkpt>
      <trkpt lat="59.4605909" lon="17.8066806">
        <ele>35.8</ele>
        <time>2012-04-29T10:49:07Z</time>
      </trkpt>
      <trkpt lat="59.4609623" lon="17.8066809">
        <ele>34.2</ele>
        <time>2012-04-29T10:49:12Z</time>
      </trkpt>
      <trkpt lat="59.4613494" lon="17.8066397">
        <ele>32.4</ele>
        <time>2012-04-29T10:49:17Z</time>
      </trkpt>
      <trkpt lat="59.4617673" lon="17.806608">
        <ele>32</ele>
        <time>2012-04-29T10:49:23Z</time>
      </trkpt>
      <trkpt lat="59.4621986" lon="17.8066231">
        <ele>30.2</ele>
        <time>2012-04-29T10:49:29Z</time>
      </trkpt>
      <trkpt lat="59.4626084" lon="17.8064988">
        <ele>31.6</ele>
        <time>2012-04-29T10:49:35Z</time>
      </trkpt>
      <trkpt lat="59.4630002" lon="17.8063909">
        <ele>32.6</ele>
        <time>2012-04-29T10:49:41Z</time>
      </trkpt>
      <trkpt lat="59.4634158" lon="17.8063931">
        <ele>32.6</ele>
        <time>2012-04-29T10:49:47Z</time>
      </trkpt>
      <trkpt lat="59.4638156" lon="17.8065738">
        <ele>32.6</ele>
        <time>2012-04-29T10:49:53Z</time>
      </trkpt>
      <trkpt lat="59.4640425" lon="17.8068956">
        <ele>33</ele>
        <time>2012-04-29T10:49:57Z</time>
      </trkpt>
      <trkpt lat="59.4640973" lon="17.8070003">
        <ele>33</ele>
        <time>2012-04-29T10:49:58Z</time>
      </trkpt>
      <trkpt lat="59.4642798" lon="17.807642">
        <ele>32.2</ele>
        <time>2012-04-29T10:50:03Z</time>
      </trkpt>
      <trkpt lat="59.4643137" lon="17.8083821">
        <ele>32.8</ele>
        <time>2012-04-29T10:50:08Z</time>
      </trkpt>
      <trkpt lat="59.4643056" lon="17.8085283">
        <ele>32.8</ele>
        <time>2012-04-29T10:50:09Z</time>
      </trkpt>
      <trkpt lat="59.4642704" lon="17.8091209">
        <ele>32.8</ele>
        <time>2012-04-29T10:50:13Z</time>
      </trkpt>
      <trkpt lat="59.4642672" lon="17.8095597">
        <ele>33</ele>
        <time>2012-04-29T10:50:16Z</time>
      </trkpt>
      <trkpt lat="59.4642917" lon="17.8098436">
        <ele>32.8</ele>
        <time>2012-04-29T10:50:18Z</time>
      </trkpt>
      <trkpt lat="59.4643627" lon="17.8102232">
        <ele>33.6</ele>
        <time>2012-04-29T10:50:21Z</time>
      </trkpt>
      <trkpt lat="59.4644528" lon="17.8105646">
        <ele>34.4</ele>
        <time>2012-04-29T10:50:24Z</time>
      </trkpt>
      <trkpt lat="59.4646299" lon="17.8112314">
        <ele>35.2</ele>
        <time>2012-04-29T10:50:30Z</time>
      </trkpt>
      <trkpt lat="59.4648138" lon="17.8119511">
        <ele>36.2</ele>
        <time>2012-04-29T10:50:37Z</time>
      </trkpt>
      <trkpt lat="59.4650251" lon="17.8126169">
        <ele>36.6</ele>
        <time>2012-04-29T10:50:44Z</time>
      </trkpt>
      <trkpt lat="59.4653105" lon="17.8130173">
        <ele>36.6</ele>
        <time>2012-04-29T10:50:53Z</time>
      </trkpt>
      <trkpt lat="59.4653955" lon="17.8129811">
        <ele>37</ele>
        <time>2012-04-29T10:50:55Z</time>
      </trkpt>
      <trkpt lat="59.4655354" lon="17.8127049">
        <ele>37</ele>
        <time>2012-04-29T10:50:59Z</time>
      </trkpt>
      <trkpt lat="59.4656077" lon="17.8125051">
        <ele>36.8</ele>
        <time>2012-04-29T10:51:01Z</time>
      </trkpt>
      <trkpt lat="59.4658203" lon="17.8118591">
        <ele>38</ele>
        <time>2012-04-29T10:51:07Z</time>
      </trkpt>
      <trkpt lat="59.4660265" lon="17.8112634">
        <ele>37.8</ele>
        <time>2012-04-29T10:51:12Z</time>
      </trkpt>
      <trkpt lat="59.4662653" lon="17.8106297">
        <ele>37.6</ele>
        <time>2012-04-29T10:51:17Z</time>
      </trkpt>
      <trkpt lat="59.4665719" lon="17.8100245">
        <ele>35</ele>
        <time>2012-04-29T10:51:22Z</time>
      </trkpt>
      <trkpt lat="59.4669486" lon="17.8095843">
        <ele>33.2</ele>
        <time>2012-04-29T10:51:27Z</time>
      </trkpt>
      <trkpt lat="59.467364" lon="17.8093561">
        <ele>31.6</ele>
        <time>2012-04-29T10:51:32Z</time>
      </trkpt>
      <trkpt lat="59.467811" lon="17.8093265">
        <ele>29.6</ele>
        <time>2012-04-29T10:51:37Z</time>
      </trkpt>
      <trkpt lat="59.468243" lon="17.8094621">
        <ele>26.6</ele>
        <time>2012-04-29T10:51:42Z</time>
      </trkpt>
      <trkpt lat="59.4684434" lon="17.809588">
        <ele>27.2</ele>
        <time>2012-04-29T10:51:45Z</time>
      </trkpt>
      <trkpt lat="59.468614" lon="17.8098255">
        <ele>27.4</ele>
        <time>2012-04-29T10:51:48Z</time>
      </trkpt>
      <trkpt lat="59.468664" lon="17.8098968">
        <ele>27.6</ele>
        <time>2012-04-29T10:51:49Z</time>
      </trkpt>
      <trkpt lat="59.4689355" lon="17.8096856">
        <ele>28</ele>
        <time>2012-04-29T10:51:55Z</time>
      </trkpt>
      <trkpt lat="59.468947" lon="17.8092933">
        <ele>26.8</ele>
        <time>2012-04-29T10:51:58Z</time>
      </trkpt>
      <trkpt lat="59.4689516" lon="17.8089882">
        <ele>26</ele>
        <time>2012-04-29T10:52:00Z</time>
      </trkpt>
      <trkpt lat="59.4689645" lon="17.8088314">
        <ele>25.4</ele>
        <time>2012-04-29T10:52:01Z</time>
      </trkpt>
      <trkpt lat="59.4690515" lon="17.8080274">
        <ele>23.8</ele>
        <time>2012-04-29T10:52:06Z</time>
      </trkpt>
      <trkpt lat="59.4691556" lon="17.8072126">
        <ele>22.4</ele>
        <time>2012-04-29T10:52:11Z</time>
      </trkpt>
      <trkpt lat="59.4692981" lon="17.8063906">
        <ele>20.6</ele>
        <time>2012-04-29T10:52:16Z</time>
      </trkpt>
      <trkpt lat="59.4694567" lon="17.8056963">
        <ele>18</ele>
        <time>2012-04-29T10:52:20Z</time>
      </trkpt>
      <trkpt lat="59.4696277" lon="17.8049932">
        <ele>15.6</ele>
        <time>2012-04-29T10:52:24Z</time>
      </trkpt>
      <trkpt lat="59.4698201" lon="17.8042536">
        <ele>12</ele>
        <time>2012-04-29T10:52:28Z</time>
      </trkpt>
      <trkpt lat="59.4700028" lon="17.8034841">
        <ele>10</ele>
        <time>2012-04-29T10:52:32Z</time>
      </trkpt>
      <trkpt lat="59.4701112" lon="17.8028915">
        <ele>8.8</ele>
        <time>2012-04-29T10:52:35Z</time>
      </trkpt>
      <trkpt lat="59.4701285" lon="17.8026806">
        <ele>8.6</ele>
        <time>2012-04-29T10:52:36Z</time>
      </trkpt>
      <trkpt lat="59.4700704" lon="17.8018349">
        <ele>6.6</ele>
        <time>2012-04-29T10:52:40Z</time>
      </trkpt>
      <trkpt lat="59.4698279" lon="17.8010701">
        <ele>5</ele>
        <time>2012-04-29T10:52:44Z</time>
      </trkpt>
      <trkpt lat="59.4695085" lon="17.8003728">
        <ele>4.2</ele>
        <time>2012-04-29T10:52:48Z</time>
      </trkpt>
      <trkpt lat="59.4692671" lon="17.799814">
        <ele>3.2</ele>
        <time>2012-04-29T10:52:51Z</time>
      </trkpt>
      <trkpt lat="59.4691132" lon="17.7994425">
        <ele>3.2</ele>
        <time>2012-04-29T10:52:53Z</time>
      </trkpt>
      <trkpt lat="59.4690468" lon="17.7992413">
        <ele>3.4</ele>
        <time>2012-04-29T10:52:54Z</time>
      </trkpt>
      <trkpt lat="59.4689128" lon="17.7983696">
        <ele>4</ele>
        <time>2012-04-29T10:52:58Z</time>
      </trkpt>
      <trkpt lat="59.4691713" lon="17.7977945">
        <ele>8.8</ele>
        <time>2012-04-29T10:53:02Z</time>
      </trkpt>
      <trkpt lat="59.4693288" lon="17.7976087">
        <ele>10.2</ele>
        <time>2012-04-29T10:53:04Z</time>
      </trkpt>
      <trkpt lat="59.4695557" lon="17.7973465">
        <ele>12</ele>
        <time>2012-04-29T10:53:07Z</time>
      </trkpt>
      <trkpt lat="59.4698856" lon="17.7969321">
        <ele>13.4</ele>
        <time>2012-04-29T10:53:12Z</time>
      </trkpt>
      <trkpt lat="59.4702488" lon="17.7964828">
        <ele>14.8</ele>
        <time>2012-04-29T10:53:17Z</time>
      </trkpt>
      <trkpt lat="59.470478" lon="17.796263">
        <ele>15</ele>
        <time>2012-04-29T10:53:20Z</time>
      </trkpt>
      <trkpt lat="59.4706404" lon="17.7961702">
        <ele>15.2</ele>
        <time>2012-04-29T10:53:22Z</time>
      </trkpt>
      <trkpt lat="59.4710377" lon="17.7958723">
        <ele>13.8</ele>
        <time>2012-04-29T10:53:27Z</time>
      </trkpt>
      <trkpt lat="59.4713964" lon="17.7954334">
        <ele>12.6</ele>
        <time>2012-04-29T10:53:32Z</time>
      </trkpt>
      <trkpt lat="59.4717764" lon="17.7950425">
        <ele>12.4</ele>
        <time>2012-04-29T10:53:37Z</time>
      </trkpt>
      <trkpt lat="59.472166" lon="17.7947528">
        <ele>12.8</ele>
        <time>2012-04-29T10:53:42Z</time>
      </trkpt>
      <trkpt lat="59.4723151" lon="17.794604">
        <ele>12.4</ele>
        <time>2012-04-29T10:53:44Z</time>
      </trkpt>
      <trkpt lat="59.4724825" lon="17.7942302">
        <ele>11.8</ele>
        <time>2012-04-29T10:53:47Z</time>
      </trkpt>
      <trkpt lat="59.4725239" lon="17.7940836">
        <ele>11.6</ele>
        <time>2012-04-29T10:53:48Z</time>
      </trkpt>
      <trkpt lat="59.4726454" lon="17.7934833">
        <ele>9.6</ele>
        <time>2012-04-29T10:53:52Z</time>
      </trkpt>
      <trkpt lat="59.4727645" lon="17.792685">
        <ele>9</ele>
        <time>2012-04-29T10:53:57Z</time>
      </trkpt>
      <trkpt lat="59.4728874" lon="17.791908">
        <ele>8.4</ele>
        <time>2012-04-29T10:54:02Z</time>
      </trkpt>
      <trkpt lat="59.473008" lon="17.7911485">
        <ele>8.6</ele>
        <time>2012-04-29T10:54:07Z</time>
      </trkpt>
      <trkpt lat="59.4732148" lon="17.7904379">
        <ele>10.6</ele>
        <time>2012-04-29T10:54:13Z</time>
      </trkpt>
      <trkpt lat="59.4734198" lon="17.7898028">
        <ele>14</ele>
        <time>2012-04-29T10:54:20Z</time>
      </trkpt>
      <trkpt lat="59.473575" lon="17.7891751">
        <ele>17</ele>
        <time>2012-04-29T10:54:27Z</time>
      </trkpt>
      <trkpt lat="59.473723" lon="17.7884662">
        <ele>17.2</ele>
        <time>2012-04-29T10:54:34Z</time>
      </trkpt>
      <trkpt lat="59.4737702" lon="17.7882545">
        <ele>17</ele>
        <time>2012-04-29T10:54:36Z</time>
      </trkpt>
      <trkpt lat="59.4739572" lon="17.7878591">
        <ele>14.6</ele>
        <time>2012-04-29T10:54:40Z</time>
      </trkpt>
      <trkpt lat="59.4740898" lon="17.78768">
        <ele>13</ele>
        <time>2012-04-29T10:54:42Z</time>
      </trkpt>
      <trkpt lat="59.4743322" lon="17.7874452">
        <ele>11</ele>
        <time>2012-04-29T10:54:45Z</time>
      </trkpt>
      <trkpt lat="59.4746799" lon="17.7871484">
        <ele>9.2</ele>
        <time>2012-04-29T10:54:49Z</time>
      </trkpt>
      <trkpt lat="59.4750252" lon="17.7869333">
        <ele>9.4</ele>
        <time>2012-04-29T10:54:53Z</time>
      </trkpt>
      <trkpt lat="59.4754318" lon="17.786757">
        <ele>9.8</ele>
        <time>2012-04-29T10:54:58Z</time>
      </trkpt>
      <trkpt lat="59.4758216" lon="17.7866087">
        <ele>10.2</ele>
        <time>2012-04-29T10:55:03Z</time>
      </trkpt>
      <trkpt lat="59.4762225" lon="17.7864788">
        <ele>10.4</ele>
        <time>2012-04-29T10:55:08Z</time>
      </trkpt>
      <trkpt lat="59.4766148" lon="17.7863741">
        <ele>9.8</ele>
        <time>2012-04-29T10:55:13Z</time>
      </trkpt>
      <trkpt lat="59.4769989" lon="17.7862698">
        <ele>9</ele>
        <time>2012-04-29T10:55:18Z</time>
      </trkpt>
      <trkpt lat="59.4773735" lon="17.7861568">
        <ele>7.8</ele>
        <time>2012-04-29T10:55:23Z</time>
      </trkpt>
      <trkpt lat="59.4777408" lon="17.7860235">
        <ele>7</ele>
        <time>2012-04-29T10:55:28Z</time>
      </trkpt>
      <trkpt lat="59.4781578" lon="17.7858259">
        <ele>6.4</ele>
        <time>2012-04-29T10:55:34Z</time>
      </trkpt>
      <trkpt lat="59.4785558" lon="17.7855624">
        <ele>6.6</ele>
        <time>2012-04-29T10:55:40Z</time>
      </trkpt>
      <trkpt lat="59.4789239" lon="17.7852453">
        <ele>7.4</ele>
        <time>2012-04-29T10:55:46Z</time>
      </trkpt>
      <trkpt lat="59.4792469" lon="17.784893">
        <ele>9</ele>
        <time>2012-04-29T10:55:52Z</time>
      </trkpt>
      <trkpt lat="59.4795361" lon="17.7844951">
        <ele>11.6</ele>
        <time>2012-04-29T10:55:58Z</time>
      </trkpt>
      <trkpt lat="59.4798467" lon="17.7839744">
        <ele>13.8</ele>
        <time>2012-04-29T10:56:05Z</time>
      </trkpt>
      <trkpt lat="59.4800985" lon="17.7834446">
        <ele>15</ele>
        <time>2012-04-29T10:56:11Z</time>
      </trkpt>
      <trkpt lat="59.4803307" lon="17.7828555">
        <ele>14</ele>
        <time>2012-04-29T10:56:17Z</time>
      </trkpt>
      <trkpt lat="59.480523" lon="17.782244">
        <ele>13</ele>
        <time>2012-04-29T10:56:23Z</time>
      </trkpt>
      <trkpt lat="59.4806985" lon="17.7815519">
        <ele>13.8</ele>
        <time>2012-04-29T10:56:30Z</time>
      </trkpt>
      <trkpt lat="59.4808657" lon="17.780878">
        <ele>14.4</ele>
        <time>2012-04-29T10:56:36Z</time>
      </trkpt>
      <trkpt lat="59.4810079" lon="17.7802678">
        <ele>18</ele>
        <time>2012-04-29T10:56:42Z</time>
      </trkpt>
      <trkpt lat="59.4811065" lon="17.7798845">
        <ele>20</ele>
        <time>2012-04-29T10:56:46Z</time>
      </trkpt>
      <trkpt lat="59.4811786" lon="17.7795725">
        <ele>21.2</ele>
        <time>2012-04-29T10:56:49Z</time>
      </trkpt>
      <trkpt lat="59.4813482" lon="17.7788489">
        <ele>24</ele>
        <time>2012-04-29T10:56:56Z</time>
      </trkpt>
      <trkpt lat="59.4815143" lon="17.7781645">
        <ele>26.8</ele>
        <time>2012-04-29T10:57:03Z</time>
      </trkpt>
      <trkpt lat="59.481681" lon="17.7774727">
        <ele>28.8</ele>
        <time>2012-04-29T10:57:10Z</time>
      </trkpt>
      <trkpt lat="59.4818401" lon="17.7767553">
        <ele>29.2</ele>
        <time>2012-04-29T10:57:17Z</time>
      </trkpt>
      <trkpt lat="59.4819744" lon="17.7759786">
        <ele>30.2</ele>
        <time>2012-04-29T10:57:24Z</time>
      </trkpt>
      <trkpt lat="59.4820811" lon="17.7751731">
        <ele>30.2</ele>
        <time>2012-04-29T10:57:31Z</time>
      </trkpt>
      <trkpt lat="59.482182" lon="17.7743801">
        <ele>30.8</ele>
        <time>2012-04-29T10:57:38Z</time>
      </trkpt>
      <trkpt lat="59.4822672" lon="17.7736666">
        <ele>29.4</ele>
        <time>2012-04-29T10:57:44Z</time>
      </trkpt>
      <trkpt lat="59.4823542" lon="17.772936">
        <ele>30.6</ele>
        <time>2012-04-29T10:57:50Z</time>
      </trkpt>
      <trkpt lat="59.4824353" lon="17.7722267">
        <ele>31.2</ele>
        <time>2012-04-29T10:57:55Z</time>
      </trkpt>
      <trkpt lat="59.4825191" lon="17.7714941">
        <ele>31</ele>
        <time>2012-04-29T10:58:00Z</time>
      </trkpt>
      <trkpt lat="59.482613" lon="17.7707592">
        <ele>30.4</ele>
        <time>2012-04-29T10:58:05Z</time>
      </trkpt>
      <trkpt lat="59.4827057" lon="17.770006">
        <ele>30.4</ele>
        <time>2012-04-29T10:58:10Z</time>
      </trkpt>
      <trkpt lat="59.4828028" lon="17.7691755">
        <ele>29</ele>
        <time>2012-04-29T10:58:15Z</time>
      </trkpt>
      <trkpt lat="59.4828877" lon="17.7684269">
        <ele>26.4</ele>
        <time>2012-04-29T10:58:19Z</time>
      </trkpt>
      <trkpt lat="59.4829834" lon="17.7676097">
        <ele>23.4</ele>
        <time>2012-04-29T10:58:23Z</time>
      </trkpt>
      <trkpt lat="59.4830913" lon="17.7667139">
        <ele>20.6</ele>
        <time>2012-04-29T10:58:27Z</time>
      </trkpt>
      <trkpt lat="59.4831808" lon="17.766005">
        <ele>18.2</ele>
        <time>2012-04-29T10:58:30Z</time>
      </trkpt>
      <trkpt lat="59.4832702" lon="17.7652724">
        <ele>15.8</ele>
        <time>2012-04-29T10:58:33Z</time>
      </trkpt>
      <trkpt lat="59.4833632" lon="17.7645103">
        <ele>12.8</ele>
        <time>2012-04-29T10:58:36Z</time>
      </trkpt>
      <trkpt lat="59.4834603" lon="17.7637508">
        <ele>10.6</ele>
        <time>2012-04-29T10:58:39Z</time>
      </trkpt>
      <trkpt lat="59.4835464" lon="17.7629932">
        <ele>8.4</ele>
        <time>2012-04-29T10:58:42Z</time>
      </trkpt>
      <trkpt lat="59.483558" lon="17.7627407">
        <ele>7.8</ele>
        <time>2012-04-29T10:58:43Z</time>
      </trkpt>
      <trkpt lat="59.4835476" lon="17.7622707">
        <ele>6.8</ele>
        <time>2012-04-29T10:58:45Z</time>
      </trkpt>
      <trkpt lat="59.483403" lon="17.7614532">
        <ele>7.4</ele>
        <time>2012-04-29T10:58:49Z</time>
      </trkpt>
      <trkpt lat="59.483173" lon="17.7607764">
        <ele>8.8</ele>
        <time>2012-04-29T10:58:53Z</time>
      </trkpt>
      <trkpt lat="59.4830373" lon="17.7605009">
        <ele>9.4</ele>
        <time>2012-04-29T10:58:55Z</time>
      </trkpt>
      <trkpt lat="59.4828882" lon="17.7602906">
        <ele>10.4</ele>
        <time>2012-04-29T10:58:57Z</time>
      </trkpt>
      <trkpt lat="59.4826494" lon="17.7601068">
        <ele>11.6</ele>
        <time>2012-04-29T10:59:00Z</time>
      </trkpt>
      <trkpt lat="59.4824976" lon="17.7600101">
        <ele>12.8</ele>
        <time>2012-04-29T10:59:02Z</time>
      </trkpt>
      <trkpt lat="59.4821194" lon="17.7598862">
        <ele>15.6</ele>
        <time>2012-04-29T10:59:07Z</time>
      </trkpt>
      <trkpt lat="59.4817226" lon="17.7596739">
        <ele>16.8</ele>
        <time>2012-04-29T10:59:13Z</time>
      </trkpt>
      <trkpt lat="59.4813708" lon="17.7593568">
        <ele>19</ele>
        <time>2012-04-29T10:59:19Z</time>
      </trkpt>
      <trkpt lat="59.4810767" lon="17.7589103">
        <ele>21.2</ele>
        <time>2012-04-29T10:59:25Z</time>
      </trkpt>
      <trkpt lat="59.4808415" lon="17.7583695">
        <ele>22.2</ele>
        <time>2012-04-29T10:59:31Z</time>
      </trkpt>
      <trkpt lat="59.4805921" lon="17.7577897">
        <ele>21.2</ele>
        <time>2012-04-29T10:59:37Z</time>
      </trkpt>
      <trkpt lat="59.4803396" lon="17.757207">
        <ele>19.8</ele>
        <time>2012-04-29T10:59:43Z</time>
      </trkpt>
      <trkpt lat="59.4800748" lon="17.7565419">
        <ele>18.8</ele>
        <time>2012-04-29T10:59:49Z</time>
      </trkpt>
      <trkpt lat="59.4797879" lon="17.755928">
        <ele>19.2</ele>
        <time>2012-04-29T10:59:54Z</time>
      </trkpt>
      <trkpt lat="59.4796722" lon="17.7556502">
        <ele>19</ele>
        <time>2012-04-29T10:59:56Z</time>
      </trkpt>
      <trkpt lat="59.4794476" lon="17.7553195">
        <ele>19.2</ele>
        <time>2012-04-29T10:59:59Z</time>
      </trkpt>
      <trkpt lat="59.4792406" lon="17.75463">
        <ele>16.8</ele>
        <time>2012-04-29T11:00:03Z</time>
      </trkpt>
      <trkpt lat="59.4789776" lon="17.7540087">
        <ele>15.2</ele>
        <time>2012-04-29T11:00:07Z</time>
      </trkpt>
      <trkpt lat="59.4787371" lon="17.7533452">
        <ele>13.4</ele>
        <time>2012-04-29T11:00:11Z</time>
      </trkpt>
      <trkpt lat="59.4784866" lon="17.7527289">
        <ele>12.6</ele>
        <time>2012-04-29T11:00:15Z</time>
      </trkpt>
      <trkpt lat="59.478238" lon="17.752175">
        <ele>13.4</ele>
        <time>2012-04-29T11:00:19Z</time>
      </trkpt>
      <trkpt lat="59.4779422" lon="17.751542">
        <ele>15.4</ele>
        <time>2012-04-29T11:00:24Z</time>
      </trkpt>
      <trkpt lat="59.4777299" lon="17.750893">
        <ele>15.8</ele>
        <time>2012-04-29T11:00:29Z</time>
      </trkpt>
      <trkpt lat="59.4775241" lon="17.7502745">
        <ele>19.2</ele>
        <time>2012-04-29T11:00:34Z</time>
      </trkpt>
      <trkpt lat="59.4773386" lon="17.7495741">
        <ele>21.8</ele>
        <time>2012-04-29T11:00:40Z</time>
      </trkpt>
      <trkpt lat="59.4772573" lon="17.7492171">
        <ele>22.2</ele>
        <time>2012-04-29T11:00:43Z</time>
      </trkpt>
      <trkpt lat="59.4771248" lon="17.7489467">
        <ele>22</ele>
        <time>2012-04-29T11:00:46Z</time>
      </trkpt>
      <trkpt lat="59.4770595" lon="17.7488645">
        <ele>21.6</ele>
        <time>2012-04-29T11:00:47Z</time>
      </trkpt>
      <trkpt lat="59.4769941" lon="17.7487707">
        <ele>21.4</ele>
        <time>2012-04-29T11:00:48Z</time>
      </trkpt>
      <trkpt lat="59.4768233" lon="17.7484055">
        <ele>20.4</ele>
        <time>2012-04-29T11:00:51Z</time>
      </trkpt>
      <trkpt lat="59.4767316" lon="17.7481116">
        <ele>19</ele>
        <time>2012-04-29T11:00:53Z</time>
      </trkpt>
      <trkpt lat="59.4766011" lon="17.7476295">
        <ele>17.8</ele>
        <time>2012-04-29T11:00:56Z</time>
      </trkpt>
      <trkpt lat="59.4764488" lon="17.7469393">
        <ele>16.8</ele>
        <time>2012-04-29T11:01:00Z</time>
      </trkpt>
      <trkpt lat="59.4763119" lon="17.7462251">
        <ele>15.6</ele>
        <time>2012-04-29T11:01:04Z</time>
      </trkpt>
      <trkpt lat="59.4762038" lon="17.7454863">
        <ele>13.6</ele>
        <time>2012-04-29T11:01:08Z</time>
      </trkpt>
      <trkpt lat="59.4761468" lon="17.7447608">
        <ele>12.2</ele>
        <time>2012-04-29T11:01:12Z</time>
      </trkpt>
      <trkpt lat="59.4761473" lon="17.743902">
        <ele>9.2</ele>
        <time>2012-04-29T11:01:17Z</time>
      </trkpt>
      <trkpt lat="59.4761971" lon="17.7430466">
        <ele>6.8</ele>
        <time>2012-04-29T11:01:22Z</time>
      </trkpt>
      <trkpt lat="59.4762667" lon="17.7421624">
        <ele>4</ele>
        <time>2012-04-29T11:01:27Z</time>
      </trkpt>
      <trkpt lat="59.4763686" lon="17.7414439">
        <ele>2</ele>
        <time>2012-04-29T11:01:31Z</time>
      </trkpt>
      <trkpt lat="59.4765056" lon="17.7407373">
        <ele>0</ele>
        <time>2012-04-29T11:01:35Z</time>
      </trkpt>
      <trkpt lat="59.4767202" lon="17.7399583">
        <ele>0</ele>
        <time>2012-04-29T11:01:40Z</time>
      </trkpt>
      <trkpt lat="59.4769253" lon="17.7393599">
        <ele>0</ele>
        <time>2012-04-29T11:01:44Z</time>
      </trkpt>
      <trkpt lat="59.4771454" lon="17.7386042">
        <ele>0</ele>
        <time>2012-04-29T11:01:49Z</time>
      </trkpt>
      <trkpt lat="59.4773646" lon="17.7378543">
        <ele>0</ele>
        <time>2012-04-29T11:01:54Z</time>
      </trkpt>
      <trkpt lat="59.4775957" lon="17.7371448">
        <ele>0</ele>
        <time>2012-04-29T11:01:59Z</time>
      </trkpt>
      <trkpt lat="59.477805" lon="17.7364597">
        <ele>0</ele>
        <time>2012-04-29T11:02:04Z</time>
      </trkpt>
      <trkpt lat="59.4779939" lon="17.7357671">
        <ele>0</ele>
        <time>2012-04-29T11:02:09Z</time>
      </trkpt>
      <trkpt lat="59.4781515" lon="17.7350578">
        <ele>0</ele>
        <time>2012-04-29T11:02:14Z</time>
      </trkpt>
      <trkpt lat="59.4782851" lon="17.7343498">
        <ele>0</ele>
        <time>2012-04-29T11:02:19Z</time>
      </trkpt>
      <trkpt lat="59.4783949" lon="17.7336438">
        <ele>0</ele>
        <time>2012-04-29T11:02:24Z</time>
      </trkpt>
      <trkpt lat="59.4784789" lon="17.7329388">
        <ele>0</ele>
        <time>2012-04-29T11:02:29Z</time>
      </trkpt>
      <trkpt lat="59.4785419" lon="17.7322306">
        <ele>0</ele>
        <time>2012-04-29T11:02:34Z</time>
      </trkpt>
      <trkpt lat="59.4785846" lon="17.7315028">
        <ele>0</ele>
        <time>2012-04-29T11:02:39Z</time>
      </trkpt>
      <trkpt lat="59.4786061" lon="17.7307683">
        <ele>0</ele>
        <time>2012-04-29T11:02:44Z</time>
      </trkpt>
      <trkpt lat="59.4786182" lon="17.7300649">
        <ele>0</ele>
        <time>2012-04-29T11:02:49Z</time>
      </trkpt>
      <trkpt lat="59.4786861" lon="17.7292721">
        <ele>0</ele>
        <time>2012-04-29T11:02:55Z</time>
      </trkpt>
      <trkpt lat="59.4787234" lon="17.7290173">
        <ele>0.4</ele>
        <time>2012-04-29T11:02:57Z</time>
      </trkpt>
      <trkpt lat="59.4786622" lon="17.728492">
        <ele>1.6</ele>
        <time>2012-04-29T11:03:01Z</time>
      </trkpt>
      <trkpt lat="59.478642" lon="17.72836">
        <ele>2.2</ele>
        <time>2012-04-29T11:03:02Z</time>
      </trkpt>
      <trkpt lat="59.4786098" lon="17.7276877">
        <ele>3.8</ele>
        <time>2012-04-29T11:03:07Z</time>
      </trkpt>
      <trkpt lat="59.4786027" lon="17.7268853">
        <ele>5.2</ele>
        <time>2012-04-29T11:03:13Z</time>
      </trkpt>
      <trkpt lat="59.4785883" lon="17.7260591">
        <ele>6.6</ele>
        <time>2012-04-29T11:03:19Z</time>
      </trkpt>
      <trkpt lat="59.4785752" lon="17.7252357">
        <ele>7.8</ele>
        <time>2012-04-29T11:03:25Z</time>
      </trkpt>
      <trkpt lat="59.4785647" lon="17.7244248">
        <ele>8.8</ele>
        <time>2012-04-29T11:03:31Z</time>
      </trkpt>
      <trkpt lat="59.4785492" lon="17.7236326">
        <ele>11.4</ele>
        <time>2012-04-29T11:03:37Z</time>
      </trkpt>
      <trkpt lat="59.4785297" lon="17.7228604">
        <ele>14.6</ele>
        <time>2012-04-29T11:03:43Z</time>
      </trkpt>
      <trkpt lat="59.4785103" lon="17.722104">
        <ele>16.4</ele>
        <time>2012-04-29T11:03:49Z</time>
      </trkpt>
      <trkpt lat="59.4784991" lon="17.7213535">
        <ele>17.8</ele>
        <time>2012-04-29T11:03:55Z</time>
      </trkpt>
      <trkpt lat="59.4784895" lon="17.720593">
        <ele>19.2</ele>
        <time>2012-04-29T11:04:01Z</time>
      </trkpt>
      <trkpt lat="59.478497" lon="17.7197757">
        <ele>20</ele>
        <time>2012-04-29T11:04:07Z</time>
      </trkpt>
      <trkpt lat="59.4785199" lon="17.7190255">
        <ele>20.6</ele>
        <time>2012-04-29T11:04:12Z</time>
      </trkpt>
      <trkpt lat="59.4785674" lon="17.7182478">
        <ele>20.8</ele>
        <time>2012-04-29T11:04:17Z</time>
      </trkpt>
      <trkpt lat="59.4786503" lon="17.7174806">
        <ele>20.2</ele>
        <time>2012-04-29T11:04:22Z</time>
      </trkpt>
      <trkpt lat="59.4787476" lon="17.7167254">
        <ele>20.2</ele>
        <time>2012-04-29T11:04:27Z</time>
      </trkpt>
      <trkpt lat="59.4788518" lon="17.715977">
        <ele>20</ele>
        <time>2012-04-29T11:04:32Z</time>
      </trkpt>
      <trkpt lat="59.4789558" lon="17.715217">
        <ele>19.6</ele>
        <time>2012-04-29T11:04:37Z</time>
      </trkpt>
      <trkpt lat="59.4790522" lon="17.7144453">
        <ele>19.2</ele>
        <time>2012-04-29T11:04:42Z</time>
      </trkpt>
      <trkpt lat="59.4791513" lon="17.7136929">
        <ele>19</ele>
        <time>2012-04-29T11:04:47Z</time>
      </trkpt>
      <trkpt lat="59.4792469" lon="17.71296">
        <ele>19.4</ele>
        <time>2012-04-29T11:04:52Z</time>
      </trkpt>
      <trkpt lat="59.4793714" lon="17.7122509">
        <ele>19.6</ele>
        <time>2012-04-29T11:04:57Z</time>
      </trkpt>
      <trkpt lat="59.4795154" lon="17.7115584">
        <ele>20.4</ele>
        <time>2012-04-29T11:05:02Z</time>
      </trkpt>
      <trkpt lat="59.4796848" lon="17.7108807">
        <ele>20.2</ele>
        <time>2012-04-29T11:05:07Z</time>
      </trkpt>
      <trkpt lat="59.4798796" lon="17.7102022">
        <ele>19.8</ele>
        <time>2012-04-29T11:05:12Z</time>
      </trkpt>
      <trkpt lat="59.4800858" lon="17.7095431">
        <ele>19.4</ele>
        <time>2012-04-29T11:05:17Z</time>
      </trkpt>
      <trkpt lat="59.4802977" lon="17.7088699">
        <ele>19.4</ele>
        <time>2012-04-29T11:05:22Z</time>
      </trkpt>
      <trkpt lat="59.4805043" lon="17.7082016">
        <ele>20.2</ele>
        <time>2012-04-29T11:05:27Z</time>
      </trkpt>
      <trkpt lat="59.4807104" lon="17.7075603">
        <ele>20.6</ele>
        <time>2012-04-29T11:05:32Z</time>
      </trkpt>
      <trkpt lat="59.4809086" lon="17.7069161">
        <ele>20.4</ele>
        <time>2012-04-29T11:05:37Z</time>
      </trkpt>
      <trkpt lat="59.4811086" lon="17.7062601">
        <ele>21.2</ele>
        <time>2012-04-29T11:05:42Z</time>
      </trkpt>
      <trkpt lat="59.4813218" lon="17.7055957">
        <ele>22</ele>
        <time>2012-04-29T11:05:47Z</time>
      </trkpt>
      <trkpt lat="59.4815434" lon="17.704938">
        <ele>22.6</ele>
        <time>2012-04-29T11:05:52Z</time>
      </trkpt>
      <trkpt lat="59.4817769" lon="17.7043192">
        <ele>23</ele>
        <time>2012-04-29T11:05:57Z</time>
      </trkpt>
      <trkpt lat="59.4820086" lon="17.7037247">
        <ele>23.4</ele>
        <time>2012-04-29T11:06:02Z</time>
      </trkpt>
      <trkpt lat="59.4822483" lon="17.7031724">
        <ele>24.4</ele>
        <time>2012-04-29T11:06:07Z</time>
      </trkpt>
      <trkpt lat="59.4825236" lon="17.7025668">
        <ele>25.6</ele>
        <time>2012-04-29T11:06:13Z</time>
      </trkpt>
      <trkpt lat="59.4827964" lon="17.7019747">
        <ele>26.8</ele>
        <time>2012-04-29T11:06:19Z</time>
      </trkpt>
      <trkpt lat="59.483061" lon="17.7013734">
        <ele>28.4</ele>
        <time>2012-04-29T11:06:25Z</time>
      </trkpt>
      <trkpt lat="59.483329" lon="17.7007793">
        <ele>30.4</ele>
        <time>2012-04-29T11:06:31Z</time>
      </trkpt>
      <trkpt lat="59.4836054" lon="17.7001834">
        <ele>31</ele>
        <time>2012-04-29T11:06:37Z</time>
      </trkpt>
      <trkpt lat="59.4838761" lon="17.6995639">
        <ele>31.6</ele>
        <time>2012-04-29T11:06:43Z</time>
      </trkpt>
      <trkpt lat="59.4841578" lon="17.6989159">
        <ele>31.6</ele>
        <time>2012-04-29T11:06:49Z</time>
      </trkpt>
      <trkpt lat="59.4843993" lon="17.6983833">
        <ele>31</ele>
        <time>2012-04-29T11:06:54Z</time>
      </trkpt>
      <trkpt lat="59.4846716" lon="17.6978545">
        <ele>30</ele>
        <time>2012-04-29T11:06:59Z</time>
      </trkpt>
      <trkpt lat="59.4849608" lon="17.6972313">
        <ele>27.2</ele>
        <time>2012-04-29T11:07:04Z</time>
      </trkpt>
      <trkpt lat="59.4852128" lon="17.6966804">
        <ele>24.4</ele>
        <time>2012-04-29T11:07:08Z</time>
      </trkpt>
      <trkpt lat="59.4854834" lon="17.6960946">
        <ele>21.8</ele>
        <time>2012-04-29T11:07:12Z</time>
      </trkpt>
      <trkpt lat="59.485767" lon="17.6954556">
        <ele>19</ele>
        <time>2012-04-29T11:07:16Z</time>
      </trkpt>
      <trkpt lat="59.4860812" lon="17.6947737">
        <ele>16</ele>
        <time>2012-04-29T11:07:20Z</time>
      </trkpt>
      <trkpt lat="59.4863273" lon="17.6942346">
        <ele>14</ele>
        <time>2012-04-29T11:07:23Z</time>
      </trkpt>
      <trkpt lat="59.4866556" lon="17.6935498">
        <ele>12</ele>
        <time>2012-04-29T11:07:27Z</time>
      </trkpt>
      <trkpt lat="59.4869628" lon="17.6929675">
        <ele>11.8</ele>
        <time>2012-04-29T11:07:31Z</time>
      </trkpt>
      <trkpt lat="59.4872415" lon="17.6924796">
        <ele>11.6</ele>
        <time>2012-04-29T11:07:35Z</time>
      </trkpt>
      <trkpt lat="59.4875578" lon="17.6919337">
        <ele>11.4</ele>
        <time>2012-04-29T11:07:40Z</time>
      </trkpt>
      <trkpt lat="59.4878554" lon="17.6914234">
        <ele>11.6</ele>
        <time>2012-04-29T11:07:45Z</time>
      </trkpt>
      <trkpt lat="59.4881663" lon="17.6908961">
        <ele>10.8</ele>
        <time>2012-04-29T11:07:50Z</time>
      </trkpt>
      <trkpt lat="59.4884665" lon="17.690392">
        <ele>9.6</ele>
        <time>2012-04-29T11:07:55Z</time>
      </trkpt>
      <trkpt lat="59.4887784" lon="17.6898767">
        <ele>8.8</ele>
        <time>2012-04-29T11:08:00Z</time>
      </trkpt>
      <trkpt lat="59.4891037" lon="17.6893927">
        <ele>6.8</ele>
        <time>2012-04-29T11:08:05Z</time>
      </trkpt>
      <trkpt lat="59.489454" lon="17.6889859">
        <ele>5.6</ele>
        <time>2012-04-29T11:08:10Z</time>
      </trkpt>
      <trkpt lat="59.4897966" lon="17.6886524">
        <ele>5.4</ele>
        <time>2012-04-29T11:08:15Z</time>
      </trkpt>
      <trkpt lat="59.4901277" lon="17.6883294">
        <ele>4.8</ele>
        <time>2012-04-29T11:08:20Z</time>
      </trkpt>
      <trkpt lat="59.4904652" lon="17.6879983">
        <ele>4.8</ele>
        <time>2012-04-29T11:08:25Z</time>
      </trkpt>
      <trkpt lat="59.4908285" lon="17.6876564">
        <ele>4.2</ele>
        <time>2012-04-29T11:08:30Z</time>
      </trkpt>
      <trkpt lat="59.4912205" lon="17.6873575">
        <ele>3</ele>
        <time>2012-04-29T11:08:35Z</time>
      </trkpt>
      <trkpt lat="59.4915802" lon="17.6870798">
        <ele>3.2</ele>
        <time>2012-04-29T11:08:40Z</time>
      </trkpt>
      <trkpt lat="59.4919226" lon="17.6868026">
        <ele>3.2</ele>
        <time>2012-04-29T11:08:45Z</time>
      </trkpt>
      <trkpt lat="59.4922442" lon="17.6864777">
        <ele>3</ele>
        <time>2012-04-29T11:08:50Z</time>
      </trkpt>
      <trkpt lat="59.4925459" lon="17.6860412">
        <ele>3</ele>
        <time>2012-04-29T11:08:55Z</time>
      </trkpt>
      <trkpt lat="59.4928277" lon="17.6855787">
        <ele>3.8</ele>
        <time>2012-04-29T11:09:00Z</time>
      </trkpt>
      <trkpt lat="59.4931003" lon="17.6851016">
        <ele>4.8</ele>
        <time>2012-04-29T11:09:05Z</time>
      </trkpt>
      <trkpt lat="59.4934038" lon="17.6845281">
        <ele>5.6</ele>
        <time>2012-04-29T11:09:11Z</time>
      </trkpt>
      <trkpt lat="59.4936919" lon="17.6839301">
        <ele>6</ele>
        <time>2012-04-29T11:09:17Z</time>
      </trkpt>
      <trkpt lat="59.4939312" lon="17.6834297">
        <ele>6</ele>
        <time>2012-04-29T11:09:22Z</time>
      </trkpt>
      <trkpt lat="59.4942073" lon="17.682856">
        <ele>6.2</ele>
        <time>2012-04-29T11:09:28Z</time>
      </trkpt>
      <trkpt lat="59.4944569" lon="17.682267">
        <ele>7.2</ele>
        <time>2012-04-29T11:09:34Z</time>
      </trkpt>
      <trkpt lat="59.4946786" lon="17.6816748">
        <ele>7.8</ele>
        <time>2012-04-29T11:09:40Z</time>
      </trkpt>
      <trkpt lat="59.4949001" lon="17.6810569">
        <ele>8</ele>
        <time>2012-04-29T11:09:46Z</time>
      </trkpt>
      <trkpt lat="59.4951255" lon="17.6804626">
        <ele>8.6</ele>
        <time>2012-04-29T11:09:52Z</time>
      </trkpt>
      <trkpt lat="59.4953448" lon="17.6798667">
        <ele>9.4</ele>
        <time>2012-04-29T11:09:58Z</time>
      </trkpt>
      <trkpt lat="59.4955707" lon="17.6793101">
        <ele>10</ele>
        <time>2012-04-29T11:10:04Z</time>
      </trkpt>
      <trkpt lat="59.4958434" lon="17.6786858">
        <ele>9.6</ele>
        <time>2012-04-29T11:10:11Z</time>
      </trkpt>
      <trkpt lat="59.496118" lon="17.6780675">
        <ele>8.8</ele>
        <time>2012-04-29T11:10:17Z</time>
      </trkpt>
      <trkpt lat="59.4963626" lon="17.6775095">
        <ele>8.2</ele>
        <time>2012-04-29T11:10:22Z</time>
      </trkpt>
      <trkpt lat="59.4966325" lon="17.6769138">
        <ele>7.2</ele>
        <time>2012-04-29T11:10:27Z</time>
      </trkpt>
      <trkpt lat="59.4969157" lon="17.6762871">
        <ele>6.4</ele>
        <time>2012-04-29T11:10:32Z</time>
      </trkpt>
      <trkpt lat="59.4971871" lon="17.6756795">
        <ele>6.4</ele>
        <time>2012-04-29T11:10:37Z</time>
      </trkpt>
      <trkpt lat="59.4974473" lon="17.6751062">
        <ele>6.6</ele>
        <time>2012-04-29T11:10:42Z</time>
      </trkpt>
      <trkpt lat="59.4977172" lon="17.6745482">
        <ele>6.4</ele>
        <time>2012-04-29T11:10:47Z</time>
      </trkpt>
      <trkpt lat="59.4979891" lon="17.6740401">
        <ele>6.4</ele>
        <time>2012-04-29T11:10:52Z</time>
      </trkpt>
      <trkpt lat="59.4982596" lon="17.6735706">
        <ele>7</ele>
        <time>2012-04-29T11:10:57Z</time>
      </trkpt>
      <trkpt lat="59.4985932" lon="17.6730178">
        <ele>8</ele>
        <time>2012-04-29T11:11:03Z</time>
      </trkpt>
      <trkpt lat="59.4989074" lon="17.6724869">
        <ele>8.2</ele>
        <time>2012-04-29T11:11:09Z</time>
      </trkpt>
      <trkpt lat="59.4992341" lon="17.6719518">
        <ele>9</ele>
        <time>2012-04-29T11:11:15Z</time>
      </trkpt>
      <trkpt lat="59.4995577" lon="17.6714155">
        <ele>9.6</ele>
        <time>2012-04-29T11:11:21Z</time>
      </trkpt>
      <trkpt lat="59.4998793" lon="17.6708797">
        <ele>9.6</ele>
        <time>2012-04-29T11:11:27Z</time>
      </trkpt>
      <trkpt lat="59.5002027" lon="17.6703412">
        <ele>10</ele>
        <time>2012-04-29T11:11:33Z</time>
      </trkpt>
      <trkpt lat="59.5005191" lon="17.6698121">
        <ele>10.2</ele>
        <time>2012-04-29T11:11:39Z</time>
      </trkpt>
      <trkpt lat="59.5008217" lon="17.6692665">
        <ele>10.4</ele>
        <time>2012-04-29T11:11:45Z</time>
      </trkpt>
      <trkpt lat="59.5011086" lon="17.6686662">
        <ele>10.4</ele>
        <time>2012-04-29T11:11:51Z</time>
      </trkpt>
      <trkpt lat="59.5013983" lon="17.668114">
        <ele>10.6</ele>
        <time>2012-04-29T11:11:57Z</time>
      </trkpt>
      <trkpt lat="59.5017233" lon="17.667613">
        <ele>10.8</ele>
        <time>2012-04-29T11:12:03Z</time>
      </trkpt>
      <trkpt lat="59.5020628" lon="17.6671255">
        <ele>11.4</ele>
        <time>2012-04-29T11:12:09Z</time>
      </trkpt>
      <trkpt lat="59.5024155" lon="17.666649">
        <ele>11.4</ele>
        <time>2012-04-29T11:12:15Z</time>
      </trkpt>
      <trkpt lat="59.5027808" lon="17.6661608">
        <ele>11.4</ele>
        <time>2012-04-29T11:12:21Z</time>
      </trkpt>
      <trkpt lat="59.5030934" lon="17.6657547">
        <ele>11.4</ele>
        <time>2012-04-29T11:12:26Z</time>
      </trkpt>
      <trkpt lat="59.5034037" lon="17.6653412">
        <ele>11.4</ele>
        <time>2012-04-29T11:12:31Z</time>
      </trkpt>
      <trkpt lat="59.5037122" lon="17.664899">
        <ele>11.6</ele>
        <time>2012-04-29T11:12:36Z</time>
      </trkpt>
      <trkpt lat="59.5040161" lon="17.6644604">
        <ele>11.8</ele>
        <time>2012-04-29T11:12:41Z</time>
      </trkpt>
      <trkpt lat="59.5043194" lon="17.6640287">
        <ele>11.6</ele>
        <time>2012-04-29T11:12:46Z</time>
      </trkpt>
      <trkpt lat="59.5046254" lon="17.6635922">
        <ele>11.8</ele>
        <time>2012-04-29T11:12:51Z</time>
      </trkpt>
      <trkpt lat="59.5049097" lon="17.6631121">
        <ele>11.6</ele>
        <time>2012-04-29T11:12:56Z</time>
      </trkpt>
      <trkpt lat="59.5051734" lon="17.6625943">
        <ele>11.8</ele>
        <time>2012-04-29T11:13:01Z</time>
      </trkpt>
      <trkpt lat="59.5054278" lon="17.6620486">
        <ele>12.4</ele>
        <time>2012-04-29T11:13:06Z</time>
      </trkpt>
      <trkpt lat="59.505734" lon="17.661526">
        <ele>11.4</ele>
        <time>2012-04-29T11:13:11Z</time>
      </trkpt>
      <trkpt lat="59.506092" lon="17.6612265">
        <ele>10.8</ele>
        <time>2012-04-29T11:13:16Z</time>
      </trkpt>
      <trkpt lat="59.5061623" lon="17.6612059">
        <ele>11</ele>
        <time>2012-04-29T11:13:17Z</time>
      </trkpt>
      <trkpt lat="59.5064688" lon="17.6613732">
        <ele>11.8</ele>
        <time>2012-04-29T11:13:22Z</time>
      </trkpt>
      <trkpt lat="59.5067159" lon="17.6609008">
        <ele>12.8</ele>
        <time>2012-04-29T11:13:29Z</time>
      </trkpt>
      <trkpt lat="59.5067699" lon="17.6606738">
        <ele>13</ele>
        <time>2012-04-29T11:13:31Z</time>
      </trkpt>
      <trkpt lat="59.5068979" lon="17.6602103">
        <ele>13.2</ele>
        <time>2012-04-29T11:13:35Z</time>
      </trkpt>
      <trkpt lat="59.5070928" lon="17.6596067">
        <ele>13</ele>
        <time>2012-04-29T11:13:40Z</time>
      </trkpt>
      <trkpt lat="59.5072931" lon="17.659019">
        <ele>12.8</ele>
        <time>2012-04-29T11:13:45Z</time>
      </trkpt>
      <trkpt lat="59.5075369" lon="17.6583245">
        <ele>12.4</ele>
        <time>2012-04-29T11:13:51Z</time>
      </trkpt>
      <trkpt lat="59.5077701" lon="17.6577511">
        <ele>11.6</ele>
        <time>2012-04-29T11:13:56Z</time>
      </trkpt>
      <trkpt lat="59.508036" lon="17.6571871">
        <ele>11.4</ele>
        <time>2012-04-29T11:14:01Z</time>
      </trkpt>
      <trkpt lat="59.5083151" lon="17.6566678">
        <ele>10.8</ele>
        <time>2012-04-29T11:14:06Z</time>
      </trkpt>
      <trkpt lat="59.5086177" lon="17.6561817">
        <ele>10.4</ele>
        <time>2012-04-29T11:14:11Z</time>
      </trkpt>
      <trkpt lat="59.508939" lon="17.6557216">
        <ele>10.2</ele>
        <time>2012-04-29T11:14:16Z</time>
      </trkpt>
      <trkpt lat="59.509243" lon="17.6552756">
        <ele>10.2</ele>
        <time>2012-04-29T11:14:21Z</time>
      </trkpt>
      <trkpt lat="59.5095869" lon="17.6547476">
        <ele>10.2</ele>
        <time>2012-04-29T11:14:27Z</time>
      </trkpt>
      <trkpt lat="59.5098672" lon="17.6543184">
        <ele>10.2</ele>
        <time>2012-04-29T11:14:32Z</time>
      </trkpt>
      <trkpt lat="59.5100973" lon="17.6539762">
        <ele>10.2</ele>
        <time>2012-04-29T11:14:37Z</time>
      </trkpt>
      <trkpt lat="59.5101427" lon="17.6539364">
        <ele>10</ele>
        <time>2012-04-29T11:14:38Z</time>
      </trkpt>
      <trkpt lat="59.5100574" lon="17.6533929">
        <ele>10.4</ele>
        <time>2012-04-29T11:14:46Z</time>
      </trkpt>
      <trkpt lat="59.5098532" lon="17.6530415">
        <ele>10</ele>
        <time>2012-04-29T11:14:50Z</time>
      </trkpt>
      <trkpt lat="59.5098039" lon="17.6529332">
        <ele>10</ele>
        <time>2012-04-29T11:14:51Z</time>
      </trkpt>
      <trkpt lat="59.5097605" lon="17.652814">
        <ele>10</ele>
        <time>2012-04-29T11:14:52Z</time>
      </trkpt>
      <trkpt lat="59.5095884" lon="17.6521818">
        <ele>11</ele>
        <time>2012-04-29T11:14:57Z</time>
      </trkpt>
      <trkpt lat="59.5094466" lon="17.6515308">
        <ele>11.2</ele>
        <time>2012-04-29T11:15:02Z</time>
      </trkpt>
      <trkpt lat="59.5093117" lon="17.6508765">
        <ele>11.6</ele>
        <time>2012-04-29T11:15:07Z</time>
      </trkpt>
      <trkpt lat="59.5091601" lon="17.6500981">
        <ele>11.6</ele>
        <time>2012-04-29T11:15:12Z</time>
      </trkpt>
      <trkpt lat="59.5089999" lon="17.649363">
        <ele>12</ele>
        <time>2012-04-29T11:15:17Z</time>
      </trkpt>
      <trkpt lat="59.5088559" lon="17.6485933">
        <ele>14.4</ele>
        <time>2012-04-29T11:15:23Z</time>
      </trkpt>
      <trkpt lat="59.5087327" lon="17.6478549">
        <ele>18.4</ele>
        <time>2012-04-29T11:15:30Z</time>
      </trkpt>
      <trkpt lat="59.5086188" lon="17.6471786">
        <ele>21.4</ele>
        <time>2012-04-29T11:15:37Z</time>
      </trkpt>
      <trkpt lat="59.5085058" lon="17.6464684">
        <ele>22.2</ele>
        <time>2012-04-29T11:15:44Z</time>
      </trkpt>
      <trkpt lat="59.5083761" lon="17.6456787">
        <ele>21.8</ele>
        <time>2012-04-29T11:15:51Z</time>
      </trkpt>
      <trkpt lat="59.5082581" lon="17.6449464">
        <ele>19.8</ele>
        <time>2012-04-29T11:15:56Z</time>
      </trkpt>
      <trkpt lat="59.5081374" lon="17.6441991">
        <ele>16.4</ele>
        <time>2012-04-29T11:16:00Z</time>
      </trkpt>
      <trkpt lat="59.5080236" lon="17.6433783">
        <ele>14.8</ele>
        <time>2012-04-29T11:16:04Z</time>
      </trkpt>
      <trkpt lat="59.5079168" lon="17.6425552">
        <ele>14.4</ele>
        <time>2012-04-29T11:16:08Z</time>
      </trkpt>
      <trkpt lat="59.5078292" lon="17.6417384">
        <ele>13.8</ele>
        <time>2012-04-29T11:16:12Z</time>
      </trkpt>
      <trkpt lat="59.5077502" lon="17.6409493">
        <ele>13</ele>
        <time>2012-04-29T11:16:16Z</time>
      </trkpt>
      <trkpt lat="59.5076599" lon="17.6402015">
        <ele>12.2</ele>
        <time>2012-04-29T11:16:20Z</time>
      </trkpt>
      <trkpt lat="59.5075815" lon="17.6394776">
        <ele>11.2</ele>
        <time>2012-04-29T11:16:24Z</time>
      </trkpt>
      <trkpt lat="59.5075076" lon="17.6387665">
        <ele>10.2</ele>
        <time>2012-04-29T11:16:28Z</time>
      </trkpt>
      <trkpt lat="59.507468" lon="17.6378928">
        <ele>9.2</ele>
        <time>2012-04-29T11:16:33Z</time>
      </trkpt>
      <trkpt lat="59.5075092" lon="17.6370342">
        <ele>9</ele>
        <time>2012-04-29T11:16:38Z</time>
      </trkpt>
      <trkpt lat="59.5076221" lon="17.6362009">
        <ele>9.2</ele>
        <time>2012-04-29T11:16:43Z</time>
      </trkpt>
      <trkpt lat="59.5077997" lon="17.6354395">
        <ele>9</ele>
        <time>2012-04-29T11:16:48Z</time>
      </trkpt>
      <trkpt lat="59.5080302" lon="17.6347422">
        <ele>8.6</ele>
        <time>2012-04-29T11:16:53Z</time>
      </trkpt>
      <trkpt lat="59.5082736" lon="17.6340658">
        <ele>8.6</ele>
        <time>2012-04-29T11:16:58Z</time>
      </trkpt>
      <trkpt lat="59.5085105" lon="17.6334042">
        <ele>8.6</ele>
        <time>2012-04-29T11:17:03Z</time>
      </trkpt>
      <trkpt lat="59.508741" lon="17.6327554">
        <ele>8.6</ele>
        <time>2012-04-29T11:17:08Z</time>
      </trkpt>
      <trkpt lat="59.5089697" lon="17.6321185">
        <ele>8.8</ele>
        <time>2012-04-29T11:17:13Z</time>
      </trkpt>
      <trkpt lat="59.5091948" lon="17.6314896">
        <ele>9.2</ele>
        <time>2012-04-29T11:17:18Z</time>
      </trkpt>
      <trkpt lat="59.5094129" lon="17.6308778">
        <ele>9.4</ele>
        <time>2012-04-29T11:17:23Z</time>
      </trkpt>
      <trkpt lat="59.5096386" lon="17.6302488">
        <ele>9.8</ele>
        <time>2012-04-29T11:17:28Z</time>
      </trkpt>
      <trkpt lat="59.5098677" lon="17.6296305">
        <ele>10.2</ele>
        <time>2012-04-29T11:17:33Z</time>
      </trkpt>
      <trkpt lat="59.5100841" lon="17.6290203">
        <ele>10.2</ele>
        <time>2012-04-29T11:17:38Z</time>
      </trkpt>
      <trkpt lat="59.5102992" lon="17.6284204">
        <ele>10.2</ele>
        <time>2012-04-29T11:17:43Z</time>
      </trkpt>
      <trkpt lat="59.5105147" lon="17.6278138">
        <ele>10.6</ele>
        <time>2012-04-29T11:17:48Z</time>
      </trkpt>
      <trkpt lat="59.510726" lon="17.6272119">
        <ele>11.2</ele>
        <time>2012-04-29T11:17:53Z</time>
      </trkpt>
      <trkpt lat="59.510972" lon="17.6265282">
        <ele>12.6</ele>
        <time>2012-04-29T11:17:59Z</time>
      </trkpt>
      <trkpt lat="59.5112123" lon="17.6258553">
        <ele>14.4</ele>
        <time>2012-04-29T11:18:05Z</time>
      </trkpt>
      <trkpt lat="59.511445" lon="17.6251905">
        <ele>15.6</ele>
        <time>2012-04-29T11:18:11Z</time>
      </trkpt>
      <trkpt lat="59.5116822" lon="17.6244917">
        <ele>15.8</ele>
        <time>2012-04-29T11:18:17Z</time>
      </trkpt>
      <trkpt lat="59.5119122" lon="17.6237716">
        <ele>15.2</ele>
        <time>2012-04-29T11:18:23Z</time>
      </trkpt>
      <trkpt lat="59.5120889" lon="17.6231353">
        <ele>15</ele>
        <time>2012-04-29T11:18:28Z</time>
      </trkpt>
      <trkpt lat="59.5122482" lon="17.6224871">
        <ele>15.4</ele>
        <time>2012-04-29T11:18:33Z</time>
      </trkpt>
      <trkpt lat="59.5123899" lon="17.6218436">
        <ele>16.2</ele>
        <time>2012-04-29T11:18:38Z</time>
      </trkpt>
      <trkpt lat="59.5125401" lon="17.6210677">
        <ele>16.8</ele>
        <time>2012-04-29T11:18:44Z</time>
      </trkpt>
      <trkpt lat="59.5126683" lon="17.6202752">
        <ele>17.8</ele>
        <time>2012-04-29T11:18:50Z</time>
      </trkpt>
      <trkpt lat="59.5127688" lon="17.6194729">
        <ele>18.6</ele>
        <time>2012-04-29T11:18:56Z</time>
      </trkpt>
      <trkpt lat="59.5128461" lon="17.6186716">
        <ele>19.6</ele>
        <time>2012-04-29T11:19:02Z</time>
      </trkpt>
      <trkpt lat="59.5128981" lon="17.6179053">
        <ele>20.8</ele>
        <time>2012-04-29T11:19:08Z</time>
      </trkpt>
      <trkpt lat="59.512944" lon="17.6171126">
        <ele>23</ele>
        <time>2012-04-29T11:19:15Z</time>
      </trkpt>
      <trkpt lat="59.5130514" lon="17.6163767">
        <ele>24</ele>
        <time>2012-04-29T11:19:22Z</time>
      </trkpt>
      <trkpt lat="59.5130969" lon="17.6160472">
        <ele>25.6</ele>
        <time>2012-04-29T11:19:25Z</time>
      </trkpt>
      <trkpt lat="59.5131302" lon="17.6157601">
        <ele>26</ele>
        <time>2012-04-29T11:19:28Z</time>
      </trkpt>
      <trkpt lat="59.5131582" lon="17.6156808">
        <ele>26</ele>
        <time>2012-04-29T11:19:29Z</time>
      </trkpt>
      <trkpt lat="59.5133257" lon="17.6154702">
        <ele>25.6</ele>
        <time>2012-04-29T11:19:33Z</time>
      </trkpt>
      <trkpt lat="59.513375" lon="17.6154383">
        <ele>25.6</ele>
        <time>2012-04-29T11:19:34Z</time>
      </trkpt>
      <trkpt lat="59.513532" lon="17.6153632">
        <ele>25.8</ele>
        <time>2012-04-29T11:19:37Z</time>
      </trkpt>
      <trkpt lat="59.5139137" lon="17.6152218">
        <ele>26</ele>
        <time>2012-04-29T11:19:44Z</time>
      </trkpt>
      <trkpt lat="59.5143188" lon="17.6151923">
        <ele>27</ele>
        <time>2012-04-29T11:19:51Z</time>
      </trkpt>
      <trkpt lat="59.5147453" lon="17.6151847">
        <ele>27</ele>
        <time>2012-04-29T11:19:58Z</time>
      </trkpt>
      <trkpt lat="59.5151534" lon="17.6151003">
        <ele>27</ele>
        <time>2012-04-29T11:20:04Z</time>
      </trkpt>
      <trkpt lat="59.515527" lon="17.6149272">
        <ele>26.6</ele>
        <time>2012-04-29T11:20:09Z</time>
      </trkpt>
      <trkpt lat="59.5158958" lon="17.6146563">
        <ele>27</ele>
        <time>2012-04-29T11:20:14Z</time>
      </trkpt>
      <trkpt lat="59.5162338" lon="17.6143132">
        <ele>27.4</ele>
        <time>2012-04-29T11:20:19Z</time>
      </trkpt>
      <trkpt lat="59.5165835" lon="17.6138712">
        <ele>27.8</ele>
        <time>2012-04-29T11:20:25Z</time>
      </trkpt>
      <trkpt lat="59.51668" lon="17.613755">
        <ele>28.2</ele>
        <time>2012-04-29T11:20:27Z</time>
      </trkpt>
      <trkpt lat="59.5169012" lon="17.6139527">
        <ele>29</ele>
        <time>2012-04-29T11:20:33Z</time>
      </trkpt>
      <trkpt lat="59.5169136" lon="17.6142486">
        <ele>30.2</ele>
        <time>2012-04-29T11:20:36Z</time>
      </trkpt>
      <trkpt lat="59.5169163" lon="17.614359">
        <ele>30.4</ele>
        <time>2012-04-29T11:20:37Z</time>
      </trkpt>
      <trkpt lat="59.5169518" lon="17.6147128">
        <ele>31.8</ele>
        <time>2012-04-29T11:20:40Z</time>
      </trkpt>
      <trkpt lat="59.517109" lon="17.6154111">
        <ele>34</ele>
        <time>2012-04-29T11:20:46Z</time>
      </trkpt>
      <trkpt lat="59.5173439" lon="17.6160115">
        <ele>35.4</ele>
        <time>2012-04-29T11:20:52Z</time>
      </trkpt>
      <trkpt lat="59.5176756" lon="17.6165165">
        <ele>34.2</ele>
        <time>2012-04-29T11:20:58Z</time>
      </trkpt>
      <trkpt lat="59.5180206" lon="17.6169364">
        <ele>31.2</ele>
        <time>2012-04-29T11:21:03Z</time>
      </trkpt>
      <trkpt lat="59.5183924" lon="17.6173061">
        <ele>29.6</ele>
        <time>2012-04-29T11:21:08Z</time>
      </trkpt>
      <trkpt lat="59.5187769" lon="17.6176199">
        <ele>28</ele>
        <time>2012-04-29T11:21:13Z</time>
      </trkpt>
      <trkpt lat="59.5191668" lon="17.6178934">
        <ele>27.8</ele>
        <time>2012-04-29T11:21:18Z</time>
      </trkpt>
      <trkpt lat="59.5195506" lon="17.6181296">
        <ele>27.8</ele>
        <time>2012-04-29T11:21:23Z</time>
      </trkpt>
      <trkpt lat="59.5199305" lon="17.61834">
        <ele>28.2</ele>
        <time>2012-04-29T11:21:28Z</time>
      </trkpt>
      <trkpt lat="59.5202994" lon="17.6185457">
        <ele>28.6</ele>
        <time>2012-04-29T11:21:33Z</time>
      </trkpt>
      <trkpt lat="59.520665" lon="17.618748">
        <ele>28.8</ele>
        <time>2012-04-29T11:21:38Z</time>
      </trkpt>
      <trkpt lat="59.5210303" lon="17.6189629">
        <ele>29.4</ele>
        <time>2012-04-29T11:21:43Z</time>
      </trkpt>
      <trkpt lat="59.5213959" lon="17.619205">
        <ele>29.6</ele>
        <time>2012-04-29T11:21:48Z</time>
      </trkpt>
      <trkpt lat="59.5217535" lon="17.6194686">
        <ele>29.8</ele>
        <time>2012-04-29T11:21:53Z</time>
      </trkpt>
      <trkpt lat="59.5221005" lon="17.6197566">
        <ele>29.8</ele>
        <time>2012-04-29T11:21:58Z</time>
      </trkpt>
      <trkpt lat="59.5224381" lon="17.6200523">
        <ele>29.8</ele>
        <time>2012-04-29T11:22:03Z</time>
      </trkpt>
      <trkpt lat="59.5227841" lon="17.6204204">
        <ele>29.4</ele>
        <time>2012-04-29T11:22:08Z</time>
      </trkpt>
      <trkpt lat="59.5231286" lon="17.6208034">
        <ele>27.6</ele>
        <time>2012-04-29T11:22:13Z</time>
      </trkpt>
      <trkpt lat="59.5234559" lon="17.6212048">
        <ele>26.8</ele>
        <time>2012-04-29T11:22:18Z</time>
      </trkpt>
      <trkpt lat="59.5237769" lon="17.6216203">
        <ele>26.4</ele>
        <time>2012-04-29T11:22:23Z</time>
      </trkpt>
      <trkpt lat="59.5240912" lon="17.6220602">
        <ele>26.2</ele>
        <time>2012-04-29T11:22:28Z</time>
      </trkpt>
      <trkpt lat="59.524391" lon="17.6225243">
        <ele>26.6</ele>
        <time>2012-04-29T11:22:33Z</time>
      </trkpt>
      <trkpt lat="59.5246853" lon="17.6230049">
        <ele>27.2</ele>
        <time>2012-04-29T11:22:38Z</time>
      </trkpt>
      <trkpt lat="59.5249728" lon="17.6235201">
        <ele>26.8</ele>
        <time>2012-04-29T11:22:43Z</time>
      </trkpt>
      <trkpt lat="59.5252514" lon="17.6240333">
        <ele>27.8</ele>
        <time>2012-04-29T11:22:48Z</time>
      </trkpt>
      <trkpt lat="59.5255288" lon="17.6245524">
        <ele>28.4</ele>
        <time>2012-04-29T11:22:53Z</time>
      </trkpt>
      <trkpt lat="59.5258218" lon="17.6250728">
        <ele>28.4</ele>
        <time>2012-04-29T11:22:58Z</time>
      </trkpt>
      <trkpt lat="59.5261005" lon="17.6256022">
        <ele>28.6</ele>
        <time>2012-04-29T11:23:03Z</time>
      </trkpt>
      <trkpt lat="59.5263786" lon="17.6261075">
        <ele>28.6</ele>
        <time>2012-04-29T11:23:08Z</time>
      </trkpt>
      <trkpt lat="59.5266761" lon="17.6266087">
        <ele>28.4</ele>
        <time>2012-04-29T11:23:13Z</time>
      </trkpt>
      <trkpt lat="59.5269816" lon="17.6270776">
        <ele>28.2</ele>
        <time>2012-04-29T11:23:18Z</time>
      </trkpt>
      <trkpt lat="59.5272938" lon="17.6275336">
        <ele>28</ele>
        <time>2012-04-29T11:23:23Z</time>
      </trkpt>
      <trkpt lat="59.527626" lon="17.6279795">
        <ele>27.4</ele>
        <time>2012-04-29T11:23:28Z</time>
      </trkpt>
      <trkpt lat="59.5279633" lon="17.6284042">
        <ele>26.6</ele>
        <time>2012-04-29T11:23:33Z</time>
      </trkpt>
      <trkpt lat="59.5283022" lon="17.6288136">
        <ele>25.8</ele>
        <time>2012-04-29T11:23:38Z</time>
      </trkpt>
      <trkpt lat="59.5286467" lon="17.6292205">
        <ele>25</ele>
        <time>2012-04-29T11:23:43Z</time>
      </trkpt>
      <trkpt lat="59.5289851" lon="17.6295979">
        <ele>24.8</ele>
        <time>2012-04-29T11:23:48Z</time>
      </trkpt>
      <trkpt lat="59.5293208" lon="17.6299139">
        <ele>24.4</ele>
        <time>2012-04-29T11:23:53Z</time>
      </trkpt>
      <trkpt lat="59.5296577" lon="17.630238">
        <ele>24</ele>
        <time>2012-04-29T11:23:58Z</time>
      </trkpt>
      <trkpt lat="59.5300175" lon="17.6305568">
        <ele>22.6</ele>
        <time>2012-04-29T11:24:03Z</time>
      </trkpt>
      <trkpt lat="59.5303907" lon="17.6308607">
        <ele>21.8</ele>
        <time>2012-04-29T11:24:08Z</time>
      </trkpt>
      <trkpt lat="59.5307714" lon="17.6311653">
        <ele>21.2</ele>
        <time>2012-04-29T11:24:13Z</time>
      </trkpt>
      <trkpt lat="59.5311398" lon="17.6314564">
        <ele>22.2</ele>
        <time>2012-04-29T11:24:18Z</time>
      </trkpt>
      <trkpt lat="59.5315358" lon="17.6317683">
        <ele>22.4</ele>
        <time>2012-04-29T11:24:23Z</time>
      </trkpt>
      <trkpt lat="59.531891" lon="17.6320737">
        <ele>22.4</ele>
        <time>2012-04-29T11:24:28Z</time>
      </trkpt>
      <trkpt lat="59.5322737" lon="17.6323982">
        <ele>23.4</ele>
        <time>2012-04-29T11:24:34Z</time>
      </trkpt>
      <trkpt lat="59.5326487" lon="17.6326966">
        <ele>23.6</ele>
        <time>2012-04-29T11:24:40Z</time>
      </trkpt>
      <trkpt lat="59.5330295" lon="17.6329811">
        <ele>24.4</ele>
        <time>2012-04-29T11:24:46Z</time>
      </trkpt>
      <trkpt lat="59.5334141" lon="17.6332139">
        <ele>25</ele>
        <time>2012-04-29T11:24:52Z</time>
      </trkpt>
      <trkpt lat="59.5338205" lon="17.6334053">
        <ele>25.4</ele>
        <time>2012-04-29T11:24:58Z</time>
      </trkpt>
      <trkpt lat="59.5342201" lon="17.6335579">
        <ele>26</ele>
        <time>2012-04-29T11:25:04Z</time>
      </trkpt>
      <trkpt lat="59.5346064" lon="17.6336829">
        <ele>26.2</ele>
        <time>2012-04-29T11:25:10Z</time>
      </trkpt>
      <trkpt lat="59.5349892" lon="17.6337881">
        <ele>26.6</ele>
        <time>2012-04-29T11:25:16Z</time>
      </trkpt>
      <trkpt lat="59.5353891" lon="17.6338932">
        <ele>26.8</ele>
        <time>2012-04-29T11:25:22Z</time>
      </trkpt>
      <trkpt lat="59.5358055" lon="17.6339967">
        <ele>27.2</ele>
        <time>2012-04-29T11:25:28Z</time>
      </trkpt>
      <trkpt lat="59.5362131" lon="17.634067">
        <ele>27.6</ele>
        <time>2012-04-29T11:25:34Z</time>
      </trkpt>
      <trkpt lat="59.5365981" lon="17.6341378">
        <ele>27.8</ele>
        <time>2012-04-29T11:25:40Z</time>
      </trkpt>
      <trkpt lat="59.5369869" lon="17.634191">
        <ele>28.2</ele>
        <time>2012-04-29T11:25:46Z</time>
      </trkpt>
      <trkpt lat="59.5373969" lon="17.6342252">
        <ele>28.4</ele>
        <time>2012-04-29T11:25:52Z</time>
      </trkpt>
      <trkpt lat="59.5378122" lon="17.634235">
        <ele>29.4</ele>
        <time>2012-04-29T11:25:58Z</time>
      </trkpt>
      <trkpt lat="59.5382262" lon="17.6342142">
        <ele>30.4</ele>
        <time>2012-04-29T11:26:04Z</time>
      </trkpt>
      <trkpt lat="59.5385819" lon="17.6341745">
        <ele>31.2</ele>
        <time>2012-04-29T11:26:09Z</time>
      </trkpt>
      <trkpt lat="59.5389964" lon="17.6341034">
        <ele>31.6</ele>
        <time>2012-04-29T11:26:15Z</time>
      </trkpt>
      <trkpt lat="59.5394082" lon="17.634004">
        <ele>31.2</ele>
        <time>2012-04-29T11:26:21Z</time>
      </trkpt>
      <trkpt lat="59.5398101" lon="17.6338866">
        <ele>31.2</ele>
        <time>2012-04-29T11:26:27Z</time>
      </trkpt>
      <trkpt lat="59.5402346" lon="17.6337372">
        <ele>31.4</ele>
        <time>2012-04-29T11:26:33Z</time>
      </trkpt>
      <trkpt lat="59.5406485" lon="17.6335742">
        <ele>32.2</ele>
        <time>2012-04-29T11:26:39Z</time>
      </trkpt>
      <trkpt lat="59.5410622" lon="17.6334171">
        <ele>32.2</ele>
        <time>2012-04-29T11:26:45Z</time>
      </trkpt>
      <trkpt lat="59.5414682" lon="17.6332725">
        <ele>31.8</ele>
        <time>2012-04-29T11:26:51Z</time>
      </trkpt>
      <trkpt lat="59.5418791" lon="17.6331239">
        <ele>31</ele>
        <time>2012-04-29T11:26:57Z</time>
      </trkpt>
      <trkpt lat="59.5422925" lon="17.6330027">
        <ele>30.4</ele>
        <time>2012-04-29T11:27:03Z</time>
      </trkpt>
      <trkpt lat="59.5426549" lon="17.6329276">
        <ele>30.2</ele>
        <time>2012-04-29T11:27:08Z</time>
      </trkpt>
      <trkpt lat="59.5430239" lon="17.6328717">
        <ele>30</ele>
        <time>2012-04-29T11:27:13Z</time>
      </trkpt>
      <trkpt lat="59.5433979" lon="17.6328333">
        <ele>29.6</ele>
        <time>2012-04-29T11:27:18Z</time>
      </trkpt>
      <trkpt lat="59.5437723" lon="17.6328209">
        <ele>29.4</ele>
        <time>2012-04-29T11:27:23Z</time>
      </trkpt>
      <trkpt lat="59.5441412" lon="17.6328276">
        <ele>29.4</ele>
        <time>2012-04-29T11:27:28Z</time>
      </trkpt>
      <trkpt lat="59.5445661" lon="17.6328406">
        <ele>29.6</ele>
        <time>2012-04-29T11:27:34Z</time>
      </trkpt>
      <trkpt lat="59.5449767" lon="17.632851">
        <ele>29.8</ele>
        <time>2012-04-29T11:27:40Z</time>
      </trkpt>
      <trkpt lat="59.5454082" lon="17.6328685">
        <ele>30</ele>
        <time>2012-04-29T11:27:46Z</time>
      </trkpt>
      <trkpt lat="59.5458217" lon="17.6328824">
        <ele>30.6</ele>
        <time>2012-04-29T11:27:52Z</time>
      </trkpt>
      <trkpt lat="59.5462269" lon="17.6329007">
        <ele>30.6</ele>
        <time>2012-04-29T11:27:58Z</time>
      </trkpt>
      <trkpt lat="59.5466213" lon="17.6329064">
        <ele>30.6</ele>
        <time>2012-04-29T11:28:04Z</time>
      </trkpt>
      <trkpt lat="59.5469914" lon="17.6329111">
        <ele>31.2</ele>
        <time>2012-04-29T11:28:09Z</time>
      </trkpt>
      <trkpt lat="59.5473605" lon="17.6329172">
        <ele>32</ele>
        <time>2012-04-29T11:28:14Z</time>
      </trkpt>
      <trkpt lat="59.5477804" lon="17.6329331">
        <ele>32.4</ele>
        <time>2012-04-29T11:28:20Z</time>
      </trkpt>
      <trkpt lat="59.5481881" lon="17.6329403">
        <ele>33.2</ele>
        <time>2012-04-29T11:28:26Z</time>
      </trkpt>
      <trkpt lat="59.5486055" lon="17.6329566">
        <ele>33.6</ele>
        <time>2012-04-29T11:28:32Z</time>
      </trkpt>
      <trkpt lat="59.5490076" lon="17.6329722">
        <ele>34.4</ele>
        <time>2012-04-29T11:28:38Z</time>
      </trkpt>
      <trkpt lat="59.5494422" lon="17.632988">
        <ele>35.8</ele>
        <time>2012-04-29T11:28:44Z</time>
      </trkpt>
      <trkpt lat="59.5498682" lon="17.6329922">
        <ele>37.2</ele>
        <time>2012-04-29T11:28:50Z</time>
      </trkpt>
      <trkpt lat="59.5502845" lon="17.6330144">
        <ele>38</ele>
        <time>2012-04-29T11:28:56Z</time>
      </trkpt>
      <trkpt lat="59.5507081" lon="17.6330249">
        <ele>37.6</ele>
        <time>2012-04-29T11:29:02Z</time>
      </trkpt>
      <trkpt lat="59.55114" lon="17.633059">
        <ele>36.8</ele>
        <time>2012-04-29T11:29:08Z</time>
      </trkpt>
      <trkpt lat="59.5515701" lon="17.6330727">
        <ele>35.2</ele>
        <time>2012-04-29T11:29:14Z</time>
      </trkpt>
      <trkpt lat="59.5520008" lon="17.6331177">
        <ele>34.6</ele>
        <time>2012-04-29T11:29:20Z</time>
      </trkpt>
      <trkpt lat="59.5524181" lon="17.6331855">
        <ele>34.6</ele>
        <time>2012-04-29T11:29:26Z</time>
      </trkpt>
      <trkpt lat="59.5528464" lon="17.6332709">
        <ele>35.4</ele>
        <time>2012-04-29T11:29:32Z</time>
      </trkpt>
      <trkpt lat="59.5532663" lon="17.6334072">
        <ele>34.6</ele>
        <time>2012-04-29T11:29:38Z</time>
      </trkpt>
      <trkpt lat="59.5536732" lon="17.6335414">
        <ele>34.2</ele>
        <time>2012-04-29T11:29:44Z</time>
      </trkpt>
      <trkpt lat="59.5540669" lon="17.6336993">
        <ele>35.4</ele>
        <time>2012-04-29T11:29:50Z</time>
      </trkpt>
      <trkpt lat="59.5544588" lon="17.6338868">
        <ele>36.6</ele>
        <time>2012-04-29T11:29:56Z</time>
      </trkpt>
      <trkpt lat="59.5548305" lon="17.6340807">
        <ele>37.8</ele>
        <time>2012-04-29T11:30:02Z</time>
      </trkpt>
      <trkpt lat="59.5551951" lon="17.634289">
        <ele>40.4</ele>
        <time>2012-04-29T11:30:08Z</time>
      </trkpt>
      <trkpt lat="59.5555358" lon="17.6345009">
        <ele>43</ele>
        <time>2012-04-29T11:30:14Z</time>
      </trkpt>
      <trkpt lat="59.555883" lon="17.6347468">
        <ele>44.4</ele>
        <time>2012-04-29T11:30:20Z</time>
      </trkpt>
      <trkpt lat="59.5562358" lon="17.6350169">
        <ele>45.8</ele>
        <time>2012-04-29T11:30:26Z</time>
      </trkpt>
      <trkpt lat="59.5565782" lon="17.6353046">
        <ele>46.6</ele>
        <time>2012-04-29T11:30:32Z</time>
      </trkpt>
      <trkpt lat="59.5569056" lon="17.635586">
        <ele>49</ele>
        <time>2012-04-29T11:30:38Z</time>
      </trkpt>
      <trkpt lat="59.5572367" lon="17.6358821">
        <ele>49.2</ele>
        <time>2012-04-29T11:30:44Z</time>
      </trkpt>
      <trkpt lat="59.5575754" lon="17.6361712">
        <ele>49.6</ele>
        <time>2012-04-29T11:30:50Z</time>
      </trkpt>
      <trkpt lat="59.5579235" lon="17.6364733">
        <ele>49.2</ele>
        <time>2012-04-29T11:30:56Z</time>
      </trkpt>
      <trkpt lat="59.5582875" lon="17.6367847">
        <ele>48.6</ele>
        <time>2012-04-29T11:31:02Z</time>
      </trkpt>
      <trkpt lat="59.5586521" lon="17.6370627">
        <ele>49.4</ele>
        <time>2012-04-29T11:31:08Z</time>
      </trkpt>
      <trkpt lat="59.5590283" lon="17.6373188">
        <ele>50</ele>
        <time>2012-04-29T11:31:14Z</time>
      </trkpt>
      <trkpt lat="59.5594226" lon="17.6375595">
        <ele>50.2</ele>
        <time>2012-04-29T11:31:20Z</time>
      </trkpt>
      <trkpt lat="59.5598193" lon="17.6377768">
        <ele>53</ele>
        <time>2012-04-29T11:31:26Z</time>
      </trkpt>
      <trkpt lat="59.5601683" lon="17.6379542">
        <ele>53.8</ele>
        <time>2012-04-29T11:31:31Z</time>
      </trkpt>
      <trkpt lat="59.5605346" lon="17.6381303">
        <ele>53.6</ele>
        <time>2012-04-29T11:31:36Z</time>
      </trkpt>
      <trkpt lat="59.5609061" lon="17.6382824">
        <ele>53.2</ele>
        <time>2012-04-29T11:31:41Z</time>
      </trkpt>
      <trkpt lat="59.5612836" lon="17.6384176">
        <ele>53</ele>
        <time>2012-04-29T11:31:46Z</time>
      </trkpt>
      <trkpt lat="59.5616755" lon="17.6385295">
        <ele>51</ele>
        <time>2012-04-29T11:31:51Z</time>
      </trkpt>
      <trkpt lat="59.5620753" lon="17.6386183">
        <ele>50</ele>
        <time>2012-04-29T11:31:56Z</time>
      </trkpt>
      <trkpt lat="59.5624825" lon="17.6386858">
        <ele>50</ele>
        <time>2012-04-29T11:32:01Z</time>
      </trkpt>
      <trkpt lat="59.5628829" lon="17.6387313">
        <ele>49.6</ele>
        <time>2012-04-29T11:32:06Z</time>
      </trkpt>
      <trkpt lat="59.5632744" lon="17.6387428">
        <ele>49.8</ele>
        <time>2012-04-29T11:32:11Z</time>
      </trkpt>
      <trkpt lat="59.5636557" lon="17.6387419">
        <ele>49.8</ele>
        <time>2012-04-29T11:32:16Z</time>
      </trkpt>
      <trkpt lat="59.5640174" lon="17.6387169">
        <ele>51.6</ele>
        <time>2012-04-29T11:32:21Z</time>
      </trkpt>
      <trkpt lat="59.5643809" lon="17.6386642">
        <ele>51.6</ele>
        <time>2012-04-29T11:32:26Z</time>
      </trkpt>
      <trkpt lat="59.56474" lon="17.6386093">
        <ele>50.8</ele>
        <time>2012-04-29T11:32:31Z</time>
      </trkpt>
      <trkpt lat="59.5651042" lon="17.6385476">
        <ele>50</ele>
        <time>2012-04-29T11:32:36Z</time>
      </trkpt>
      <trkpt lat="59.5654671" lon="17.6384823">
        <ele>48.8</ele>
        <time>2012-04-29T11:32:41Z</time>
      </trkpt>
      <trkpt lat="59.5658385" lon="17.638419">
        <ele>47.8</ele>
        <time>2012-04-29T11:32:46Z</time>
      </trkpt>
      <trkpt lat="59.5662112" lon="17.6383463">
        <ele>47</ele>
        <time>2012-04-29T11:32:51Z</time>
      </trkpt>
      <trkpt lat="59.5665959" lon="17.6382714">
        <ele>46.4</ele>
        <time>2012-04-29T11:32:56Z</time>
      </trkpt>
      <trkpt lat="59.5669789" lon="17.638193">
        <ele>46</ele>
        <time>2012-04-29T11:33:01Z</time>
      </trkpt>
      <trkpt lat="59.5673726" lon="17.6381217">
        <ele>45.4</ele>
        <time>2012-04-29T11:33:06Z</time>
      </trkpt>
      <trkpt lat="59.567779" lon="17.6380399">
        <ele>44.4</ele>
        <time>2012-04-29T11:33:11Z</time>
      </trkpt>
      <trkpt lat="59.5681955" lon="17.6379566">
        <ele>43.4</ele>
        <time>2012-04-29T11:33:16Z</time>
      </trkpt>
      <trkpt lat="59.5686227" lon="17.6378713">
        <ele>42.4</ele>
        <time>2012-04-29T11:33:21Z</time>
      </trkpt>
      <trkpt lat="59.5690494" lon="17.6377794">
        <ele>41.2</ele>
        <time>2012-04-29T11:33:26Z</time>
      </trkpt>
      <trkpt lat="59.5694811" lon="17.6376854">
        <ele>38.4</ele>
        <time>2012-04-29T11:33:31Z</time>
      </trkpt>
      <trkpt lat="59.5699305" lon="17.6375934">
        <ele>35.6</ele>
        <time>2012-04-29T11:33:36Z</time>
      </trkpt>
      <trkpt lat="59.570378" lon="17.6375063">
        <ele>33.8</ele>
        <time>2012-04-29T11:33:41Z</time>
      </trkpt>
      <trkpt lat="59.5708172" lon="17.6374152">
        <ele>33</ele>
        <time>2012-04-29T11:33:46Z</time>
      </trkpt>
      <trkpt lat="59.5712493" lon="17.6373096">
        <ele>32.2</ele>
        <time>2012-04-29T11:33:51Z</time>
      </trkpt>
      <trkpt lat="59.5716812" lon="17.6371762">
        <ele>31</ele>
        <time>2012-04-29T11:33:56Z</time>
      </trkpt>
      <trkpt lat="59.5721019" lon="17.6370053">
        <ele>30.4</ele>
        <time>2012-04-29T11:34:01Z</time>
      </trkpt>
      <trkpt lat="59.5725241" lon="17.6367987">
        <ele>29.6</ele>
        <time>2012-04-29T11:34:06Z</time>
      </trkpt>
      <trkpt lat="59.5729395" lon="17.6365563">
        <ele>28.6</ele>
        <time>2012-04-29T11:34:11Z</time>
      </trkpt>
      <trkpt lat="59.5733539" lon="17.6362855">
        <ele>28</ele>
        <time>2012-04-29T11:34:16Z</time>
      </trkpt>
      <trkpt lat="59.5737567" lon="17.63598">
        <ele>27.6</ele>
        <time>2012-04-29T11:34:21Z</time>
      </trkpt>
      <trkpt lat="59.574157" lon="17.635631">
        <ele>27.8</ele>
        <time>2012-04-29T11:34:26Z</time>
      </trkpt>
      <trkpt lat="59.5745534" lon="17.6352756">
        <ele>28</ele>
        <time>2012-04-29T11:34:31Z</time>
      </trkpt>
      <trkpt lat="59.5749255" lon="17.6349349">
        <ele>27.8</ele>
        <time>2012-04-29T11:34:36Z</time>
      </trkpt>
      <trkpt lat="59.5752937" lon="17.6346021">
        <ele>28</ele>
        <time>2012-04-29T11:34:41Z</time>
      </trkpt>
      <trkpt lat="59.5756444" lon="17.6342801">
        <ele>27.6</ele>
        <time>2012-04-29T11:34:46Z</time>
      </trkpt>
      <trkpt lat="59.5759875" lon="17.6339731">
        <ele>27.2</ele>
        <time>2012-04-29T11:34:51Z</time>
      </trkpt>
      <trkpt lat="59.5763162" lon="17.6336844">
        <ele>27</ele>
        <time>2012-04-29T11:34:56Z</time>
      </trkpt>
      <trkpt lat="59.5766876" lon="17.6333626">
        <ele>26.2</ele>
        <time>2012-04-29T11:35:02Z</time>
      </trkpt>
      <trkpt lat="59.5770739" lon="17.6330535">
        <ele>25.2</ele>
        <time>2012-04-29T11:35:08Z</time>
      </trkpt>
      <trkpt lat="59.5774742" lon="17.6327798">
        <ele>25.4</ele>
        <time>2012-04-29T11:35:14Z</time>
      </trkpt>
      <trkpt lat="59.577871" lon="17.6325303">
        <ele>25.2</ele>
        <time>2012-04-29T11:35:20Z</time>
      </trkpt>
      <trkpt lat="59.5782471" lon="17.6323142">
        <ele>25.8</ele>
        <time>2012-04-29T11:35:26Z</time>
      </trkpt>
      <trkpt lat="59.5786129" lon="17.6321154">
        <ele>25.6</ele>
        <time>2012-04-29T11:35:32Z</time>
      </trkpt>
      <trkpt lat="59.578983" lon="17.6319339">
        <ele>26</ele>
        <time>2012-04-29T11:35:38Z</time>
      </trkpt>
      <trkpt lat="59.5793709" lon="17.6317531">
        <ele>27</ele>
        <time>2012-04-29T11:35:44Z</time>
      </trkpt>
      <trkpt lat="59.5797602" lon="17.6315718">
        <ele>28</ele>
        <time>2012-04-29T11:35:50Z</time>
      </trkpt>
      <trkpt lat="59.5801467" lon="17.631417">
        <ele>29.2</ele>
        <time>2012-04-29T11:35:56Z</time>
      </trkpt>
      <trkpt lat="59.5805242" lon="17.6312433">
        <ele>30.2</ele>
        <time>2012-04-29T11:36:02Z</time>
      </trkpt>
      <trkpt lat="59.5809188" lon="17.6310673">
        <ele>31.6</ele>
        <time>2012-04-29T11:36:08Z</time>
      </trkpt>
      <trkpt lat="59.5813106" lon="17.6309009">
        <ele>33</ele>
        <time>2012-04-29T11:36:14Z</time>
      </trkpt>
      <trkpt lat="59.5816991" lon="17.6307249">
        <ele>34.6</ele>
        <time>2012-04-29T11:36:20Z</time>
      </trkpt>
      <trkpt lat="59.5820891" lon="17.6305473">
        <ele>35.6</ele>
        <time>2012-04-29T11:36:26Z</time>
      </trkpt>
      <trkpt lat="59.5824902" lon="17.6303733">
        <ele>36.4</ele>
        <time>2012-04-29T11:36:32Z</time>
      </trkpt>
      <trkpt lat="59.582877" lon="17.6301848">
        <ele>36.6</ele>
        <time>2012-04-29T11:36:38Z</time>
      </trkpt>
      <trkpt lat="59.5832662" lon="17.6299791">
        <ele>37.8</ele>
        <time>2012-04-29T11:36:44Z</time>
      </trkpt>
      <trkpt lat="59.5836505" lon="17.6297411">
        <ele>38.2</ele>
        <time>2012-04-29T11:36:50Z</time>
      </trkpt>
      <trkpt lat="59.5840203" lon="17.6294818">
        <ele>36.8</ele>
        <time>2012-04-29T11:36:56Z</time>
      </trkpt>
      <trkpt lat="59.5843961" lon="17.6291871">
        <ele>38.2</ele>
        <time>2012-04-29T11:37:02Z</time>
      </trkpt>
      <trkpt lat="59.5847867" lon="17.6288462">
        <ele>38.4</ele>
        <time>2012-04-29T11:37:08Z</time>
      </trkpt>
      <trkpt lat="59.5851075" lon="17.6285435">
        <ele>37.4</ele>
        <time>2012-04-29T11:37:13Z</time>
      </trkpt>
      <trkpt lat="59.5854868" lon="17.6281541">
        <ele>37</ele>
        <time>2012-04-29T11:37:19Z</time>
      </trkpt>
      <trkpt lat="59.5858509" lon="17.6277309">
        <ele>35.2</ele>
        <time>2012-04-29T11:37:25Z</time>
      </trkpt>
      <trkpt lat="59.5861545" lon="17.6273543">
        <ele>36.6</ele>
        <time>2012-04-29T11:37:30Z</time>
      </trkpt>
      <trkpt lat="59.5864509" lon="17.6269594">
        <ele>34.2</ele>
        <time>2012-04-29T11:37:35Z</time>
      </trkpt>
      <trkpt lat="59.5867497" lon="17.6265302">
        <ele>33.8</ele>
        <time>2012-04-29T11:37:40Z</time>
      </trkpt>
      <trkpt lat="59.5870432" lon="17.6260935">
        <ele>34.6</ele>
        <time>2012-04-29T11:37:45Z</time>
      </trkpt>
      <trkpt lat="59.5873372" lon="17.625662">
        <ele>35.8</ele>
        <time>2012-04-29T11:37:50Z</time>
      </trkpt>
      <trkpt lat="59.5876407" lon="17.6252041">
        <ele>36</ele>
        <time>2012-04-29T11:37:55Z</time>
      </trkpt>
      <trkpt lat="59.5879629" lon="17.6247387">
        <ele>35.8</ele>
        <time>2012-04-29T11:38:00Z</time>
      </trkpt>
      <trkpt lat="59.5882784" lon="17.6242488">
        <ele>35.8</ele>
        <time>2012-04-29T11:38:05Z</time>
      </trkpt>
      <trkpt lat="59.5885845" lon="17.623777">
        <ele>35.4</ele>
        <time>2012-04-29T11:38:10Z</time>
      </trkpt>
      <trkpt lat="59.5888843" lon="17.6233052">
        <ele>34.4</ele>
        <time>2012-04-29T11:38:15Z</time>
      </trkpt>
      <trkpt lat="59.5892019" lon="17.6228331">
        <ele>34.6</ele>
        <time>2012-04-29T11:38:20Z</time>
      </trkpt>
      <trkpt lat="59.5895242" lon="17.6223689">
        <ele>35.6</ele>
        <time>2012-04-29T11:38:25Z</time>
      </trkpt>
      <trkpt lat="59.5898405" lon="17.6219101">
        <ele>36.6</ele>
        <time>2012-04-29T11:38:30Z</time>
      </trkpt>
      <trkpt lat="59.5901534" lon="17.6214512">
        <ele>36.8</ele>
        <time>2012-04-29T11:38:35Z</time>
      </trkpt>
      <trkpt lat="59.5904581" lon="17.6209922">
        <ele>37.6</ele>
        <time>2012-04-29T11:38:40Z</time>
      </trkpt>
      <trkpt lat="59.5907794" lon="17.6205297">
        <ele>38.2</ele>
        <time>2012-04-29T11:38:45Z</time>
      </trkpt>
      <trkpt lat="59.5910896" lon="17.6200825">
        <ele>37</ele>
        <time>2012-04-29T11:38:50Z</time>
      </trkpt>
      <trkpt lat="59.5914019" lon="17.6196358">
        <ele>34.8</ele>
        <time>2012-04-29T11:38:55Z</time>
      </trkpt>
      <trkpt lat="59.5917265" lon="17.619201">
        <ele>35</ele>
        <time>2012-04-29T11:39:00Z</time>
      </trkpt>
      <trkpt lat="59.5920583" lon="17.6187823">
        <ele>35</ele>
        <time>2012-04-29T11:39:05Z</time>
      </trkpt>
      <trkpt lat="59.5923901" lon="17.6183566">
        <ele>33.6</ele>
        <time>2012-04-29T11:39:10Z</time>
      </trkpt>
      <trkpt lat="59.5927227" lon="17.6179324">
        <ele>31.6</ele>
        <time>2012-04-29T11:39:15Z</time>
      </trkpt>
      <trkpt lat="59.5930786" lon="17.6175047">
        <ele>32.2</ele>
        <time>2012-04-29T11:39:20Z</time>
      </trkpt>
      <trkpt lat="59.5934294" lon="17.6170952">
        <ele>32.8</ele>
        <time>2012-04-29T11:39:25Z</time>
      </trkpt>
      <trkpt lat="59.5937728" lon="17.6167061">
        <ele>33</ele>
        <time>2012-04-29T11:39:30Z</time>
      </trkpt>
      <trkpt lat="59.5941039" lon="17.6163456">
        <ele>32</ele>
        <time>2012-04-29T11:39:35Z</time>
      </trkpt>
      <trkpt lat="59.5944265" lon="17.6159949">
        <ele>30.6</ele>
        <time>2012-04-29T11:39:40Z</time>
      </trkpt>
      <trkpt lat="59.5947575" lon="17.6156546">
        <ele>29.6</ele>
        <time>2012-04-29T11:39:45Z</time>
      </trkpt>
      <trkpt lat="59.595083" lon="17.6153223">
        <ele>28.8</ele>
        <time>2012-04-29T11:39:50Z</time>
      </trkpt>
      <trkpt lat="59.595409" lon="17.6150058">
        <ele>28.2</ele>
        <time>2012-04-29T11:39:55Z</time>
      </trkpt>
      <trkpt lat="59.5957419" lon="17.6146942">
        <ele>28.2</ele>
        <time>2012-04-29T11:40:00Z</time>
      </trkpt>
      <trkpt lat="59.5958115" lon="17.614646">
        <ele>28</ele>
        <time>2012-04-29T11:40:01Z</time>
      </trkpt>
      <trkpt lat="59.5961221" lon="17.6148796">
        <ele>29.2</ele>
        <time>2012-04-29T11:40:06Z</time>
      </trkpt>
      <trkpt lat="59.5964565" lon="17.6154532">
        <ele>29.2</ele>
        <time>2012-04-29T11:40:12Z</time>
      </trkpt>
      <trkpt lat="59.5967504" lon="17.6160337">
        <ele>29.2</ele>
        <time>2012-04-29T11:40:17Z</time>
      </trkpt>
      <trkpt lat="59.5970312" lon="17.6166197">
        <ele>29.4</ele>
        <time>2012-04-29T11:40:22Z</time>
      </trkpt>
      <trkpt lat="59.5973" lon="17.6171796">
        <ele>29.6</ele>
        <time>2012-04-29T11:40:27Z</time>
      </trkpt>
      <trkpt lat="59.5975529" lon="17.6177339">
        <ele>30</ele>
        <time>2012-04-29T11:40:32Z</time>
      </trkpt>
      <trkpt lat="59.5978015" lon="17.6182627">
        <ele>30.4</ele>
        <time>2012-04-29T11:40:37Z</time>
      </trkpt>
      <trkpt lat="59.5980925" lon="17.6188772">
        <ele>31</ele>
        <time>2012-04-29T11:40:43Z</time>
      </trkpt>
      <trkpt lat="59.5983303" lon="17.6194116">
        <ele>31.4</ele>
        <time>2012-04-29T11:40:48Z</time>
      </trkpt>
      <trkpt lat="59.5985723" lon="17.6200839">
        <ele>31.8</ele>
        <time>2012-04-29T11:40:54Z</time>
      </trkpt>
      <trkpt lat="59.5987509" lon="17.6208234">
        <ele>32.6</ele>
        <time>2012-04-29T11:41:00Z</time>
      </trkpt>
      <trkpt lat="59.598867" lon="17.6215863">
        <ele>33.2</ele>
        <time>2012-04-29T11:41:06Z</time>
      </trkpt>
      <trkpt lat="59.5989196" lon="17.6223302">
        <ele>31.2</ele>
        <time>2012-04-29T11:41:12Z</time>
      </trkpt>
      <trkpt lat="59.5989126" lon="17.6230419">
        <ele>32.8</ele>
        <time>2012-04-29T11:41:18Z</time>
      </trkpt>
      <trkpt lat="59.5988478" lon="17.6238381">
        <ele>35.8</ele>
        <time>2012-04-29T11:41:25Z</time>
      </trkpt>
      <trkpt lat="59.59872" lon="17.6245829">
        <ele>36</ele>
        <time>2012-04-29T11:41:32Z</time>
      </trkpt>
      <trkpt lat="59.5985464" lon="17.6253081">
        <ele>34.8</ele>
        <time>2012-04-29T11:41:38Z</time>
      </trkpt>
      <trkpt lat="59.5983644" lon="17.6259592">
        <ele>33</ele>
        <time>2012-04-29T11:41:43Z</time>
      </trkpt>
      <trkpt lat="59.5981898" lon="17.6266105">
        <ele>32.4</ele>
        <time>2012-04-29T11:41:48Z</time>
      </trkpt>
      <trkpt lat="59.5980699" lon="17.6273103">
        <ele>32.4</ele>
        <time>2012-04-29T11:41:53Z</time>
      </trkpt>
      <trkpt lat="59.5980002" lon="17.6280604">
        <ele>32.6</ele>
        <time>2012-04-29T11:41:58Z</time>
      </trkpt>
      <trkpt lat="59.5978921" lon="17.6288393">
        <ele>31.8</ele>
        <time>2012-04-29T11:42:03Z</time>
      </trkpt>
      <trkpt lat="59.5977506" lon="17.6296482">
        <ele>31</ele>
        <time>2012-04-29T11:42:08Z</time>
      </trkpt>
      <trkpt lat="59.5975857" lon="17.6304276">
        <ele>31.4</ele>
        <time>2012-04-29T11:42:13Z</time>
      </trkpt>
      <trkpt lat="59.5974202" lon="17.6311476">
        <ele>32.4</ele>
        <time>2012-04-29T11:42:18Z</time>
      </trkpt>
      <trkpt lat="59.5972473" lon="17.6318176">
        <ele>32.8</ele>
        <time>2012-04-29T11:42:23Z</time>
      </trkpt>
      <trkpt lat="59.5970462" lon="17.6325116">
        <ele>32.2</ele>
        <time>2012-04-29T11:42:28Z</time>
      </trkpt>
      <trkpt lat="59.5968363" lon="17.633237">
        <ele>30.8</ele>
        <time>2012-04-29T11:42:33Z</time>
      </trkpt>
      <trkpt lat="59.5966593" lon="17.6338518">
        <ele>29.8</ele>
        <time>2012-04-29T11:42:37Z</time>
      </trkpt>
      <trkpt lat="59.5964799" lon="17.6344821">
        <ele>28</ele>
        <time>2012-04-29T11:42:41Z</time>
      </trkpt>
      <trkpt lat="59.5962904" lon="17.6351318">
        <ele>26</ele>
        <time>2012-04-29T11:42:45Z</time>
      </trkpt>
      <trkpt lat="59.596104" lon="17.6357632">
        <ele>24.6</ele>
        <time>2012-04-29T11:42:49Z</time>
      </trkpt>
      <trkpt lat="59.5959224" lon="17.6363516">
        <ele>26.6</ele>
        <time>2012-04-29T11:42:53Z</time>
      </trkpt>
      <trkpt lat="59.5956864" lon="17.6370518">
        <ele>26.8</ele>
        <time>2012-04-29T11:42:58Z</time>
      </trkpt>
      <trkpt lat="59.5954414" lon="17.637657">
        <ele>25.8</ele>
        <time>2012-04-29T11:43:03Z</time>
      </trkpt>
      <trkpt lat="59.595201" lon="17.6382689">
        <ele>25</ele>
        <time>2012-04-29T11:43:08Z</time>
      </trkpt>
      <trkpt lat="59.5949752" lon="17.6389348">
        <ele>24.4</ele>
        <time>2012-04-29T11:43:13Z</time>
      </trkpt>
      <trkpt lat="59.5947731" lon="17.6396548">
        <ele>20.2</ele>
        <time>2012-04-29T11:43:18Z</time>
      </trkpt>
      <trkpt lat="59.5945606" lon="17.6403358">
        <ele>19.2</ele>
        <time>2012-04-29T11:43:23Z</time>
      </trkpt>
      <trkpt lat="59.594328" lon="17.6409902">
        <ele>18</ele>
        <time>2012-04-29T11:43:28Z</time>
      </trkpt>
      <trkpt lat="59.594079" lon="17.6415964">
        <ele>16.8</ele>
        <time>2012-04-29T11:43:33Z</time>
      </trkpt>
      <trkpt lat="59.5937859" lon="17.6421996">
        <ele>16.4</ele>
        <time>2012-04-29T11:43:38Z</time>
      </trkpt>
      <trkpt lat="59.5934729" lon="17.6427713">
        <ele>14.8</ele>
        <time>2012-04-29T11:43:43Z</time>
      </trkpt>
      <trkpt lat="59.5931387" lon="17.6432998">
        <ele>14.2</ele>
        <time>2012-04-29T11:43:48Z</time>
      </trkpt>
      <trkpt lat="59.5928105" lon="17.6438013">
        <ele>15</ele>
        <time>2012-04-29T11:43:53Z</time>
      </trkpt>
      <trkpt lat="59.5925405" lon="17.644325">
        <ele>15.8</ele>
        <time>2012-04-29T11:43:58Z</time>
      </trkpt>
      <trkpt lat="59.5922736" lon="17.6448957">
        <ele>15.6</ele>
        <time>2012-04-29T11:44:03Z</time>
      </trkpt>
      <trkpt lat="59.5919912" lon="17.6454925">
        <ele>14.2</ele>
        <time>2012-04-29T11:44:08Z</time>
      </trkpt>
      <trkpt lat="59.5916903" lon="17.6460918">
        <ele>12</ele>
        <time>2012-04-29T11:44:13Z</time>
      </trkpt>
      <trkpt lat="59.5913604" lon="17.6466379">
        <ele>10.4</ele>
        <time>2012-04-29T11:44:18Z</time>
      </trkpt>
      <trkpt lat="59.5909979" lon="17.6471055">
        <ele>10.6</ele>
        <time>2012-04-29T11:44:23Z</time>
      </trkpt>
      <trkpt lat="59.5906244" lon="17.6475458">
        <ele>11.2</ele>
        <time>2012-04-29T11:44:28Z</time>
      </trkpt>
      <trkpt lat="59.5902871" lon="17.6480798">
        <ele>12.4</ele>
        <time>2012-04-29T11:44:33Z</time>
      </trkpt>
      <trkpt lat="59.590006" lon="17.6487502">
        <ele>12.8</ele>
        <time>2012-04-29T11:44:38Z</time>
      </trkpt>
      <trkpt lat="59.5897826" lon="17.6494962">
        <ele>12.8</ele>
        <time>2012-04-29T11:44:43Z</time>
      </trkpt>
      <trkpt lat="59.5895868" lon="17.650226">
        <ele>14.4</ele>
        <time>2012-04-29T11:44:48Z</time>
      </trkpt>
      <trkpt lat="59.5893952" lon="17.6509481">
        <ele>16.2</ele>
        <time>2012-04-29T11:44:53Z</time>
      </trkpt>
      <trkpt lat="59.5892044" lon="17.6516727">
        <ele>17.2</ele>
        <time>2012-04-29T11:44:58Z</time>
      </trkpt>
      <trkpt lat="59.5890154" lon="17.6524139">
        <ele>17</ele>
        <time>2012-04-29T11:45:03Z</time>
      </trkpt>
      <trkpt lat="59.5888295" lon="17.6531367">
        <ele>17.6</ele>
        <time>2012-04-29T11:45:08Z</time>
      </trkpt>
      <trkpt lat="59.588644" lon="17.6538516">
        <ele>19</ele>
        <time>2012-04-29T11:45:13Z</time>
      </trkpt>
      <trkpt lat="59.5884522" lon="17.6545761">
        <ele>20.6</ele>
        <time>2012-04-29T11:45:18Z</time>
      </trkpt>
      <trkpt lat="59.5882548" lon="17.6552993">
        <ele>21.6</ele>
        <time>2012-04-29T11:45:23Z</time>
      </trkpt>
      <trkpt lat="59.5880407" lon="17.655967">
        <ele>21.2</ele>
        <time>2012-04-29T11:45:28Z</time>
      </trkpt>
      <trkpt lat="59.587826" lon="17.6566219">
        <ele>21</ele>
        <time>2012-04-29T11:45:33Z</time>
      </trkpt>
      <trkpt lat="59.5875811" lon="17.6572379">
        <ele>21</ele>
        <time>2012-04-29T11:45:38Z</time>
      </trkpt>
      <trkpt lat="59.5873278" lon="17.6578611">
        <ele>21</ele>
        <time>2012-04-29T11:45:43Z</time>
      </trkpt>
      <trkpt lat="59.5870789" lon="17.6584706">
        <ele>21.2</ele>
        <time>2012-04-29T11:45:48Z</time>
      </trkpt>
      <trkpt lat="59.5868257" lon="17.6590887">
        <ele>20.8</ele>
        <time>2012-04-29T11:45:53Z</time>
      </trkpt>
      <trkpt lat="59.5865801" lon="17.6596839">
        <ele>21</ele>
        <time>2012-04-29T11:45:58Z</time>
      </trkpt>
      <trkpt lat="59.5863404" lon="17.6602672">
        <ele>21.4</ele>
        <time>2012-04-29T11:46:03Z</time>
      </trkpt>
      <trkpt lat="59.5861027" lon="17.6608401">
        <ele>21.6</ele>
        <time>2012-04-29T11:46:08Z</time>
      </trkpt>
      <trkpt lat="59.5858738" lon="17.6614068">
        <ele>22</ele>
        <time>2012-04-29T11:46:13Z</time>
      </trkpt>
      <trkpt lat="59.5856489" lon="17.6619637">
        <ele>22.2</ele>
        <time>2012-04-29T11:46:18Z</time>
      </trkpt>
      <trkpt lat="59.5854371" lon="17.6625348">
        <ele>22.2</ele>
        <time>2012-04-29T11:46:23Z</time>
      </trkpt>
      <trkpt lat="59.5852309" lon="17.6631275">
        <ele>22.8</ele>
        <time>2012-04-29T11:46:29Z</time>
      </trkpt>
      <trkpt lat="59.5850385" lon="17.6637514">
        <ele>22.4</ele>
        <time>2012-04-29T11:46:33Z</time>
      </trkpt>
      <trkpt lat="59.5848609" lon="17.6643615">
        <ele>23.4</ele>
        <time>2012-04-29T11:46:38Z</time>
      </trkpt>
      <trkpt lat="59.5846941" lon="17.6649966">
        <ele>23.6</ele>
        <time>2012-04-29T11:46:43Z</time>
      </trkpt>
      <trkpt lat="59.5845222" lon="17.6656549">
        <ele>23.2</ele>
        <time>2012-04-29T11:46:49Z</time>
      </trkpt>
      <trkpt lat="59.5843383" lon="17.6663464">
        <ele>22.6</ele>
        <time>2012-04-29T11:46:53Z</time>
      </trkpt>
      <trkpt lat="59.5841434" lon="17.6670702">
        <ele>23</ele>
        <time>2012-04-29T11:46:58Z</time>
      </trkpt>
      <trkpt lat="59.5839567" lon="17.6677812">
        <ele>22.4</ele>
        <time>2012-04-29T11:47:03Z</time>
      </trkpt>
      <trkpt lat="59.5837565" lon="17.6685033">
        <ele>21.6</ele>
        <time>2012-04-29T11:47:08Z</time>
      </trkpt>
      <trkpt lat="59.5835256" lon="17.6692114">
        <ele>20.8</ele>
        <time>2012-04-29T11:47:13Z</time>
      </trkpt>
      <trkpt lat="59.5832702" lon="17.6698615">
        <ele>20.6</ele>
        <time>2012-04-29T11:47:18Z</time>
      </trkpt>
      <trkpt lat="59.5830077" lon="17.6704332">
        <ele>21.6</ele>
        <time>2012-04-29T11:47:23Z</time>
      </trkpt>
      <trkpt lat="59.582737" lon="17.6709366">
        <ele>22</ele>
        <time>2012-04-29T11:47:28Z</time>
      </trkpt>
      <trkpt lat="59.5824233" lon="17.671483">
        <ele>22.6</ele>
        <time>2012-04-29T11:47:34Z</time>
      </trkpt>
      <trkpt lat="59.5821048" lon="17.6720222">
        <ele>22.2</ele>
        <time>2012-04-29T11:47:40Z</time>
      </trkpt>
      <trkpt lat="59.5817727" lon="17.6725594">
        <ele>22.4</ele>
        <time>2012-04-29T11:47:46Z</time>
      </trkpt>
      <trkpt lat="59.5814882" lon="17.6730625">
        <ele>19.6</ele>
        <time>2012-04-29T11:47:51Z</time>
      </trkpt>
      <trkpt lat="59.5811577" lon="17.6736264">
        <ele>18.2</ele>
        <time>2012-04-29T11:47:57Z</time>
      </trkpt>
      <trkpt lat="59.5808246" lon="17.6741565">
        <ele>18.8</ele>
        <time>2012-04-29T11:48:03Z</time>
      </trkpt>
      <trkpt lat="59.5804751" lon="17.674642">
        <ele>20.2</ele>
        <time>2012-04-29T11:48:09Z</time>
      </trkpt>
      <trkpt lat="59.5801099" lon="17.675059">
        <ele>21.4</ele>
        <time>2012-04-29T11:48:15Z</time>
      </trkpt>
      <trkpt lat="59.5797767" lon="17.6753472">
        <ele>22</ele>
        <time>2012-04-29T11:48:20Z</time>
      </trkpt>
      <trkpt lat="59.5794271" lon="17.6755552">
        <ele>23.4</ele>
        <time>2012-04-29T11:48:25Z</time>
      </trkpt>
      <trkpt lat="59.5790272" lon="17.6757223">
        <ele>25.2</ele>
        <time>2012-04-29T11:48:31Z</time>
      </trkpt>
      <trkpt lat="59.5786527" lon="17.6758435">
        <ele>27.6</ele>
        <time>2012-04-29T11:48:36Z</time>
      </trkpt>
      <trkpt lat="59.5782505" lon="17.6759891">
        <ele>28</ele>
        <time>2012-04-29T11:48:41Z</time>
      </trkpt>
      <trkpt lat="59.5778549" lon="17.6761887">
        <ele>29.8</ele>
        <time>2012-04-29T11:48:46Z</time>
      </trkpt>
      <trkpt lat="59.5774523" lon="17.6764802">
        <ele>31.8</ele>
        <time>2012-04-29T11:48:52Z</time>
      </trkpt>
      <trkpt lat="59.5770984" lon="17.6768812">
        <ele>35.6</ele>
        <time>2012-04-29T11:48:59Z</time>
      </trkpt>
      <trkpt lat="59.5767866" lon="17.6772506">
        <ele>37</ele>
        <time>2012-04-29T11:49:05Z</time>
      </trkpt>
      <trkpt lat="59.5764683" lon="17.6776109">
        <ele>40.6</ele>
        <time>2012-04-29T11:49:11Z</time>
      </trkpt>
      <trkpt lat="59.5761272" lon="17.678051">
        <ele>39.8</ele>
        <time>2012-04-29T11:49:17Z</time>
      </trkpt>
      <trkpt lat="59.5758562" lon="17.6784995">
        <ele>37.6</ele>
        <time>2012-04-29T11:49:23Z</time>
      </trkpt>
      <trkpt lat="59.5755886" lon="17.6790853">
        <ele>36.6</ele>
        <time>2012-04-29T11:49:29Z</time>
      </trkpt>
      <trkpt lat="59.575395" lon="17.679713">
        <ele>35.8</ele>
        <time>2012-04-29T11:49:34Z</time>
      </trkpt>
      <trkpt lat="59.5752063" lon="17.6803712">
        <ele>36</ele>
        <time>2012-04-29T11:49:39Z</time>
      </trkpt>
      <trkpt lat="59.5750049" lon="17.6810481">
        <ele>36.4</ele>
        <time>2012-04-29T11:49:44Z</time>
      </trkpt>
      <trkpt lat="59.5747811" lon="17.6817305">
        <ele>35.2</ele>
        <time>2012-04-29T11:49:49Z</time>
      </trkpt>
      <trkpt lat="59.5744603" lon="17.6823696">
        <ele>33</ele>
        <time>2012-04-29T11:49:54Z</time>
      </trkpt>
      <trkpt lat="59.5741484" lon="17.6828257">
        <ele>31.8</ele>
        <time>2012-04-29T11:49:58Z</time>
      </trkpt>
      <trkpt lat="59.5738207" lon="17.6831699">
        <ele>30.8</ele>
        <time>2012-04-29T11:50:02Z</time>
      </trkpt>
      <trkpt lat="59.5737392" lon="17.6832339">
        <ele>30.4</ele>
        <time>2012-04-29T11:50:03Z</time>
      </trkpt>
      <trkpt lat="59.5734157" lon="17.683422">
        <ele>29.4</ele>
        <time>2012-04-29T11:50:07Z</time>
      </trkpt>
      <trkpt lat="59.573026" lon="17.6836605">
        <ele>29.8</ele>
        <time>2012-04-29T11:50:12Z</time>
      </trkpt>
      <trkpt lat="59.5728017" lon="17.6838132">
        <ele>30.6</ele>
        <time>2012-04-29T11:50:15Z</time>
      </trkpt>
      <trkpt lat="59.5726619" lon="17.6839327">
        <ele>30.8</ele>
        <time>2012-04-29T11:50:17Z</time>
      </trkpt>
      <trkpt lat="59.57232" lon="17.6841309">
        <ele>31.2</ele>
        <time>2012-04-29T11:50:22Z</time>
      </trkpt>
      <trkpt lat="59.5719197" lon="17.6843836">
        <ele>30.8</ele>
        <time>2012-04-29T11:50:28Z</time>
      </trkpt>
      <trkpt lat="59.571505" lon="17.6846253">
        <ele>29.2</ele>
        <time>2012-04-29T11:50:34Z</time>
      </trkpt>
      <trkpt lat="59.5711502" lon="17.6848431">
        <ele>28.8</ele>
        <time>2012-04-29T11:50:39Z</time>
      </trkpt>
      <trkpt lat="59.5707898" lon="17.6850513">
        <ele>28.2</ele>
        <time>2012-04-29T11:50:44Z</time>
      </trkpt>
      <trkpt lat="59.5704338" lon="17.6852562">
        <ele>27.2</ele>
        <time>2012-04-29T11:50:50Z</time>
      </trkpt>
      <trkpt lat="59.5700093" lon="17.6855042">
        <ele>27.2</ele>
        <time>2012-04-29T11:50:55Z</time>
      </trkpt>
      <trkpt lat="59.5696134" lon="17.6857528">
        <ele>27.6</ele>
        <time>2012-04-29T11:51:00Z</time>
      </trkpt>
      <trkpt lat="59.5692126" lon="17.6860023">
        <ele>29.8</ele>
        <time>2012-04-29T11:51:06Z</time>
      </trkpt>
      <trkpt lat="59.5688068" lon="17.6862491">
        <ele>32</ele>
        <time>2012-04-29T11:51:12Z</time>
      </trkpt>
      <trkpt lat="59.5684531" lon="17.6864974">
        <ele>33.6</ele>
        <time>2012-04-29T11:51:17Z</time>
      </trkpt>
      <trkpt lat="59.5680987" lon="17.6867416">
        <ele>33.2</ele>
        <time>2012-04-29T11:51:22Z</time>
      </trkpt>
      <trkpt lat="59.5677768" lon="17.6870519">
        <ele>33.6</ele>
        <time>2012-04-29T11:51:27Z</time>
      </trkpt>
      <trkpt lat="59.5674531" lon="17.6874471">
        <ele>33.6</ele>
        <time>2012-04-29T11:51:32Z</time>
      </trkpt>
      <trkpt lat="59.5671393" lon="17.687961">
        <ele>31.4</ele>
        <time>2012-04-29T11:51:37Z</time>
      </trkpt>
      <trkpt lat="59.5668539" lon="17.6885281">
        <ele>29.6</ele>
        <time>2012-04-29T11:51:42Z</time>
      </trkpt>
      <trkpt lat="59.566588" lon="17.6891175">
        <ele>27.2</ele>
        <time>2012-04-29T11:51:47Z</time>
      </trkpt>
      <trkpt lat="59.5663359" lon="17.6896767">
        <ele>27.8</ele>
        <time>2012-04-29T11:51:52Z</time>
      </trkpt>
      <trkpt lat="59.5660776" lon="17.6902315">
        <ele>26.4</ele>
        <time>2012-04-29T11:51:57Z</time>
      </trkpt>
      <trkpt lat="59.5658393" lon="17.6907995">
        <ele>26</ele>
        <time>2012-04-29T11:52:02Z</time>
      </trkpt>
      <trkpt lat="59.5656005" lon="17.6914568">
        <ele>26.2</ele>
        <time>2012-04-29T11:52:08Z</time>
      </trkpt>
      <trkpt lat="59.5653745" lon="17.6921852">
        <ele>27</ele>
        <time>2012-04-29T11:52:14Z</time>
      </trkpt>
      <trkpt lat="59.565214" lon="17.6928126">
        <ele>28.6</ele>
        <time>2012-04-29T11:52:19Z</time>
      </trkpt>
      <trkpt lat="59.5650668" lon="17.6934897">
        <ele>27.4</ele>
        <time>2012-04-29T11:52:24Z</time>
      </trkpt>
      <trkpt lat="59.564953" lon="17.6941761">
        <ele>30.4</ele>
        <time>2012-04-29T11:52:29Z</time>
      </trkpt>
      <trkpt lat="59.5648699" lon="17.6948877">
        <ele>32</ele>
        <time>2012-04-29T11:52:34Z</time>
      </trkpt>
      <trkpt lat="59.5648058" lon="17.6955861">
        <ele>31.6</ele>
        <time>2012-04-29T11:52:39Z</time>
      </trkpt>
      <trkpt lat="59.5647287" lon="17.6964036">
        <ele>33.6</ele>
        <time>2012-04-29T11:52:45Z</time>
      </trkpt>
      <trkpt lat="59.5646706" lon="17.697104">
        <ele>34.8</ele>
        <time>2012-04-29T11:52:50Z</time>
      </trkpt>
      <trkpt lat="59.5645991" lon="17.6978312">
        <ele>33.8</ele>
        <time>2012-04-29T11:52:55Z</time>
      </trkpt>
      <trkpt lat="59.5645338" lon="17.6985414">
        <ele>33</ele>
        <time>2012-04-29T11:53:00Z</time>
      </trkpt>
      <trkpt lat="59.5644794" lon="17.6992474">
        <ele>35.4</ele>
        <time>2012-04-29T11:53:05Z</time>
      </trkpt>
      <trkpt lat="59.5644214" lon="17.6999838">
        <ele>33.2</ele>
        <time>2012-04-29T11:53:10Z</time>
      </trkpt>
      <trkpt lat="59.5643559" lon="17.7007973">
        <ele>32.2</ele>
        <time>2012-04-29T11:53:17Z</time>
      </trkpt>
      <trkpt lat="59.5643015" lon="17.7014961">
        <ele>31.4</ele>
        <time>2012-04-29T11:53:21Z</time>
      </trkpt>
      <trkpt lat="59.5642354" lon="17.70221">
        <ele>31.4</ele>
        <time>2012-04-29T11:53:26Z</time>
      </trkpt>
      <trkpt lat="59.5641767" lon="17.7029295">
        <ele>33.6</ele>
        <time>2012-04-29T11:53:31Z</time>
      </trkpt>
      <trkpt lat="59.5641125" lon="17.7036817">
        <ele>32.6</ele>
        <time>2012-04-29T11:53:37Z</time>
      </trkpt>
      <trkpt lat="59.5640589" lon="17.7044005">
        <ele>31.6</ele>
        <time>2012-04-29T11:53:41Z</time>
      </trkpt>
      <trkpt lat="59.5639873" lon="17.7051926">
        <ele>31.2</ele>
        <time>2012-04-29T11:53:48Z</time>
      </trkpt>
      <trkpt lat="59.5638826" lon="17.7060072">
        <ele>30.2</ele>
        <time>2012-04-29T11:53:53Z</time>
      </trkpt>
      <trkpt lat="59.5637671" lon="17.7067035">
        <ele>28.6</ele>
        <time>2012-04-29T11:53:58Z</time>
      </trkpt>
      <trkpt lat="59.5636001" lon="17.7074375">
        <ele>26.8</ele>
        <time>2012-04-29T11:54:03Z</time>
      </trkpt>
      <trkpt lat="59.5634304" lon="17.7081692">
        <ele>25</ele>
        <time>2012-04-29T11:54:08Z</time>
      </trkpt>
      <trkpt lat="59.5632698" lon="17.7088892">
        <ele>24</ele>
        <time>2012-04-29T11:54:13Z</time>
      </trkpt>
      <trkpt lat="59.5632149" lon="17.7095993">
        <ele>25.4</ele>
        <time>2012-04-29T11:54:19Z</time>
      </trkpt>
      <trkpt lat="59.5632319" lon="17.710129">
        <ele>26.8</ele>
        <time>2012-04-29T11:54:23Z</time>
      </trkpt>
      <trkpt lat="59.5631904" lon="17.7103722">
        <ele>27.2</ele>
        <time>2012-04-29T11:54:25Z</time>
      </trkpt>
      <trkpt lat="59.5629399" lon="17.7106017">
        <ele>28</ele>
        <time>2012-04-29T11:54:29Z</time>
      </trkpt>
      <trkpt lat="59.5628675" lon="17.7106431">
        <ele>28.2</ele>
        <time>2012-04-29T11:54:30Z</time>
      </trkpt>
      <trkpt lat="59.5624955" lon="17.7108881">
        <ele>28.4</ele>
        <time>2012-04-29T11:54:35Z</time>
      </trkpt>
      <trkpt lat="59.5621148" lon="17.7111625">
        <ele>30.4</ele>
        <time>2012-04-29T11:54:40Z</time>
      </trkpt>
      <trkpt lat="59.5617416" lon="17.7114258">
        <ele>31.8</ele>
        <time>2012-04-29T11:54:45Z</time>
      </trkpt>
      <trkpt lat="59.5613724" lon="17.7117117">
        <ele>31.4</ele>
        <time>2012-04-29T11:54:50Z</time>
      </trkpt>
      <trkpt lat="59.5610196" lon="17.7120452">
        <ele>31</ele>
        <time>2012-04-29T11:54:55Z</time>
      </trkpt>
      <trkpt lat="59.5606882" lon="17.7124256">
        <ele>31.4</ele>
        <time>2012-04-29T11:55:00Z</time>
      </trkpt>
      <trkpt lat="59.5603766" lon="17.7128641">
        <ele>32.2</ele>
        <time>2012-04-29T11:55:05Z</time>
      </trkpt>
      <trkpt lat="59.5601042" lon="17.7133369">
        <ele>32.4</ele>
        <time>2012-04-29T11:55:10Z</time>
      </trkpt>
      <trkpt lat="59.5598218" lon="17.7139434">
        <ele>32.8</ele>
        <time>2012-04-29T11:55:16Z</time>
      </trkpt>
      <trkpt lat="59.5595956" lon="17.7144905">
        <ele>32.6</ele>
        <time>2012-04-29T11:55:21Z</time>
      </trkpt>
      <trkpt lat="59.5593791" lon="17.715099">
        <ele>31.2</ele>
        <time>2012-04-29T11:55:26Z</time>
      </trkpt>
      <trkpt lat="59.5591631" lon="17.7157611">
        <ele>30.6</ele>
        <time>2012-04-29T11:55:31Z</time>
      </trkpt>
      <trkpt lat="59.5589458" lon="17.7164634">
        <ele>29.2</ele>
        <time>2012-04-29T11:55:36Z</time>
      </trkpt>
      <trkpt lat="59.5587082" lon="17.7172178">
        <ele>26.4</ele>
        <time>2012-04-29T11:55:41Z</time>
      </trkpt>
      <trkpt lat="59.558505" lon="17.7178443">
        <ele>23.8</ele>
        <time>2012-04-29T11:55:45Z</time>
      </trkpt>
      <trkpt lat="59.5582991" lon="17.7184484">
        <ele>22.2</ele>
        <time>2012-04-29T11:55:49Z</time>
      </trkpt>
      <trkpt lat="59.558073" lon="17.7190152">
        <ele>22.4</ele>
        <time>2012-04-29T11:55:53Z</time>
      </trkpt>
      <trkpt lat="59.5578481" lon="17.7195684">
        <ele>21.6</ele>
        <time>2012-04-29T11:55:57Z</time>
      </trkpt>
      <trkpt lat="59.5575589" lon="17.7202035">
        <ele>21.6</ele>
        <time>2012-04-29T11:56:02Z</time>
      </trkpt>
      <trkpt lat="59.5572769" lon="17.7207267">
        <ele>23.4</ele>
        <time>2012-04-29T11:56:07Z</time>
      </trkpt>
      <trkpt lat="59.5569718" lon="17.7212598">
        <ele>27</ele>
        <time>2012-04-29T11:56:12Z</time>
      </trkpt>
      <trkpt lat="59.5566978" lon="17.7217253">
        <ele>31.6</ele>
        <time>2012-04-29T11:56:16Z</time>
      </trkpt>
      <trkpt lat="59.5563838" lon="17.7222823">
        <ele>35.4</ele>
        <time>2012-04-29T11:56:21Z</time>
      </trkpt>
      <trkpt lat="59.5560819" lon="17.7228127">
        <ele>37.8</ele>
        <time>2012-04-29T11:56:26Z</time>
      </trkpt>
      <trkpt lat="59.5557908" lon="17.7233105">
        <ele>39.2</ele>
        <time>2012-04-29T11:56:31Z</time>
      </trkpt>
      <trkpt lat="59.5555125" lon="17.7237975">
        <ele>39</ele>
        <time>2012-04-29T11:56:36Z</time>
      </trkpt>
      <trkpt lat="59.5552019" lon="17.7243741">
        <ele>37.8</ele>
        <time>2012-04-29T11:56:42Z</time>
      </trkpt>
      <trkpt lat="59.5549423" lon="17.7248913">
        <ele>38</ele>
        <time>2012-04-29T11:56:47Z</time>
      </trkpt>
      <trkpt lat="59.5546972" lon="17.7254043">
        <ele>38.2</ele>
        <time>2012-04-29T11:56:52Z</time>
      </trkpt>
      <trkpt lat="59.5545235" lon="17.7257903">
        <ele>37.4</ele>
        <time>2012-04-29T11:56:56Z</time>
      </trkpt>
      <trkpt lat="59.5544471" lon="17.7259996">
        <ele>37.4</ele>
        <time>2012-04-29T11:56:58Z</time>
      </trkpt>
      <trkpt lat="59.5542295" lon="17.7265952">
        <ele>35</ele>
        <time>2012-04-29T11:57:04Z</time>
      </trkpt>
      <trkpt lat="59.5540296" lon="17.7271807">
        <ele>30</ele>
        <time>2012-04-29T11:57:10Z</time>
      </trkpt>
      <trkpt lat="59.5538234" lon="17.7277659">
        <ele>29.6</ele>
        <time>2012-04-29T11:57:15Z</time>
      </trkpt>
      <trkpt lat="59.5535809" lon="17.7284606">
        <ele>25.6</ele>
        <time>2012-04-29T11:57:21Z</time>
      </trkpt>
      <trkpt lat="59.5534219" lon="17.7288093">
        <ele>26.6</ele>
        <time>2012-04-29T11:57:24Z</time>
      </trkpt>
      <trkpt lat="59.5533285" lon="17.729069">
        <ele>26.8</ele>
        <time>2012-04-29T11:57:26Z</time>
      </trkpt>
      <trkpt lat="59.5530815" lon="17.7297388">
        <ele>28</ele>
        <time>2012-04-29T11:57:31Z</time>
      </trkpt>
      <trkpt lat="59.5528639" lon="17.7303369">
        <ele>26.4</ele>
        <time>2012-04-29T11:57:35Z</time>
      </trkpt>
      <trkpt lat="59.5526175" lon="17.7309888">
        <ele>24.2</ele>
        <time>2012-04-29T11:57:39Z</time>
      </trkpt>
      <trkpt lat="59.552335" lon="17.7317023">
        <ele>21.4</ele>
        <time>2012-04-29T11:57:43Z</time>
      </trkpt>
      <trkpt lat="59.5520312" lon="17.7324518">
        <ele>18</ele>
        <time>2012-04-29T11:57:47Z</time>
      </trkpt>
      <trkpt lat="59.5517876" lon="17.7330044">
        <ele>16.4</ele>
        <time>2012-04-29T11:57:50Z</time>
      </trkpt>
      <trkpt lat="59.5515266" lon="17.7335335">
        <ele>14.8</ele>
        <time>2012-04-29T11:57:53Z</time>
      </trkpt>
      <trkpt lat="59.5512515" lon="17.7340441">
        <ele>13.8</ele>
        <time>2012-04-29T11:57:56Z</time>
      </trkpt>
      <trkpt lat="59.5509635" lon="17.7345265">
        <ele>13.2</ele>
        <time>2012-04-29T11:57:59Z</time>
      </trkpt>
      <trkpt lat="59.5506603" lon="17.734999">
        <ele>12.8</ele>
        <time>2012-04-29T11:58:02Z</time>
      </trkpt>
      <trkpt lat="59.5503658" lon="17.7354201">
        <ele>13</ele>
        <time>2012-04-29T11:58:05Z</time>
      </trkpt>
      <trkpt lat="59.5499874" lon="17.7359249">
        <ele>13.4</ele>
        <time>2012-04-29T11:58:09Z</time>
      </trkpt>
      <trkpt lat="59.5495958" lon="17.736394">
        <ele>14</ele>
        <time>2012-04-29T11:58:13Z</time>
      </trkpt>
      <trkpt lat="59.5492228" lon="17.7368148">
        <ele>14.4</ele>
        <time>2012-04-29T11:58:17Z</time>
      </trkpt>
      <trkpt lat="59.5488613" lon="17.7371605">
        <ele>15.2</ele>
        <time>2012-04-29T11:58:21Z</time>
      </trkpt>
      <trkpt lat="59.5484936" lon="17.7374644">
        <ele>16</ele>
        <time>2012-04-29T11:58:25Z</time>
      </trkpt>
      <trkpt lat="59.5481358" lon="17.7377253">
        <ele>16.8</ele>
        <time>2012-04-29T11:58:29Z</time>
      </trkpt>
      <trkpt lat="59.5477933" lon="17.7379504">
        <ele>18.2</ele>
        <time>2012-04-29T11:58:33Z</time>
      </trkpt>
      <trkpt lat="59.5473825" lon="17.7381829">
        <ele>20.4</ele>
        <time>2012-04-29T11:58:38Z</time>
      </trkpt>
      <trkpt lat="59.5470001" lon="17.7383644">
        <ele>22.6</ele>
        <time>2012-04-29T11:58:43Z</time>
      </trkpt>
      <trkpt lat="59.5466179" lon="17.7385047">
        <ele>25</ele>
        <time>2012-04-29T11:58:48Z</time>
      </trkpt>
      <trkpt lat="59.5462325" lon="17.7386404">
        <ele>28.8</ele>
        <time>2012-04-29T11:58:53Z</time>
      </trkpt>
      <trkpt lat="59.5458496" lon="17.7387884">
        <ele>30.2</ele>
        <time>2012-04-29T11:58:58Z</time>
      </trkpt>
      <trkpt lat="59.5454336" lon="17.7389477">
        <ele>30.4</ele>
        <time>2012-04-29T11:59:04Z</time>
      </trkpt>
      <trkpt lat="59.5450302" lon="17.7390781">
        <ele>31.8</ele>
        <time>2012-04-29T11:59:10Z</time>
      </trkpt>
      <trkpt lat="59.5446384" lon="17.7392103">
        <ele>33.6</ele>
        <time>2012-04-29T11:59:16Z</time>
      </trkpt>
      <trkpt lat="59.5442516" lon="17.739344">
        <ele>33.8</ele>
        <time>2012-04-29T11:59:22Z</time>
      </trkpt>
      <trkpt lat="59.5438657" lon="17.739486">
        <ele>34.4</ele>
        <time>2012-04-29T11:59:28Z</time>
      </trkpt>
      <trkpt lat="59.5434611" lon="17.7396351">
        <ele>35</ele>
        <time>2012-04-29T11:59:34Z</time>
      </trkpt>
      <trkpt lat="59.5431038" lon="17.7397625">
        <ele>35</ele>
        <time>2012-04-29T11:59:39Z</time>
      </trkpt>
      <trkpt lat="59.5429704" lon="17.7398092">
        <ele>34.6</ele>
        <time>2012-04-29T11:59:41Z</time>
      </trkpt>
      <trkpt lat="59.5428424" lon="17.7398631">
        <ele>34.8</ele>
        <time>2012-04-29T11:59:43Z</time>
      </trkpt>
      <trkpt lat="59.542711" lon="17.7399016">
        <ele>34.4</ele>
        <time>2012-04-29T11:59:45Z</time>
      </trkpt>
      <trkpt lat="59.5426459" lon="17.7399276">
        <ele>34.4</ele>
        <time>2012-04-29T11:59:46Z</time>
      </trkpt>
      <trkpt lat="59.5423859" lon="17.7400303">
        <ele>33.6</ele>
        <time>2012-04-29T11:59:50Z</time>
      </trkpt>
      <trkpt lat="59.5423203" lon="17.7400516">
        <ele>33.6</ele>
        <time>2012-04-29T11:59:51Z</time>
      </trkpt>
      <trkpt lat="59.54192" lon="17.7401964">
        <ele>33.6</ele>
        <time>2012-04-29T11:59:57Z</time>
      </trkpt>
      <trkpt lat="59.5415129" lon="17.7403547">
        <ele>35.8</ele>
        <time>2012-04-29T12:00:03Z</time>
      </trkpt>
      <trkpt lat="59.5411176" lon="17.7405482">
        <ele>37.6</ele>
        <time>2012-04-29T12:00:09Z</time>
      </trkpt>
      <trkpt lat="59.540738" lon="17.740744">
        <ele>41</ele>
        <time>2012-04-29T12:00:15Z</time>
      </trkpt>
      <trkpt lat="59.5403847" lon="17.7409485">
        <ele>44.2</ele>
        <time>2012-04-29T12:00:21Z</time>
      </trkpt>
      <trkpt lat="59.5400215" lon="17.7411891">
        <ele>42.2</ele>
        <time>2012-04-29T12:00:27Z</time>
      </trkpt>
      <trkpt lat="59.5396423" lon="17.7414819">
        <ele>40</ele>
        <time>2012-04-29T12:00:33Z</time>
      </trkpt>
      <trkpt lat="59.5392481" lon="17.7418238">
        <ele>39</ele>
        <time>2012-04-29T12:00:39Z</time>
      </trkpt>
      <trkpt lat="59.5388854" lon="17.7421346">
        <ele>38.4</ele>
        <time>2012-04-29T12:00:44Z</time>
      </trkpt>
      <trkpt lat="59.5384626" lon="17.7424945">
        <ele>34.2</ele>
        <time>2012-04-29T12:00:49Z</time>
      </trkpt>
      <trkpt lat="59.5380931" lon="17.7428251">
        <ele>31</ele>
        <time>2012-04-29T12:00:53Z</time>
      </trkpt>
      <trkpt lat="59.5377175" lon="17.7431775">
        <ele>28.4</ele>
        <time>2012-04-29T12:00:57Z</time>
      </trkpt>
      <trkpt lat="59.5373456" lon="17.7435707">
        <ele>26.6</ele>
        <time>2012-04-29T12:01:01Z</time>
      </trkpt>
      <trkpt lat="59.5369725" lon="17.7439777">
        <ele>25.2</ele>
        <time>2012-04-29T12:01:05Z</time>
      </trkpt>
      <trkpt lat="59.5366077" lon="17.7444013">
        <ele>24.6</ele>
        <time>2012-04-29T12:01:09Z</time>
      </trkpt>
      <trkpt lat="59.536237" lon="17.74483">
        <ele>24.2</ele>
        <time>2012-04-29T12:01:13Z</time>
      </trkpt>
      <trkpt lat="59.5358802" lon="17.7452394">
        <ele>23.2</ele>
        <time>2012-04-29T12:01:17Z</time>
      </trkpt>
      <trkpt lat="59.5355375" lon="17.7456347">
        <ele>23.2</ele>
        <time>2012-04-29T12:01:21Z</time>
      </trkpt>
      <trkpt lat="59.5352049" lon="17.7460159">
        <ele>23.6</ele>
        <time>2012-04-29T12:01:25Z</time>
      </trkpt>
      <trkpt lat="59.5348838" lon="17.7463884">
        <ele>24.6</ele>
        <time>2012-04-29T12:01:29Z</time>
      </trkpt>
      <trkpt lat="59.5344985" lon="17.746814">
        <ele>25.6</ele>
        <time>2012-04-29T12:01:34Z</time>
      </trkpt>
      <trkpt lat="59.5341319" lon="17.7471892">
        <ele>27.2</ele>
        <time>2012-04-29T12:01:39Z</time>
      </trkpt>
      <trkpt lat="59.5337688" lon="17.74754">
        <ele>28.6</ele>
        <time>2012-04-29T12:01:44Z</time>
      </trkpt>
      <trkpt lat="59.5334108" lon="17.74786">
        <ele>29.4</ele>
        <time>2012-04-29T12:01:49Z</time>
      </trkpt>
      <trkpt lat="59.5330512" lon="17.7481517">
        <ele>30.2</ele>
        <time>2012-04-29T12:01:54Z</time>
      </trkpt>
      <trkpt lat="59.5326923" lon="17.748434">
        <ele>30.6</ele>
        <time>2012-04-29T12:01:59Z</time>
      </trkpt>
      <trkpt lat="59.5323289" lon="17.7487026">
        <ele>30.8</ele>
        <time>2012-04-29T12:02:03Z</time>
      </trkpt>
      <trkpt lat="59.5319607" lon="17.74894">
        <ele>31</ele>
        <time>2012-04-29T12:02:09Z</time>
      </trkpt>
      <trkpt lat="59.5315889" lon="17.7491694">
        <ele>31.4</ele>
        <time>2012-04-29T12:02:14Z</time>
      </trkpt>
      <trkpt lat="59.5312115" lon="17.7493807">
        <ele>31.8</ele>
        <time>2012-04-29T12:02:19Z</time>
      </trkpt>
      <trkpt lat="59.5308275" lon="17.7495695">
        <ele>32.2</ele>
        <time>2012-04-29T12:02:24Z</time>
      </trkpt>
      <trkpt lat="59.5304373" lon="17.7497535">
        <ele>31.8</ele>
        <time>2012-04-29T12:02:29Z</time>
      </trkpt>
      <trkpt lat="59.5300408" lon="17.7499123">
        <ele>31.8</ele>
        <time>2012-04-29T12:02:34Z</time>
      </trkpt>
      <trkpt lat="59.5296338" lon="17.7500622">
        <ele>30.8</ele>
        <time>2012-04-29T12:02:39Z</time>
      </trkpt>
      <trkpt lat="59.5292229" lon="17.7501864">
        <ele>30.2</ele>
        <time>2012-04-29T12:02:44Z</time>
      </trkpt>
      <trkpt lat="59.5287979" lon="17.7503164">
        <ele>29</ele>
        <time>2012-04-29T12:02:49Z</time>
      </trkpt>
      <trkpt lat="59.5283498" lon="17.7504558">
        <ele>27</ele>
        <time>2012-04-29T12:02:54Z</time>
      </trkpt>
      <trkpt lat="59.5279861" lon="17.7505775">
        <ele>26.6</ele>
        <time>2012-04-29T12:02:58Z</time>
      </trkpt>
      <trkpt lat="59.5276231" lon="17.7507082">
        <ele>26.6</ele>
        <time>2012-04-29T12:03:02Z</time>
      </trkpt>
      <trkpt lat="59.5272576" lon="17.7508691">
        <ele>25.8</ele>
        <time>2012-04-29T12:03:06Z</time>
      </trkpt>
      <trkpt lat="59.526891" lon="17.7510471">
        <ele>24.8</ele>
        <time>2012-04-29T12:03:10Z</time>
      </trkpt>
      <trkpt lat="59.5265176" lon="17.7512556">
        <ele>24</ele>
        <time>2012-04-29T12:03:14Z</time>
      </trkpt>
      <trkpt lat="59.5261394" lon="17.7515007">
        <ele>22.4</ele>
        <time>2012-04-29T12:03:18Z</time>
      </trkpt>
      <trkpt lat="59.5257633" lon="17.7517726">
        <ele>21.2</ele>
        <time>2012-04-29T12:03:22Z</time>
      </trkpt>
      <trkpt lat="59.5253919" lon="17.7520781">
        <ele>20</ele>
        <time>2012-04-29T12:03:26Z</time>
      </trkpt>
      <trkpt lat="59.5250278" lon="17.7524127">
        <ele>18.8</ele>
        <time>2012-04-29T12:03:30Z</time>
      </trkpt>
      <trkpt lat="59.5246703" lon="17.7527671">
        <ele>18.2</ele>
        <time>2012-04-29T12:03:34Z</time>
      </trkpt>
      <trkpt lat="59.5243222" lon="17.7531467">
        <ele>17.8</ele>
        <time>2012-04-29T12:03:38Z</time>
      </trkpt>
      <trkpt lat="59.5239798" lon="17.7535411">
        <ele>17.4</ele>
        <time>2012-04-29T12:03:42Z</time>
      </trkpt>
      <trkpt lat="59.5236455" lon="17.7539441">
        <ele>17</ele>
        <time>2012-04-29T12:03:46Z</time>
      </trkpt>
      <trkpt lat="59.5233213" lon="17.7543389">
        <ele>16.4</ele>
        <time>2012-04-29T12:03:50Z</time>
      </trkpt>
      <trkpt lat="59.5230101" lon="17.7547183">
        <ele>16</ele>
        <time>2012-04-29T12:03:54Z</time>
      </trkpt>
      <trkpt lat="59.522703" lon="17.7550904">
        <ele>15.4</ele>
        <time>2012-04-29T12:03:57Z</time>
      </trkpt>
      <trkpt lat="59.5223874" lon="17.7554658">
        <ele>13.8</ele>
        <time>2012-04-29T12:04:02Z</time>
      </trkpt>
      <trkpt lat="59.522062" lon="17.7558182">
        <ele>12.4</ele>
        <time>2012-04-29T12:04:06Z</time>
      </trkpt>
      <trkpt lat="59.5217261" lon="17.75614">
        <ele>12.2</ele>
        <time>2012-04-29T12:04:09Z</time>
      </trkpt>
      <trkpt lat="59.5213856" lon="17.7564372">
        <ele>12.4</ele>
        <time>2012-04-29T12:04:14Z</time>
      </trkpt>
      <trkpt lat="59.5210425" lon="17.7566922">
        <ele>12.6</ele>
        <time>2012-04-29T12:04:18Z</time>
      </trkpt>
      <trkpt lat="59.5206952" lon="17.7569263">
        <ele>12.8</ele>
        <time>2012-04-29T12:04:22Z</time>
      </trkpt>
      <trkpt lat="59.5203507" lon="17.7571287">
        <ele>13</ele>
        <time>2012-04-29T12:04:26Z</time>
      </trkpt>
      <trkpt lat="59.5199268" lon="17.7573441">
        <ele>13.4</ele>
        <time>2012-04-29T12:04:31Z</time>
      </trkpt>
      <trkpt lat="59.5195052" lon="17.7575473">
        <ele>13.8</ele>
        <time>2012-04-29T12:04:36Z</time>
      </trkpt>
      <trkpt lat="59.5190871" lon="17.7577512">
        <ele>13.6</ele>
        <time>2012-04-29T12:04:41Z</time>
      </trkpt>
      <trkpt lat="59.5186708" lon="17.7579579">
        <ele>13.2</ele>
        <time>2012-04-29T12:04:46Z</time>
      </trkpt>
      <trkpt lat="59.5182619" lon="17.7581607">
        <ele>13</ele>
        <time>2012-04-29T12:04:51Z</time>
      </trkpt>
      <trkpt lat="59.5178557" lon="17.7583561">
        <ele>13.4</ele>
        <time>2012-04-29T12:04:56Z</time>
      </trkpt>
      <trkpt lat="59.5174528" lon="17.7585516">
        <ele>13.8</ele>
        <time>2012-04-29T12:05:01Z</time>
      </trkpt>
      <trkpt lat="59.5170551" lon="17.7587435">
        <ele>14.2</ele>
        <time>2012-04-29T12:05:06Z</time>
      </trkpt>
      <trkpt lat="59.5166527" lon="17.7589342">
        <ele>14.8</ele>
        <time>2012-04-29T12:05:11Z</time>
      </trkpt>
      <trkpt lat="59.5162542" lon="17.7591328">
        <ele>15.4</ele>
        <time>2012-04-29T12:05:16Z</time>
      </trkpt>
      <trkpt lat="59.5158714" lon="17.7593142">
        <ele>16.6</ele>
        <time>2012-04-29T12:05:21Z</time>
      </trkpt>
      <trkpt lat="59.5154933" lon="17.7595123">
        <ele>17.8</ele>
        <time>2012-04-29T12:05:26Z</time>
      </trkpt>
      <trkpt lat="59.5151239" lon="17.7596989">
        <ele>19.4</ele>
        <time>2012-04-29T12:05:31Z</time>
      </trkpt>
      <trkpt lat="59.5147756" lon="17.7598597">
        <ele>21.2</ele>
        <time>2012-04-29T12:05:36Z</time>
      </trkpt>
      <trkpt lat="59.5145059" lon="17.7599856">
        <ele>22</ele>
        <time>2012-04-29T12:05:40Z</time>
      </trkpt>
      <trkpt lat="59.5143852" lon="17.7599463">
        <ele>22.4</ele>
        <time>2012-04-29T12:05:42Z</time>
      </trkpt>
      <trkpt lat="59.5142691" lon="17.7595335">
        <ele>25.2</ele>
        <time>2012-04-29T12:05:46Z</time>
      </trkpt>
      <trkpt lat="59.5142291" lon="17.7592894">
        <ele>26.4</ele>
        <time>2012-04-29T12:05:48Z</time>
      </trkpt>
      <trkpt lat="59.5141086" lon="17.7585393">
        <ele>29.4</ele>
        <time>2012-04-29T12:05:54Z</time>
      </trkpt>
      <trkpt lat="59.5139509" lon="17.7577944">
        <ele>27.6</ele>
        <time>2012-04-29T12:06:00Z</time>
      </trkpt>
      <trkpt lat="59.5137875" lon="17.7570821">
        <ele>27.2</ele>
        <time>2012-04-29T12:06:06Z</time>
      </trkpt>
      <trkpt lat="59.5135993" lon="17.7563906">
        <ele>29.4</ele>
        <time>2012-04-29T12:06:12Z</time>
      </trkpt>
      <trkpt lat="59.5135683" lon="17.7562858">
        <ele>30.4</ele>
        <time>2012-04-29T12:06:13Z</time>
      </trkpt>
      <trkpt lat="59.5134161" lon="17.755775">
        <ele>34.6</ele>
        <time>2012-04-29T12:06:18Z</time>
      </trkpt>
      <trkpt lat="59.5132389" lon="17.7551421">
        <ele>40.2</ele>
        <time>2012-04-29T12:06:24Z</time>
      </trkpt>
      <trkpt lat="59.5130144" lon="17.7544967">
        <ele>42.2</ele>
        <time>2012-04-29T12:06:30Z</time>
      </trkpt>
      <trkpt lat="59.512859" lon="17.7540728">
        <ele>43.6</ele>
        <time>2012-04-29T12:06:34Z</time>
      </trkpt>
      <trkpt lat="59.5127784" lon="17.7538805">
        <ele>43.4</ele>
        <time>2012-04-29T12:06:36Z</time>
      </trkpt>
      <trkpt lat="59.5126617" lon="17.7535773">
        <ele>43.4</ele>
        <time>2012-04-29T12:06:39Z</time>
      </trkpt>
      <trkpt lat="59.512534" lon="17.7532894">
        <ele>44</ele>
        <time>2012-04-29T12:06:42Z</time>
      </trkpt>
      <trkpt lat="59.5122711" lon="17.7527165">
        <ele>42.4</ele>
        <time>2012-04-29T12:06:48Z</time>
      </trkpt>
      <trkpt lat="59.5120506" lon="17.7523097">
        <ele>41</ele>
        <time>2012-04-29T12:06:51Z</time>
      </trkpt>
      <trkpt lat="59.5119993" lon="17.7522016">
        <ele>41</ele>
        <time>2012-04-29T12:06:53Z</time>
      </trkpt>
      <trkpt lat="59.5117308" lon="17.7516793">
        <ele>42</ele>
        <time>2012-04-29T12:06:59Z</time>
      </trkpt>
      <trkpt lat="59.5114538" lon="17.7511614">
        <ele>41.4</ele>
        <time>2012-04-29T12:07:05Z</time>
      </trkpt>
      <trkpt lat="59.5111249" lon="17.7506279">
        <ele>43</ele>
        <time>2012-04-29T12:07:11Z</time>
      </trkpt>
      <trkpt lat="59.510818" lon="17.7501749">
        <ele>43.6</ele>
        <time>2012-04-29T12:07:16Z</time>
      </trkpt>
      <trkpt lat="59.5104857" lon="17.7497459">
        <ele>44.2</ele>
        <time>2012-04-29T12:07:21Z</time>
      </trkpt>
      <trkpt lat="59.5101519" lon="17.7493543">
        <ele>43.6</ele>
        <time>2012-04-29T12:07:26Z</time>
      </trkpt>
      <trkpt lat="59.509817" lon="17.7489752">
        <ele>43</ele>
        <time>2012-04-29T12:07:31Z</time>
      </trkpt>
      <trkpt lat="59.5094718" lon="17.7486332">
        <ele>43</ele>
        <time>2012-04-29T12:07:36Z</time>
      </trkpt>
      <trkpt lat="59.5091144" lon="17.7483247">
        <ele>43.2</ele>
        <time>2012-04-29T12:07:41Z</time>
      </trkpt>
      <trkpt lat="59.5087467" lon="17.7480337">
        <ele>43.2</ele>
        <time>2012-04-29T12:07:46Z</time>
      </trkpt>
      <trkpt lat="59.5083616" lon="17.7477824">
        <ele>43.4</ele>
        <time>2012-04-29T12:07:51Z</time>
      </trkpt>
      <trkpt lat="59.5079674" lon="17.7475556">
        <ele>43.2</ele>
        <time>2012-04-29T12:07:56Z</time>
      </trkpt>
      <trkpt lat="59.5075781" lon="17.747409">
        <ele>42.8</ele>
        <time>2012-04-29T12:08:01Z</time>
      </trkpt>
      <trkpt lat="59.5071635" lon="17.7472846">
        <ele>42.8</ele>
        <time>2012-04-29T12:08:07Z</time>
      </trkpt>
      <trkpt lat="59.5070994" lon="17.7472793">
        <ele>42.8</ele>
        <time>2012-04-29T12:08:08Z</time>
      </trkpt>
      <trkpt lat="59.5069699" lon="17.7478595">
        <ele>41.8</ele>
        <time>2012-04-29T12:08:13Z</time>
      </trkpt>
      <trkpt lat="59.5069009" lon="17.7486469">
        <ele>39</ele>
        <time>2012-04-29T12:08:18Z</time>
      </trkpt>
      <trkpt lat="59.5068725" lon="17.7489416">
        <ele>37.6</ele>
        <time>2012-04-29T12:08:20Z</time>
      </trkpt>
      <trkpt lat="59.5068373" lon="17.7493652">
        <ele>36.4</ele>
        <time>2012-04-29T12:08:23Z</time>
      </trkpt>
      <trkpt lat="59.5067041" lon="17.7501564">
        <ele>34.4</ele>
        <time>2012-04-29T12:08:29Z</time>
      </trkpt>
      <trkpt lat="59.5065772" lon="17.7508351">
        <ele>34</ele>
        <time>2012-04-29T12:08:34Z</time>
      </trkpt>
      <trkpt lat="59.5064207" lon="17.7515037">
        <ele>32.6</ele>
        <time>2012-04-29T12:08:39Z</time>
      </trkpt>
      <trkpt lat="59.5062451" lon="17.7522061">
        <ele>31.4</ele>
        <time>2012-04-29T12:08:44Z</time>
      </trkpt>
      <trkpt lat="59.5060825" lon="17.7528448">
        <ele>31.6</ele>
        <time>2012-04-29T12:08:49Z</time>
      </trkpt>
      <trkpt lat="59.5058837" lon="17.7535614">
        <ele>31.6</ele>
        <time>2012-04-29T12:08:55Z</time>
      </trkpt>
      <trkpt lat="59.5057136" lon="17.7541879">
        <ele>31.2</ele>
        <time>2012-04-29T12:09:00Z</time>
      </trkpt>
      <trkpt lat="59.5055263" lon="17.7547875">
        <ele>30.8</ele>
        <time>2012-04-29T12:09:05Z</time>
      </trkpt>
      <trkpt lat="59.505468" lon="17.7549961">
        <ele>30.4</ele>
        <time>2012-04-29T12:09:07Z</time>
      </trkpt>
      <trkpt lat="59.505287" lon="17.7553519">
        <ele>29.2</ele>
        <time>2012-04-29T12:09:12Z</time>
      </trkpt>
      <trkpt lat="59.5050313" lon="17.7557864">
        <ele>28.4</ele>
        <time>2012-04-29T12:09:17Z</time>
      </trkpt>
      <trkpt lat="59.5048091" lon="17.7559844">
        <ele>26.4</ele>
        <time>2012-04-29T12:09:21Z</time>
      </trkpt>
      <trkpt lat="59.5047022" lon="17.7561213">
        <ele>25.4</ele>
        <time>2012-04-29T12:09:23Z</time>
      </trkpt>
      <trkpt lat="59.5044501" lon="17.7562">
        <ele>22.8</ele>
        <time>2012-04-29T12:09:26Z</time>
      </trkpt>
      <trkpt lat="59.5042694" lon="17.7561957">
        <ele>22.2</ele>
        <time>2012-04-29T12:09:28Z</time>
      </trkpt>
      <trkpt lat="59.5038686" lon="17.7562098">
        <ele>22.8</ele>
        <time>2012-04-29T12:09:32Z</time>
      </trkpt>
      <trkpt lat="59.5034887" lon="17.7561648">
        <ele>23.6</ele>
        <time>2012-04-29T12:09:36Z</time>
      </trkpt>
      <trkpt lat="59.5031147" lon="17.7560518">
        <ele>23.4</ele>
        <time>2012-04-29T12:09:40Z</time>
      </trkpt>
      <trkpt lat="59.5029398" lon="17.7560021">
        <ele>24</ele>
        <time>2012-04-29T12:09:42Z</time>
      </trkpt>
      <trkpt lat="59.5027343" lon="17.756227">
        <ele>22.2</ele>
        <time>2012-04-29T12:09:45Z</time>
      </trkpt>
      <trkpt lat="59.5025934" lon="17.7567841">
        <ele>19.4</ele>
        <time>2012-04-29T12:09:48Z</time>
      </trkpt>
      <trkpt lat="59.5025457" lon="17.7569724">
        <ele>18.8</ele>
        <time>2012-04-29T12:09:49Z</time>
      </trkpt>
      <trkpt lat="59.5023892" lon="17.7574753">
        <ele>18.6</ele>
        <time>2012-04-29T12:09:52Z</time>
      </trkpt>
      <trkpt lat="59.5023144" lon="17.7575961">
        <ele>18.6</ele>
        <time>2012-04-29T12:09:53Z</time>
      </trkpt>
      <trkpt lat="59.5019743" lon="17.7578209">
        <ele>18.6</ele>
        <time>2012-04-29T12:09:57Z</time>
      </trkpt>
      <trkpt lat="59.5018863" lon="17.7578429">
        <ele>18.2</ele>
        <time>2012-04-29T12:09:58Z</time>
      </trkpt>
      <trkpt lat="59.5016078" lon="17.75791">
        <ele>17.4</ele>
        <time>2012-04-29T12:10:01Z</time>
      </trkpt>
      <trkpt lat="59.5014158" lon="17.7579457">
        <ele>17</ele>
        <time>2012-04-29T12:10:03Z</time>
      </trkpt>
      <trkpt lat="59.5012243" lon="17.7578871">
        <ele>16.4</ele>
        <time>2012-04-29T12:10:05Z</time>
      </trkpt>
      <trkpt lat="59.5008729" lon="17.7576727">
        <ele>16</ele>
        <time>2012-04-29T12:10:09Z</time>
      </trkpt>
      <trkpt lat="59.5004628" lon="17.7574127">
        <ele>16</ele>
        <time>2012-04-29T12:10:14Z</time>
      </trkpt>
      <trkpt lat="59.5002104" lon="17.7569899">
        <ele>16.8</ele>
        <time>2012-04-29T12:10:18Z</time>
      </trkpt>
      <trkpt lat="59.5001327" lon="17.7569234">
        <ele>17</ele>
        <time>2012-04-29T12:10:19Z</time>
      </trkpt>
      <trkpt lat="59.4998872" lon="17.7568195">
        <ele>17.6</ele>
        <time>2012-04-29T12:10:22Z</time>
      </trkpt>
      <trkpt lat="59.499723" lon="17.7568518">
        <ele>16.8</ele>
        <time>2012-04-29T12:10:24Z</time>
      </trkpt>
      <trkpt lat="59.4993101" lon="17.7569841">
        <ele>15.2</ele>
        <time>2012-04-29T12:10:29Z</time>
      </trkpt>
      <trkpt lat="59.4992279" lon="17.7569749">
        <ele>15.2</ele>
        <time>2012-04-29T12:10:30Z</time>
      </trkpt>
      <trkpt lat="59.4989002" lon="17.7568739">
        <ele>14.2</ele>
        <time>2012-04-29T12:10:34Z</time>
      </trkpt>
      <trkpt lat="59.4988207" lon="17.7568247">
        <ele>14</ele>
        <time>2012-04-29T12:10:35Z</time>
      </trkpt>
      <trkpt lat="59.4985247" lon="17.7565341">
        <ele>13.6</ele>
        <time>2012-04-29T12:10:39Z</time>
      </trkpt>
      <trkpt lat="59.498184" lon="17.7560604">
        <ele>17.6</ele>
        <time>2012-04-29T12:10:44Z</time>
      </trkpt>
      <trkpt lat="59.4980425" lon="17.7558872">
        <ele>18.8</ele>
        <time>2012-04-29T12:10:46Z</time>
      </trkpt>
      <trkpt lat="59.4978158" lon="17.7556745">
        <ele>19.4</ele>
        <time>2012-04-29T12:10:49Z</time>
      </trkpt>
      <trkpt lat="59.4974244" lon="17.7553567">
        <ele>20.4</ele>
        <time>2012-04-29T12:10:54Z</time>
      </trkpt>
      <trkpt lat="59.4970226" lon="17.7550605">
        <ele>21</ele>
        <time>2012-04-29T12:10:59Z</time>
      </trkpt>
      <trkpt lat="59.4966331" lon="17.7548009">
        <ele>21.8</ele>
        <time>2012-04-29T12:11:04Z</time>
      </trkpt>
      <trkpt lat="59.4962522" lon="17.7546645">
        <ele>20.8</ele>
        <time>2012-04-29T12:11:09Z</time>
      </trkpt>
      <trkpt lat="59.4958782" lon="17.7545214">
        <ele>20</ele>
        <time>2012-04-29T12:11:14Z</time>
      </trkpt>
      <trkpt lat="59.4955146" lon="17.7543842">
        <ele>20.2</ele>
        <time>2012-04-29T12:11:19Z</time>
      </trkpt>
      <trkpt lat="59.4951329" lon="17.7541928">
        <ele>21.2</ele>
        <time>2012-04-29T12:11:24Z</time>
      </trkpt>
      <trkpt lat="59.4947832" lon="17.7540039">
        <ele>22.2</ele>
        <time>2012-04-29T12:11:29Z</time>
      </trkpt>
      <trkpt lat="59.4944793" lon="17.7535139">
        <ele>21.4</ele>
        <time>2012-04-29T12:11:34Z</time>
      </trkpt>
      <trkpt lat="59.4943323" lon="17.7528184">
        <ele>19.6</ele>
        <time>2012-04-29T12:11:39Z</time>
      </trkpt>
      <trkpt lat="59.4943252" lon="17.7526683">
        <ele>19.8</ele>
        <time>2012-04-29T12:11:40Z</time>
      </trkpt>
      <trkpt lat="59.4942927" lon="17.752027">
        <ele>20.2</ele>
        <time>2012-04-29T12:11:44Z</time>
      </trkpt>
      <trkpt lat="59.4942372" lon="17.7512685">
        <ele>21.2</ele>
        <time>2012-04-29T12:11:49Z</time>
      </trkpt>
      <trkpt lat="59.4939756" lon="17.7508722">
        <ele>21.4</ele>
        <time>2012-04-29T12:11:53Z</time>
      </trkpt>
      <trkpt lat="59.4938973" lon="17.750799">
        <ele>21.4</ele>
        <time>2012-04-29T12:11:54Z</time>
      </trkpt>
      <trkpt lat="59.4935219" lon="17.7504153">
        <ele>21.4</ele>
        <time>2012-04-29T12:11:59Z</time>
      </trkpt>
      <trkpt lat="59.4931536" lon="17.7500243">
        <ele>22.8</ele>
        <time>2012-04-29T12:12:04Z</time>
      </trkpt>
      <trkpt lat="59.4927819" lon="17.7496319">
        <ele>24</ele>
        <time>2012-04-29T12:12:09Z</time>
      </trkpt>
      <trkpt lat="59.492403" lon="17.7492654">
        <ele>24.6</ele>
        <time>2012-04-29T12:12:14Z</time>
      </trkpt>
      <trkpt lat="59.4920192" lon="17.7489261">
        <ele>23.8</ele>
        <time>2012-04-29T12:12:19Z</time>
      </trkpt>
      <trkpt lat="59.4917848" lon="17.7487447">
        <ele>22</ele>
        <time>2012-04-29T12:12:22Z</time>
      </trkpt>
      <trkpt lat="59.4916239" lon="17.7486359">
        <ele>22</ele>
        <time>2012-04-29T12:12:24Z</time>
      </trkpt>
      <trkpt lat="59.4914669" lon="17.7484893">
        <ele>21.8</ele>
        <time>2012-04-29T12:12:26Z</time>
      </trkpt>
      <trkpt lat="59.4912214" lon="17.7483354">
        <ele>21.6</ele>
        <time>2012-04-29T12:12:29Z</time>
      </trkpt>
      <trkpt lat="59.4910665" lon="17.7482589">
        <ele>21.2</ele>
        <time>2012-04-29T12:12:31Z</time>
      </trkpt>
      <trkpt lat="59.4908606" lon="17.7481055">
        <ele>20.2</ele>
        <time>2012-04-29T12:12:33Z</time>
      </trkpt>
      <trkpt lat="59.4904685" lon="17.7478289">
        <ele>19.4</ele>
        <time>2012-04-29T12:12:40Z</time>
      </trkpt>
      <trkpt lat="59.4901161" lon="17.7476207">
        <ele>18</ele>
        <time>2012-04-29T12:12:45Z</time>
      </trkpt>
      <trkpt lat="59.489717" lon="17.747316">
        <ele>18.2</ele>
        <time>2012-04-29T12:12:51Z</time>
      </trkpt>
      <trkpt lat="59.4893877" lon="17.7470213">
        <ele>18.4</ele>
        <time>2012-04-29T12:12:56Z</time>
      </trkpt>
      <trkpt lat="59.4890312" lon="17.7467">
        <ele>19</ele>
        <time>2012-04-29T12:13:01Z</time>
      </trkpt>
      <trkpt lat="59.4886656" lon="17.7463778">
        <ele>19.6</ele>
        <time>2012-04-29T12:13:06Z</time>
      </trkpt>
      <trkpt lat="59.4883033" lon="17.7460194">
        <ele>20</ele>
        <time>2012-04-29T12:13:11Z</time>
      </trkpt>
      <trkpt lat="59.4880708" lon="17.7458122">
        <ele>21</ele>
        <time>2012-04-29T12:13:15Z</time>
      </trkpt>
      <trkpt lat="59.4879755" lon="17.7460036">
        <ele>23</ele>
        <time>2012-04-29T12:13:18Z</time>
      </trkpt>
      <trkpt lat="59.4879503" lon="17.7462131">
        <ele>23.8</ele>
        <time>2012-04-29T12:13:20Z</time>
      </trkpt>
      <trkpt lat="59.4878845" lon="17.746754">
        <ele>26</ele>
        <time>2012-04-29T12:13:25Z</time>
      </trkpt>
      <trkpt lat="59.487785" lon="17.7474542">
        <ele>26</ele>
        <time>2012-04-29T12:13:31Z</time>
      </trkpt>
      <trkpt lat="59.4876642" lon="17.7482371">
        <ele>23.6</ele>
        <time>2012-04-29T12:13:37Z</time>
      </trkpt>
      <trkpt lat="59.4875666" lon="17.7489837">
        <ele>22.2</ele>
        <time>2012-04-29T12:13:43Z</time>
      </trkpt>
      <trkpt lat="59.487498" lon="17.7496951">
        <ele>22.8</ele>
        <time>2012-04-29T12:13:49Z</time>
      </trkpt>
      <trkpt lat="59.4874657" lon="17.7504506">
        <ele>24.2</ele>
        <time>2012-04-29T12:13:55Z</time>
      </trkpt>
      <trkpt lat="59.4874678" lon="17.750573">
        <ele>24.6</ele>
        <time>2012-04-29T12:13:56Z</time>
      </trkpt>
      <trkpt lat="59.487601" lon="17.7510733">
        <ele>26.8</ele>
        <time>2012-04-29T12:14:01Z</time>
      </trkpt>
      <trkpt lat="59.4876231" lon="17.7511524">
        <ele>27.6</ele>
        <time>2012-04-29T12:14:02Z</time>
      </trkpt>
      <trkpt lat="59.4876362" lon="17.7514764">
        <ele>30</ele>
        <time>2012-04-29T12:14:06Z</time>
      </trkpt>
      <trkpt lat="59.4876223" lon="17.7515555">
        <ele>30</ele>
        <time>2012-04-29T12:14:07Z</time>
      </trkpt>
      <trkpt lat="59.487578" lon="17.7517268">
        <ele>29.8</ele>
        <time>2012-04-29T12:14:09Z</time>
      </trkpt>
      <trkpt lat="59.4874078" lon="17.7524204">
        <ele>29.6</ele>
        <time>2012-04-29T12:14:17Z</time>
      </trkpt>
      <trkpt lat="59.4873177" lon="17.7527846">
        <ele>30.6</ele>
        <time>2012-04-29T12:14:22Z</time>
      </trkpt>
      <trkpt lat="59.4872139" lon="17.7530706">
        <ele>30.6</ele>
        <time>2012-04-29T12:14:26Z</time>
      </trkpt>
      <trkpt lat="59.4869706" lon="17.7536721">
        <ele>29.4</ele>
        <time>2012-04-29T12:14:35Z</time>
      </trkpt>
      <trkpt lat="59.4866816" lon="17.7540641">
        <ele>29.2</ele>
        <time>2012-04-29T12:14:43Z</time>
      </trkpt>
      <trkpt lat="59.4866338" lon="17.7540974">
        <ele>29.2</ele>
        <time>2012-04-29T12:14:44Z</time>
      </trkpt>
      <trkpt lat="59.4862716" lon="17.754315">
        <ele>30.4</ele>
        <time>2012-04-29T12:14:51Z</time>
      </trkpt>
      <trkpt lat="59.4859371" lon="17.7545194">
        <ele>33.6</ele>
        <time>2012-04-29T12:14:58Z</time>
      </trkpt>
      <trkpt lat="59.4858984" lon="17.7545629">
        <ele>33.8</ele>
        <time>2012-04-29T12:14:59Z</time>
      </trkpt>
      <trkpt lat="59.4858227" lon="17.7548802">
        <ele>34.8</ele>
        <time>2012-04-29T12:15:03Z</time>
      </trkpt>
      <trkpt lat="59.4857761" lon="17.7552484">
        <ele>36.8</ele>
        <time>2012-04-29T12:15:07Z</time>
      </trkpt>
      <trkpt lat="59.4857206" lon="17.7555038">
        <ele>36.6</ele>
        <time>2012-04-29T12:15:10Z</time>
      </trkpt>
      <trkpt lat="59.4856728" lon="17.7556533">
        <ele>36.6</ele>
        <time>2012-04-29T12:15:12Z</time>
      </trkpt>
      <trkpt lat="59.4855414" lon="17.755772">
        <ele>37.6</ele>
        <time>2012-04-29T12:15:15Z</time>
      </trkpt>
      <trkpt lat="59.485489" lon="17.7557852">
        <ele>38.2</ele>
        <time>2012-04-29T12:15:16Z</time>
      </trkpt>
      <trkpt lat="59.4851493" lon="17.7558975">
        <ele>38.6</ele>
        <time>2012-04-29T12:15:22Z</time>
      </trkpt>
      <trkpt lat="59.4847763" lon="17.7560359">
        <ele>37.6</ele>
        <time>2012-04-29T12:15:28Z</time>
      </trkpt>
      <trkpt lat="59.4843785" lon="17.7561713">
        <ele>36.4</ele>
        <time>2012-04-29T12:15:34Z</time>
      </trkpt>
      <trkpt lat="59.4839843" lon="17.7562725">
        <ele>39.2</ele>
        <time>2012-04-29T12:15:40Z</time>
      </trkpt>
      <trkpt lat="59.4836156" lon="17.756386">
        <ele>37.8</ele>
        <time>2012-04-29T12:15:45Z</time>
      </trkpt>
      <trkpt lat="59.4831891" lon="17.7565697">
        <ele>36.2</ele>
        <time>2012-04-29T12:15:50Z</time>
      </trkpt>
      <trkpt lat="59.4828312" lon="17.756786">
        <ele>34.6</ele>
        <time>2012-04-29T12:15:54Z</time>
      </trkpt>
      <trkpt lat="59.4824582" lon="17.7570556">
        <ele>32.4</ele>
        <time>2012-04-29T12:15:58Z</time>
      </trkpt>
      <trkpt lat="59.482046" lon="17.7572376">
        <ele>29.6</ele>
        <time>2012-04-29T12:16:02Z</time>
      </trkpt>
      <trkpt lat="59.4816345" lon="17.757291">
        <ele>28.4</ele>
        <time>2012-04-29T12:16:06Z</time>
      </trkpt>
      <trkpt lat="59.4812324" lon="17.7572438">
        <ele>26.8</ele>
        <time>2012-04-29T12:16:10Z</time>
      </trkpt>
      <trkpt lat="59.4808558" lon="17.7571996">
        <ele>26.4</ele>
        <time>2012-04-29T12:16:14Z</time>
      </trkpt>
      <trkpt lat="59.4806057" lon="17.7573731">
        <ele>25.8</ele>
        <time>2012-04-29T12:16:18Z</time>
      </trkpt>
      <trkpt lat="59.4805782" lon="17.7573988">
        <ele>25.6</ele>
        <time>2012-04-29T12:16:19Z</time>
      </trkpt>
      <trkpt lat="59.4805057" lon="17.7574566">
        <ele>25.6</ele>
        <time>2012-04-29T12:16:22Z</time>
      </trkpt>
      <trkpt lat="59.480488" lon="17.7575111">
        <ele>25.4</ele>
        <time>2012-04-29T12:16:23Z</time>
      </trkpt>
      <trkpt lat="59.4805981" lon="17.7578702">
        <ele>24.6</ele>
        <time>2012-04-29T12:16:28Z</time>
      </trkpt>
      <trkpt lat="59.4807027" lon="17.7580952">
        <ele>24.4</ele>
        <time>2012-04-29T12:16:31Z</time>
      </trkpt>
      <trkpt lat="59.4809533" lon="17.7586782">
        <ele>24.4</ele>
        <time>2012-04-29T12:16:38Z</time>
      </trkpt>
      <trkpt lat="59.4812775" lon="17.759224">
        <ele>21.4</ele>
        <time>2012-04-29T12:16:44Z</time>
      </trkpt>
      <trkpt lat="59.4816631" lon="17.7596102">
        <ele>18.4</ele>
        <time>2012-04-29T12:16:49Z</time>
      </trkpt>
      <trkpt lat="59.4820222" lon="17.7598098">
        <ele>15</ele>
        <time>2012-04-29T12:16:53Z</time>
      </trkpt>
      <trkpt lat="59.4823879" lon="17.7599597">
        <ele>12.2</ele>
        <time>2012-04-29T12:16:57Z</time>
      </trkpt>
      <trkpt lat="59.4826569" lon="17.7600781">
        <ele>11.2</ele>
        <time>2012-04-29T12:17:00Z</time>
      </trkpt>
      <trkpt lat="59.4827399" lon="17.7601431">
        <ele>11</ele>
        <time>2012-04-29T12:17:01Z</time>
      </trkpt>
      <trkpt lat="59.4831092" lon="17.7606355">
        <ele>10</ele>
        <time>2012-04-29T12:17:06Z</time>
      </trkpt>
      <trkpt lat="59.4833828" lon="17.7613054">
        <ele>9</ele>
        <time>2012-04-29T12:17:11Z</time>
      </trkpt>
      <trkpt lat="59.4835532" lon="17.7620466">
        <ele>9.4</ele>
        <time>2012-04-29T12:17:16Z</time>
      </trkpt>
      <trkpt lat="59.4836038" lon="17.7624804">
        <ele>10.8</ele>
        <time>2012-04-29T12:17:19Z</time>
      </trkpt>
      <trkpt lat="59.4836077" lon="17.7627611">
        <ele>11.4</ele>
        <time>2012-04-29T12:17:21Z</time>
      </trkpt>
      <trkpt lat="59.4835743" lon="17.763161">
        <ele>11.8</ele>
        <time>2012-04-29T12:17:24Z</time>
      </trkpt>
      <trkpt lat="59.4835185" lon="17.7635371">
        <ele>11.4</ele>
        <time>2012-04-29T12:17:27Z</time>
      </trkpt>
      <trkpt lat="59.4833901" lon="17.7642882">
        <ele>11.8</ele>
        <time>2012-04-29T12:17:34Z</time>
      </trkpt>
      <trkpt lat="59.4833019" lon="17.764993">
        <ele>12.2</ele>
        <time>2012-04-29T12:17:41Z</time>
      </trkpt>
      <trkpt lat="59.4832465" lon="17.7654831">
        <ele>13.2</ele>
        <time>2012-04-29T12:17:46Z</time>
      </trkpt>
      <trkpt lat="59.4832078" lon="17.7657727">
        <ele>14.2</ele>
        <time>2012-04-29T12:17:49Z</time>
      </trkpt>
      <trkpt lat="59.4831099" lon="17.7665192">
        <ele>16.2</ele>
        <time>2012-04-29T12:17:57Z</time>
      </trkpt>
      <trkpt lat="59.4830045" lon="17.7672945">
        <ele>19</ele>
        <time>2012-04-29T12:18:05Z</time>
      </trkpt>
      <trkpt lat="59.4829085" lon="17.7680513">
        <ele>21.4</ele>
        <time>2012-04-29T12:18:13Z</time>
      </trkpt>
      <trkpt lat="59.482815" lon="17.768768">
        <ele>23.4</ele>
        <time>2012-04-29T12:18:21Z</time>
      </trkpt>
      <trkpt lat="59.4827077" lon="17.7695609">
        <ele>24.6</ele>
        <time>2012-04-29T12:18:29Z</time>
      </trkpt>
      <trkpt lat="59.4826156" lon="17.7703479">
        <ele>25</ele>
        <time>2012-04-29T12:18:36Z</time>
      </trkpt>
      <trkpt lat="59.4825261" lon="17.7711218">
        <ele>26.2</ele>
        <time>2012-04-29T12:18:43Z</time>
      </trkpt>
      <trkpt lat="59.4824297" lon="17.7719019">
        <ele>26.2</ele>
        <time>2012-04-29T12:18:50Z</time>
      </trkpt>
      <trkpt lat="59.482324" lon="17.772688">
        <ele>26.8</ele>
        <time>2012-04-29T12:18:57Z</time>
      </trkpt>
      <trkpt lat="59.4823147" lon="17.772795">
        <ele>27.2</ele>
        <time>2012-04-29T12:18:58Z</time>
      </trkpt>
      <trkpt lat="59.4822413" lon="17.7734005">
        <ele>27.8</ele>
        <time>2012-04-29T12:19:04Z</time>
      </trkpt>
      <trkpt lat="59.4821504" lon="17.7741635">
        <ele>27.4</ele>
        <time>2012-04-29T12:19:11Z</time>
      </trkpt>
      <trkpt lat="59.48205" lon="17.7749678">
        <ele>27.4</ele>
        <time>2012-04-29T12:19:18Z</time>
      </trkpt>
      <trkpt lat="59.4819556" lon="17.7757156">
        <ele>26</ele>
        <time>2012-04-29T12:19:24Z</time>
      </trkpt>
      <trkpt lat="59.481844" lon="17.7764248">
        <ele>24.8</ele>
        <time>2012-04-29T12:19:29Z</time>
      </trkpt>
      <trkpt lat="59.4816842" lon="17.7771888">
        <ele>23.2</ele>
        <time>2012-04-29T12:19:34Z</time>
      </trkpt>
      <trkpt lat="59.4814937" lon="17.7779734">
        <ele>21.8</ele>
        <time>2012-04-29T12:19:39Z</time>
      </trkpt>
      <trkpt lat="59.4813322" lon="17.7786387">
        <ele>20.4</ele>
        <time>2012-04-29T12:19:43Z</time>
      </trkpt>
      <trkpt lat="59.4811654" lon="17.7793214">
        <ele>19.6</ele>
        <time>2012-04-29T12:19:47Z</time>
      </trkpt>
      <trkpt lat="59.4809954" lon="17.780018">
        <ele>18.6</ele>
        <time>2012-04-29T12:19:51Z</time>
      </trkpt>
      <trkpt lat="59.4808253" lon="17.7807386">
        <ele>18</ele>
        <time>2012-04-29T12:19:55Z</time>
      </trkpt>
      <trkpt lat="59.4806455" lon="17.7814405">
        <ele>18</ele>
        <time>2012-04-29T12:19:59Z</time>
      </trkpt>
      <trkpt lat="59.4804723" lon="17.7820925">
        <ele>16.6</ele>
        <time>2012-04-29T12:20:03Z</time>
      </trkpt>
      <trkpt lat="59.4802862" lon="17.7827294">
        <ele>16.4</ele>
        <time>2012-04-29T12:20:07Z</time>
      </trkpt>
      <trkpt lat="59.4800358" lon="17.7834319">
        <ele>15.4</ele>
        <time>2012-04-29T12:20:12Z</time>
      </trkpt>
      <trkpt lat="59.4797504" lon="17.7840597">
        <ele>15.2</ele>
        <time>2012-04-29T12:20:17Z</time>
      </trkpt>
      <trkpt lat="59.4794392" lon="17.7845942">
        <ele>14.8</ele>
        <time>2012-04-29T12:20:22Z</time>
      </trkpt>
      <trkpt lat="59.4791461" lon="17.7849884">
        <ele>15</ele>
        <time>2012-04-29T12:20:26Z</time>
      </trkpt>
      <trkpt lat="59.4788119" lon="17.7853381">
        <ele>15.4</ele>
        <time>2012-04-29T12:20:30Z</time>
      </trkpt>
      <trkpt lat="59.4784497" lon="17.7856204">
        <ele>16.2</ele>
        <time>2012-04-29T12:20:34Z</time>
      </trkpt>
      <trkpt lat="59.4780919" lon="17.7858294">
        <ele>15.8</ele>
        <time>2012-04-29T12:20:38Z</time>
      </trkpt>
      <trkpt lat="59.4777334" lon="17.7859764">
        <ele>14.4</ele>
        <time>2012-04-29T12:20:42Z</time>
      </trkpt>
      <trkpt lat="59.4773635" lon="17.7860864">
        <ele>12.2</ele>
        <time>2012-04-29T12:20:46Z</time>
      </trkpt>
      <trkpt lat="59.4769026" lon="17.7862118">
        <ele>10.2</ele>
        <time>2012-04-29T12:20:51Z</time>
      </trkpt>
      <trkpt lat="59.4765156" lon="17.7863273">
        <ele>10.2</ele>
        <time>2012-04-29T12:20:55Z</time>
      </trkpt>
      <trkpt lat="59.4761446" lon="17.7864324">
        <ele>9.2</ele>
        <time>2012-04-29T12:20:59Z</time>
      </trkpt>
      <trkpt lat="59.4757871" lon="17.7865465">
        <ele>9.2</ele>
        <time>2012-04-29T12:21:03Z</time>
      </trkpt>
      <trkpt lat="59.4753442" lon="17.7867082">
        <ele>9.8</ele>
        <time>2012-04-29T12:21:08Z</time>
      </trkpt>
      <trkpt lat="59.4749922" lon="17.786874">
        <ele>9.6</ele>
        <time>2012-04-29T12:21:12Z</time>
      </trkpt>
      <trkpt lat="59.4746399" lon="17.7870896">
        <ele>11.6</ele>
        <time>2012-04-29T12:21:16Z</time>
      </trkpt>
      <trkpt lat="59.4742406" lon="17.7874174">
        <ele>14.8</ele>
        <time>2012-04-29T12:21:21Z</time>
      </trkpt>
      <trkpt lat="59.4738876" lon="17.7878398">
        <ele>17.2</ele>
        <time>2012-04-29T12:21:26Z</time>
      </trkpt>
      <trkpt lat="59.4737722" lon="17.7880524">
        <ele>18</ele>
        <time>2012-04-29T12:21:28Z</time>
      </trkpt>
      <trkpt lat="59.473665" lon="17.7884202">
        <ele>18.2</ele>
        <time>2012-04-29T12:21:31Z</time>
      </trkpt>
      <trkpt lat="59.4736438" lon="17.7885461">
        <ele>18.4</ele>
        <time>2012-04-29T12:21:32Z</time>
      </trkpt>
      <trkpt lat="59.4735236" lon="17.7891992">
        <ele>17.8</ele>
        <time>2012-04-29T12:21:37Z</time>
      </trkpt>
      <trkpt lat="59.4733449" lon="17.7899008">
        <ele>14.4</ele>
        <time>2012-04-29T12:21:42Z</time>
      </trkpt>
      <trkpt lat="59.4731629" lon="17.7905169">
        <ele>11.6</ele>
        <time>2012-04-29T12:21:46Z</time>
      </trkpt>
      <trkpt lat="59.4729977" lon="17.7912026">
        <ele>7.4</ele>
        <time>2012-04-29T12:21:50Z</time>
      </trkpt>
      <trkpt lat="59.4728593" lon="17.7919821">
        <ele>4.6</ele>
        <time>2012-04-29T12:21:54Z</time>
      </trkpt>
      <trkpt lat="59.4727363" lon="17.7926944">
        <ele>3.2</ele>
        <time>2012-04-29T12:21:58Z</time>
      </trkpt>
      <trkpt lat="59.4725918" lon="17.7935361">
        <ele>2.4</ele>
        <time>2012-04-29T12:22:03Z</time>
      </trkpt>
      <trkpt lat="59.4724352" lon="17.7942795">
        <ele>2.6</ele>
        <time>2012-04-29T12:22:08Z</time>
      </trkpt>
      <trkpt lat="59.4721484" lon="17.7947933">
        <ele>3.2</ele>
        <time>2012-04-29T12:22:13Z</time>
      </trkpt>
      <trkpt lat="59.4720067" lon="17.7948996">
        <ele>3.8</ele>
        <time>2012-04-29T12:22:15Z</time>
      </trkpt>
      <trkpt lat="59.471795" lon="17.7950476">
        <ele>5.2</ele>
        <time>2012-04-29T12:22:18Z</time>
      </trkpt>
      <trkpt lat="59.4714516" lon="17.7953604">
        <ele>7</ele>
        <time>2012-04-29T12:22:23Z</time>
      </trkpt>
      <trkpt lat="59.4711219" lon="17.7957739">
        <ele>7.4</ele>
        <time>2012-04-29T12:22:28Z</time>
      </trkpt>
      <trkpt lat="59.4709794" lon="17.79592">
        <ele>8</ele>
        <time>2012-04-29T12:22:30Z</time>
      </trkpt>
      <trkpt lat="59.4707572" lon="17.7961059">
        <ele>8.2</ele>
        <time>2012-04-29T12:22:33Z</time>
      </trkpt>
      <trkpt lat="59.4703932" lon="17.7963854">
        <ele>9</ele>
        <time>2012-04-29T12:22:38Z</time>
      </trkpt>
      <trkpt lat="59.4700471" lon="17.7967529">
        <ele>11.2</ele>
        <time>2012-04-29T12:22:43Z</time>
      </trkpt>
      <trkpt lat="59.4697271" lon="17.7971482">
        <ele>12.6</ele>
        <time>2012-04-29T12:22:48Z</time>
      </trkpt>
      <trkpt lat="59.4693953" lon="17.7975424">
        <ele>12.4</ele>
        <time>2012-04-29T12:22:53Z</time>
      </trkpt>
      <trkpt lat="59.4691869" lon="17.7978183">
        <ele>11.8</ele>
        <time>2012-04-29T12:22:56Z</time>
      </trkpt>
      <trkpt lat="59.4690687" lon="17.7980581">
        <ele>11.2</ele>
        <time>2012-04-29T12:22:58Z</time>
      </trkpt>
      <trkpt lat="59.4689188" lon="17.7988633">
        <ele>10.4</ele>
        <time>2012-04-29T12:23:03Z</time>
      </trkpt>
      <trkpt lat="59.4689908" lon="17.7995802">
        <ele>8.6</ele>
        <time>2012-04-29T12:23:07Z</time>
      </trkpt>
      <trkpt lat="59.4691806" lon="17.7999647">
        <ele>7.8</ele>
        <time>2012-04-29T12:23:10Z</time>
      </trkpt>
      <trkpt lat="59.4692311" lon="17.8001106">
        <ele>6.8</ele>
        <time>2012-04-29T12:23:11Z</time>
      </trkpt>
      <trkpt lat="59.4695142" lon="17.8006332">
        <ele>6.6</ele>
        <time>2012-04-29T12:23:16Z</time>
      </trkpt>
      <trkpt lat="59.4697923" lon="17.8012294">
        <ele>6.2</ele>
        <time>2012-04-29T12:23:22Z</time>
      </trkpt>
      <trkpt lat="59.4700068" lon="17.8018372">
        <ele>7.4</ele>
        <time>2012-04-29T12:23:28Z</time>
      </trkpt>
      <trkpt lat="59.470083" lon="17.802337">
        <ele>11</ele>
        <time>2012-04-29T12:23:33Z</time>
      </trkpt>
      <trkpt lat="59.4700817" lon="17.8025697">
        <ele>12.4</ele>
        <time>2012-04-29T12:23:35Z</time>
      </trkpt>
      <trkpt lat="59.4700721" lon="17.8028017">
        <ele>14</ele>
        <time>2012-04-29T12:23:37Z</time>
      </trkpt>
      <trkpt lat="59.4699893" lon="17.8033447">
        <ele>13.6</ele>
        <time>2012-04-29T12:23:42Z</time>
      </trkpt>
      <trkpt lat="59.4698239" lon="17.8040543">
        <ele>15.4</ele>
        <time>2012-04-29T12:23:49Z</time>
      </trkpt>
      <trkpt lat="59.4696634" lon="17.8046852">
        <ele>15</ele>
        <time>2012-04-29T12:23:56Z</time>
      </trkpt>
      <trkpt lat="59.4696048" lon="17.8049353">
        <ele>15.4</ele>
        <time>2012-04-29T12:23:59Z</time>
      </trkpt>
      <trkpt lat="59.4695194" lon="17.805313">
        <ele>15.6</ele>
        <time>2012-04-29T12:24:03Z</time>
      </trkpt>
      <trkpt lat="59.4694884" lon="17.8054985">
        <ele>16.6</ele>
        <time>2012-04-29T12:24:05Z</time>
      </trkpt>
      <trkpt lat="59.4693742" lon="17.8059709">
        <ele>18.8</ele>
        <time>2012-04-29T12:24:10Z</time>
      </trkpt>
      <trkpt lat="59.4692285" lon="17.8066112">
        <ele>20.8</ele>
        <time>2012-04-29T12:24:18Z</time>
      </trkpt>
      <trkpt lat="59.4691023" lon="17.8073412">
        <ele>21.2</ele>
        <time>2012-04-29T12:24:27Z</time>
      </trkpt>
      <trkpt lat="59.4689138" lon="17.8073935">
        <ele>21.4</ele>
        <time>2012-04-29T12:24:32Z</time>
      </trkpt>
      <trkpt lat="59.4687014" lon="17.8073099">
        <ele>20.4</ele>
        <time>2012-04-29T12:24:36Z</time>
      </trkpt>
      <trkpt lat="59.4686383" lon="17.8072892">
        <ele>19.8</ele>
        <time>2012-04-29T12:24:37Z</time>
      </trkpt>
      <trkpt lat="59.4682673" lon="17.8073999">
        <ele>18.8</ele>
        <time>2012-04-29T12:24:42Z</time>
      </trkpt>
      <trkpt lat="59.4681912" lon="17.807441">
        <ele>18.4</ele>
        <time>2012-04-29T12:24:43Z</time>
      </trkpt>
      <trkpt lat="59.4678897" lon="17.8076719">
        <ele>18.4</ele>
        <time>2012-04-29T12:24:47Z</time>
      </trkpt>
      <trkpt lat="59.4675151" lon="17.8079896">
        <ele>17.8</ele>
        <time>2012-04-29T12:24:52Z</time>
      </trkpt>
      <trkpt lat="59.4671827" lon="17.8084093">
        <ele>18</ele>
        <time>2012-04-29T12:24:58Z</time>
      </trkpt>
      <trkpt lat="59.4668744" lon="17.8088738">
        <ele>14.4</ele>
        <time>2012-04-29T12:25:07Z</time>
      </trkpt>
      <trkpt lat="59.4668374" lon="17.8089172">
        <ele>14.4</ele>
        <time>2012-04-29T12:25:08Z</time>
      </trkpt>
      <trkpt lat="59.4665455" lon="17.8090567">
        <ele>14</ele>
        <time>2012-04-29T12:25:16Z</time>
      </trkpt>
      <trkpt lat="59.4662916" lon="17.8090582">
        <ele>15</ele>
        <time>2012-04-29T12:25:23Z</time>
      </trkpt>
      <trkpt lat="59.4661704" lon="17.8090532">
        <ele>15.4</ele>
        <time>2012-04-29T12:25:26Z</time>
      </trkpt>
      <trkpt lat="59.4659207" lon="17.8089152">
        <ele>18.4</ele>
        <time>2012-04-29T12:25:32Z</time>
      </trkpt>
      <trkpt lat="59.4657829" lon="17.8088852">
        <ele>19.4</ele>
        <time>2012-04-29T12:25:35Z</time>
      </trkpt>
      <trkpt lat="59.4654067" lon="17.8088309">
        <ele>21.2</ele>
        <time>2012-04-29T12:25:43Z</time>
      </trkpt>
      <trkpt lat="59.4653665" lon="17.8088138">
        <ele>21.2</ele>
        <time>2012-04-29T12:25:44Z</time>
      </trkpt>
      <trkpt lat="59.4652396" lon="17.8087064">
        <ele>22.4</ele>
        <time>2012-04-29T12:25:47Z</time>
      </trkpt>
      <trkpt lat="59.4650945" lon="17.808531">
        <ele>28.2</ele>
        <time>2012-04-29T12:25:51Z</time>
      </trkpt>
      <trkpt lat="59.4650552" lon="17.808497">
        <ele>30.6</ele>
        <time>2012-04-29T12:25:52Z</time>
      </trkpt>
      <trkpt lat="59.4648796" lon="17.8084283">
        <ele>29.4</ele>
        <time>2012-04-29T12:25:56Z</time>
      </trkpt>
      <trkpt lat="59.464831" lon="17.8084242">
        <ele>29</ele>
        <time>2012-04-29T12:25:57Z</time>
      </trkpt>
      <trkpt lat="59.4646552" lon="17.8084609">
        <ele>27.8</ele>
        <time>2012-04-29T12:26:01Z</time>
      </trkpt>
      <trkpt lat="59.4646046" lon="17.8084665">
        <ele>26.8</ele>
        <time>2012-04-29T12:26:02Z</time>
      </trkpt>
      <trkpt lat="59.4643637" lon="17.808334">
        <ele>26.8</ele>
        <time>2012-04-29T12:26:06Z</time>
      </trkpt>
      <trkpt lat="59.4642491" lon="17.808248">
        <ele>26.8</ele>
        <time>2012-04-29T12:26:08Z</time>
      </trkpt>
      <trkpt lat="59.463926" lon="17.8079694">
        <ele>25.4</ele>
        <time>2012-04-29T12:26:14Z</time>
      </trkpt>
      <trkpt lat="59.4635467" lon="17.8076508">
        <ele>24</ele>
        <time>2012-04-29T12:26:21Z</time>
      </trkpt>
      <trkpt lat="59.4633362" lon="17.8074192">
        <ele>24.6</ele>
        <time>2012-04-29T12:26:25Z</time>
      </trkpt>
      <trkpt lat="59.4632504" lon="17.8072706">
        <ele>25.2</ele>
        <time>2012-04-29T12:26:27Z</time>
      </trkpt>
      <trkpt lat="59.462966" lon="17.8068081">
        <ele>27.8</ele>
        <time>2012-04-29T12:26:34Z</time>
      </trkpt>
      <trkpt lat="59.4626438" lon="17.8067742">
        <ele>32</ele>
        <time>2012-04-29T12:26:40Z</time>
      </trkpt>
      <trkpt lat="59.4625863" lon="17.8068079">
        <ele>32.2</ele>
        <time>2012-04-29T12:26:41Z</time>
      </trkpt>
      <trkpt lat="59.4621801" lon="17.8068873">
        <ele>31.4</ele>
        <time>2012-04-29T12:26:48Z</time>
      </trkpt>
      <trkpt lat="59.4620802" lon="17.806893">
        <ele>31.4</ele>
        <time>2012-04-29T12:26:50Z</time>
      </trkpt>
      <trkpt lat="59.461779" lon="17.8069458">
        <ele>29.2</ele>
        <time>2012-04-29T12:26:56Z</time>
      </trkpt>
      <trkpt lat="59.4617357" lon="17.8069417">
        <ele>28.8</ele>
        <time>2012-04-29T12:26:57Z</time>
      </trkpt>
      <trkpt lat="59.4614606" lon="17.8066625">
        <ele>30.2</ele>
        <time>2012-04-29T12:27:08Z</time>
      </trkpt>
      <trkpt lat="59.4610825" lon="17.8066728">
        <ele>28.6</ele>
        <time>2012-04-29T12:27:15Z</time>
      </trkpt>
      <trkpt lat="59.4607228" lon="17.8066877">
        <ele>28.6</ele>
        <time>2012-04-29T12:27:21Z</time>
      </trkpt>
      <trkpt lat="59.4603522" lon="17.8066359">
        <ele>34.4</ele>
        <time>2012-04-29T12:27:27Z</time>
      </trkpt>
      <trkpt lat="59.459978" lon="17.8065784">
        <ele>38.2</ele>
        <time>2012-04-29T12:27:33Z</time>
      </trkpt>
      <trkpt lat="59.4595928" lon="17.8064935">
        <ele>40.8</ele>
        <time>2012-04-29T12:27:39Z</time>
      </trkpt>
      <trkpt lat="59.459184" lon="17.8064168">
        <ele>41</ele>
        <time>2012-04-29T12:27:45Z</time>
      </trkpt>
      <trkpt lat="59.4591146" lon="17.8064032">
        <ele>40.2</ele>
        <time>2012-04-29T12:27:46Z</time>
      </trkpt>
      <trkpt lat="59.4587531" lon="17.8063381">
        <ele>37.8</ele>
        <time>2012-04-29T12:27:51Z</time>
      </trkpt>
      <trkpt lat="59.4583509" lon="17.8062264">
        <ele>35.4</ele>
        <time>2012-04-29T12:27:56Z</time>
      </trkpt>
      <trkpt lat="59.4579235" lon="17.8060528">
        <ele>33</ele>
        <time>2012-04-29T12:28:01Z</time>
      </trkpt>
      <trkpt lat="59.4575371" lon="17.805889">
        <ele>30.8</ele>
        <time>2012-04-29T12:28:06Z</time>
      </trkpt>
      <trkpt lat="59.4574123" lon="17.805826">
        <ele>31.2</ele>
        <time>2012-04-29T12:28:08Z</time>
      </trkpt>
      <trkpt lat="59.4573171" lon="17.8057429">
        <ele>31.6</ele>
        <time>2012-04-29T12:28:10Z</time>
      </trkpt>
    </trkseg>
  </trk>
</gpx>